<?xml version="1.0" encoding="UTF-8" standalone="no" ?>
<gpx xmlns="http://www.topografix.com/GPX/1/1" xmlns:xsi="http://www.w3.org/2001/XMLSchema-instance" xsi:schemaLocation="http://www.topografix.com/GPX/1/1 http://www.topografix.com/GPX/1/1/gpx.xsd" version="1.1" creator="VisuGPX - https://www.visugpx.com">
  <metadata>
    <name>VTT Tour du Montserieux depuis Piegut</name>
    <desc><![CDATA[A quatre avec Jean Louis pour ce circuit par un glacial jour de juillet !!!]]></desc>
  </metadata>
  <trk>
    <name><![CDATA[N°   Montsérieux a partir de Piegut 08/07/2014]]></name>
    <trkseg>
      <trkpt lat="44.45115" lon="6.12485">
        <ele>1042.206543</ele>
        <time>2014-07-08T07:39:31Z</time>
      </trkpt>
      <trkpt lat="44.45127" lon="6.12617">
        <ele>1040.7644043</ele>
        <time>2014-07-08T07:39:34Z</time>
      </trkpt>
      <trkpt lat="44.45138" lon="6.12671">
        <ele>1041.2451172</ele>
        <time>2014-07-08T07:39:38Z</time>
      </trkpt>
      <trkpt lat="44.45135" lon="6.12778">
        <ele>1042.206543</ele>
        <time>2014-07-08T07:39:44Z</time>
      </trkpt>
      <trkpt lat="44.45135" lon="6.12778">
        <ele>1041.2451172</ele>
        <time>2014-07-08T07:39:55Z</time>
      </trkpt>
      <trkpt lat="44.45135" lon="6.12779">
        <ele>1042.6872559</ele>
        <time>2014-07-08T07:40:01Z</time>
      </trkpt>
      <trkpt lat="44.45135" lon="6.1278">
        <ele>1041.2451172</ele>
        <time>2014-07-08T07:40:03Z</time>
      </trkpt>
      <trkpt lat="44.45133" lon="6.12794">
        <ele>1041.2451172</ele>
        <time>2014-07-08T07:40:59Z</time>
      </trkpt>
      <trkpt lat="44.4513" lon="6.12804">
        <ele>1040.2839355</ele>
        <time>2014-07-08T07:41:08Z</time>
      </trkpt>
      <trkpt lat="44.45098" lon="6.12826">
        <ele>1039.3225098</ele>
        <time>2014-07-08T07:41:21Z</time>
      </trkpt>
      <trkpt lat="44.45077" lon="6.12869">
        <ele>1037.8806152</ele>
        <time>2014-07-08T07:41:28Z</time>
      </trkpt>
      <trkpt lat="44.45059" lon="6.129">
        <ele>1036.4387207</ele>
        <time>2014-07-08T07:41:32Z</time>
      </trkpt>
      <trkpt lat="44.45051" lon="6.12919">
        <ele>1035.4770508</ele>
        <time>2014-07-08T07:41:34Z</time>
      </trkpt>
      <trkpt lat="44.45025" lon="6.12947">
        <ele>1034.996582</ele>
        <time>2014-07-08T07:41:39Z</time>
      </trkpt>
      <trkpt lat="44.44996" lon="6.1296">
        <ele>1034.0351563</ele>
        <time>2014-07-08T07:41:48Z</time>
      </trkpt>
      <trkpt lat="44.44991" lon="6.12959">
        <ele>1033.5544434</ele>
        <time>2014-07-08T07:42:00Z</time>
      </trkpt>
      <trkpt lat="44.44989" lon="6.1296">
        <ele>1034.5158691</ele>
        <time>2014-07-08T07:42:06Z</time>
      </trkpt>
      <trkpt lat="44.44984" lon="6.12965">
        <ele>1034.996582</ele>
        <time>2014-07-08T07:42:09Z</time>
      </trkpt>
      <trkpt lat="44.44982" lon="6.12972">
        <ele>1035.4770508</ele>
        <time>2014-07-08T07:42:19Z</time>
      </trkpt>
      <trkpt lat="44.44975" lon="6.12979">
        <ele>1036.9191895</ele>
        <time>2014-07-08T07:42:26Z</time>
      </trkpt>
      <trkpt lat="44.44954" lon="6.12989">
        <ele>1038.842041</ele>
        <time>2014-07-08T07:42:41Z</time>
      </trkpt>
      <trkpt lat="44.44925" lon="6.13006">
        <ele>1040.2839355</ele>
        <time>2014-07-08T07:42:59Z</time>
      </trkpt>
      <trkpt lat="44.44891" lon="6.13016">
        <ele>1041.7258301</ele>
        <time>2014-07-08T07:43:19Z</time>
      </trkpt>
      <trkpt lat="44.44887" lon="6.13017">
        <ele>1042.206543</ele>
        <time>2014-07-08T07:43:21Z</time>
      </trkpt>
      <trkpt lat="44.44862" lon="6.13015">
        <ele>1043.1677246</ele>
        <time>2014-07-08T07:43:35Z</time>
      </trkpt>
      <trkpt lat="44.44828" lon="6.13016">
        <ele>1043.6484375</ele>
        <time>2014-07-08T07:43:50Z</time>
      </trkpt>
      <trkpt lat="44.44797" lon="6.13017">
        <ele>1043.6484375</ele>
        <time>2014-07-08T07:44:04Z</time>
      </trkpt>
      <trkpt lat="44.44768" lon="6.13029">
        <ele>1045.5710449</ele>
        <time>2014-07-08T07:44:20Z</time>
      </trkpt>
      <trkpt lat="44.44763" lon="6.13029">
        <ele>1046.0517578</ele>
        <time>2014-07-08T07:44:23Z</time>
      </trkpt>
      <trkpt lat="44.44755" lon="6.13032">
        <ele>1047.0129395</ele>
        <time>2014-07-08T07:44:28Z</time>
      </trkpt>
      <trkpt lat="44.44723" lon="6.13051">
        <ele>1047.9743652</ele>
        <time>2014-07-08T07:44:45Z</time>
      </trkpt>
      <trkpt lat="44.44683" lon="6.1307">
        <ele>1049.8969727</ele>
        <time>2014-07-08T07:45:04Z</time>
      </trkpt>
      <trkpt lat="44.44644" lon="6.13088">
        <ele>1050.3776855</ele>
        <time>2014-07-08T07:45:20Z</time>
      </trkpt>
      <trkpt lat="44.44604" lon="6.13095">
        <ele>1050.3776855</ele>
        <time>2014-07-08T07:45:32Z</time>
      </trkpt>
      <trkpt lat="44.44559" lon="6.13115">
        <ele>1050.3776855</ele>
        <time>2014-07-08T07:45:46Z</time>
      </trkpt>
      <trkpt lat="44.44525" lon="6.13138">
        <ele>1050.3776855</ele>
        <time>2014-07-08T07:45:58Z</time>
      </trkpt>
      <trkpt lat="44.44499" lon="6.13162">
        <ele>1050.8581543</ele>
        <time>2014-07-08T07:46:09Z</time>
      </trkpt>
      <trkpt lat="44.44496" lon="6.13179">
        <ele>1051.3388672</ele>
        <time>2014-07-08T07:46:14Z</time>
      </trkpt>
      <trkpt lat="44.44522" lon="6.13194">
        <ele>1051.3388672</ele>
        <time>2014-07-08T07:46:24Z</time>
      </trkpt>
      <trkpt lat="44.44556" lon="6.13209">
        <ele>1049.8969727</ele>
        <time>2014-07-08T07:46:34Z</time>
      </trkpt>
      <trkpt lat="44.4456" lon="6.13232">
        <ele>1049.8969727</ele>
        <time>2014-07-08T07:46:40Z</time>
      </trkpt>
      <trkpt lat="44.44554" lon="6.13303">
        <ele>1047.9743652</ele>
        <time>2014-07-08T07:46:54Z</time>
      </trkpt>
      <trkpt lat="44.44538" lon="6.13363">
        <ele>1047.0129395</ele>
        <time>2014-07-08T07:47:08Z</time>
      </trkpt>
      <trkpt lat="44.44513" lon="6.13394">
        <ele>1047.9743652</ele>
        <time>2014-07-08T07:47:19Z</time>
      </trkpt>
      <trkpt lat="44.44503" lon="6.13413">
        <ele>1047.4936523</ele>
        <time>2014-07-08T07:47:24Z</time>
      </trkpt>
      <trkpt lat="44.44487" lon="6.13473">
        <ele>1047.4936523</ele>
        <time>2014-07-08T07:47:37Z</time>
      </trkpt>
      <trkpt lat="44.44477" lon="6.13516">
        <ele>1047.0129395</ele>
        <time>2014-07-08T07:47:48Z</time>
      </trkpt>
      <trkpt lat="44.44475" lon="6.13522">
        <ele>1047.0129395</ele>
        <time>2014-07-08T07:47:50Z</time>
      </trkpt>
      <trkpt lat="44.44476" lon="6.13535">
        <ele>1047.0129395</ele>
        <time>2014-07-08T07:47:53Z</time>
      </trkpt>
      <trkpt lat="44.44482" lon="6.13547">
        <ele>1047.0129395</ele>
        <time>2014-07-08T07:47:56Z</time>
      </trkpt>
      <trkpt lat="44.44516" lon="6.13542">
        <ele>1048.454834</ele>
        <time>2014-07-08T07:48:08Z</time>
      </trkpt>
      <trkpt lat="44.44517" lon="6.13541">
        <ele>1048.9355469</ele>
        <time>2014-07-08T07:48:09Z</time>
      </trkpt>
      <trkpt lat="44.44521" lon="6.13538">
        <ele>1048.9355469</ele>
        <time>2014-07-08T07:48:11Z</time>
      </trkpt>
      <trkpt lat="44.44534" lon="6.13535">
        <ele>1049.8969727</ele>
        <time>2014-07-08T07:48:16Z</time>
      </trkpt>
      <trkpt lat="44.44551" lon="6.13555">
        <ele>1050.8581543</ele>
        <time>2014-07-08T07:48:26Z</time>
      </trkpt>
      <trkpt lat="44.44545" lon="6.13571">
        <ele>1052.300293</ele>
        <time>2014-07-08T07:48:33Z</time>
      </trkpt>
      <trkpt lat="44.44548" lon="6.13599">
        <ele>1054.2231445</ele>
        <time>2014-07-08T07:48:46Z</time>
      </trkpt>
      <trkpt lat="44.44557" lon="6.13602">
        <ele>1054.7036133</ele>
        <time>2014-07-08T07:48:50Z</time>
      </trkpt>
      <trkpt lat="44.44572" lon="6.13593">
        <ele>1055.6650391</ele>
        <time>2014-07-08T07:49:00Z</time>
      </trkpt>
      <trkpt lat="44.44581" lon="6.13589">
        <ele>1056.1455078</ele>
        <time>2014-07-08T07:49:08Z</time>
      </trkpt>
      <trkpt lat="44.44589" lon="6.13591">
        <ele>1056.1455078</ele>
        <time>2014-07-08T07:49:18Z</time>
      </trkpt>
      <trkpt lat="44.44588" lon="6.13594">
        <ele>1056.6262207</ele>
        <time>2014-07-08T07:49:29Z</time>
      </trkpt>
      <trkpt lat="44.44587" lon="6.13595">
        <ele>1056.6262207</ele>
        <time>2014-07-08T07:49:35Z</time>
      </trkpt>
      <trkpt lat="44.44589" lon="6.13597">
        <ele>1056.6262207</ele>
        <time>2014-07-08T07:49:37Z</time>
      </trkpt>
      <trkpt lat="44.44591" lon="6.136">
        <ele>1057.1069336</ele>
        <time>2014-07-08T07:49:39Z</time>
      </trkpt>
      <trkpt lat="44.4461" lon="6.13608">
        <ele>1058.5488281</ele>
        <time>2014-07-08T07:49:50Z</time>
      </trkpt>
      <trkpt lat="44.44616" lon="6.13617">
        <ele>1059.5102539</ele>
        <time>2014-07-08T07:49:59Z</time>
      </trkpt>
      <trkpt lat="44.44631" lon="6.13627">
        <ele>1060.4714355</ele>
        <time>2014-07-08T07:50:09Z</time>
      </trkpt>
      <trkpt lat="44.44639" lon="6.13629">
        <ele>1060.9521484</ele>
        <time>2014-07-08T07:50:14Z</time>
      </trkpt>
      <trkpt lat="44.44655" lon="6.13631">
        <ele>1062.8747559</ele>
        <time>2014-07-08T07:50:23Z</time>
      </trkpt>
      <trkpt lat="44.44676" lon="6.13636">
        <ele>1063.8359375</ele>
        <time>2014-07-08T07:50:37Z</time>
      </trkpt>
      <trkpt lat="44.44692" lon="6.13641">
        <ele>1065.7587891</ele>
        <time>2014-07-08T07:50:48Z</time>
      </trkpt>
      <trkpt lat="44.44688" lon="6.1365">
        <ele>1065.7587891</ele>
        <time>2014-07-08T07:50:53Z</time>
      </trkpt>
      <trkpt lat="44.44686" lon="6.13668">
        <ele>1067.2006836</ele>
        <time>2014-07-08T07:51:04Z</time>
      </trkpt>
      <trkpt lat="44.44698" lon="6.13695">
        <ele>1068.6428223</ele>
        <time>2014-07-08T07:51:17Z</time>
      </trkpt>
      <trkpt lat="44.44705" lon="6.13704">
        <ele>1069.1235352</ele>
        <time>2014-07-08T07:51:23Z</time>
      </trkpt>
      <trkpt lat="44.44708" lon="6.13734">
        <ele>1071.5266113</ele>
        <time>2014-07-08T07:51:37Z</time>
      </trkpt>
      <trkpt lat="44.44708" lon="6.1374">
        <ele>1071.5266113</ele>
        <time>2014-07-08T07:51:41Z</time>
      </trkpt>
      <trkpt lat="44.44708" lon="6.13746">
        <ele>1072.0073242</ele>
        <time>2014-07-08T07:51:45Z</time>
      </trkpt>
      <trkpt lat="44.44711" lon="6.13753">
        <ele>1072.4880371</ele>
        <time>2014-07-08T07:51:48Z</time>
      </trkpt>
      <trkpt lat="44.4471" lon="6.13757">
        <ele>1072.4880371</ele>
        <time>2014-07-08T07:51:50Z</time>
      </trkpt>
      <trkpt lat="44.4471" lon="6.13761">
        <ele>1072.96875</ele>
        <time>2014-07-08T07:51:53Z</time>
      </trkpt>
      <trkpt lat="44.44702" lon="6.13787">
        <ele>1074.8913574</ele>
        <time>2014-07-08T07:52:06Z</time>
      </trkpt>
      <trkpt lat="44.44697" lon="6.13807">
        <ele>1076.333252</ele>
        <time>2014-07-08T07:52:16Z</time>
      </trkpt>
      <trkpt lat="44.44686" lon="6.1385">
        <ele>1079.6977539</ele>
        <time>2014-07-08T07:52:39Z</time>
      </trkpt>
      <trkpt lat="44.44683" lon="6.13865">
        <ele>1080.1784668</ele>
        <time>2014-07-08T07:52:47Z</time>
      </trkpt>
      <trkpt lat="44.44678" lon="6.13877">
        <ele>1081.6203613</ele>
        <time>2014-07-08T07:52:54Z</time>
      </trkpt>
      <trkpt lat="44.44678" lon="6.13884">
        <ele>1082.1010742</ele>
        <time>2014-07-08T07:52:58Z</time>
      </trkpt>
      <trkpt lat="44.44677" lon="6.13904">
        <ele>1083.5429688</ele>
        <time>2014-07-08T07:53:11Z</time>
      </trkpt>
      <trkpt lat="44.44682" lon="6.13917">
        <ele>1083.5429688</ele>
        <time>2014-07-08T07:53:16Z</time>
      </trkpt>
      <trkpt lat="44.44687" lon="6.13931">
        <ele>1084.5046387</ele>
        <time>2014-07-08T07:53:25Z</time>
      </trkpt>
      <trkpt lat="44.44693" lon="6.13934">
        <ele>1084.9853516</ele>
        <time>2014-07-08T07:53:31Z</time>
      </trkpt>
      <trkpt lat="44.44699" lon="6.13934">
        <ele>1085.9465332</ele>
        <time>2014-07-08T07:53:38Z</time>
      </trkpt>
      <trkpt lat="44.44715" lon="6.13943">
        <ele>1086.9077148</ele>
        <time>2014-07-08T07:53:48Z</time>
      </trkpt>
      <trkpt lat="44.44724" lon="6.13947">
        <ele>1087.8691406</ele>
        <time>2014-07-08T07:53:54Z</time>
      </trkpt>
      <trkpt lat="44.4474" lon="6.13953">
        <ele>1088.3498535</ele>
        <time>2014-07-08T07:54:03Z</time>
      </trkpt>
      <trkpt lat="44.44745" lon="6.1396">
        <ele>1089.3110352</ele>
        <time>2014-07-08T07:54:07Z</time>
      </trkpt>
      <trkpt lat="44.44749" lon="6.13968">
        <ele>1089.3110352</ele>
        <time>2014-07-08T07:54:12Z</time>
      </trkpt>
      <trkpt lat="44.44748" lon="6.13988">
        <ele>1090.2724609</ele>
        <time>2014-07-08T07:54:22Z</time>
      </trkpt>
      <trkpt lat="44.44744" lon="6.14005">
        <ele>1090.7529297</ele>
        <time>2014-07-08T07:54:30Z</time>
      </trkpt>
      <trkpt lat="44.44744" lon="6.14016">
        <ele>1091.7143555</ele>
        <time>2014-07-08T07:54:36Z</time>
      </trkpt>
      <trkpt lat="44.4474" lon="6.14041">
        <ele>1092.1950684</ele>
        <time>2014-07-08T07:54:47Z</time>
      </trkpt>
      <trkpt lat="44.44741" lon="6.14049">
        <ele>1092.6757813</ele>
        <time>2014-07-08T07:54:51Z</time>
      </trkpt>
      <trkpt lat="44.44738" lon="6.14073">
        <ele>1094.1176758</ele>
        <time>2014-07-08T07:55:03Z</time>
      </trkpt>
      <trkpt lat="44.44734" lon="6.1408">
        <ele>1094.1176758</ele>
        <time>2014-07-08T07:55:07Z</time>
      </trkpt>
      <trkpt lat="44.44731" lon="6.14099">
        <ele>1094.5981445</ele>
        <time>2014-07-08T07:55:15Z</time>
      </trkpt>
      <trkpt lat="44.44733" lon="6.14106">
        <ele>1094.1176758</ele>
        <time>2014-07-08T07:55:18Z</time>
      </trkpt>
      <trkpt lat="44.44752" lon="6.1413">
        <ele>1094.5981445</ele>
        <time>2014-07-08T07:55:29Z</time>
      </trkpt>
      <trkpt lat="44.44785" lon="6.14145">
        <ele>1095.5595703</ele>
        <time>2014-07-08T07:55:42Z</time>
      </trkpt>
      <trkpt lat="44.44806" lon="6.14184">
        <ele>1097.0014648</ele>
        <time>2014-07-08T07:55:58Z</time>
      </trkpt>
      <trkpt lat="44.44804" lon="6.14203">
        <ele>1097.4821777</ele>
        <time>2014-07-08T07:56:05Z</time>
      </trkpt>
      <trkpt lat="44.44802" lon="6.14225">
        <ele>1097.9628906</ele>
        <time>2014-07-08T07:56:14Z</time>
      </trkpt>
      <trkpt lat="44.44802" lon="6.14228">
        <ele>1097.4821777</ele>
        <time>2014-07-08T07:56:16Z</time>
      </trkpt>
      <trkpt lat="44.44806" lon="6.14228">
        <ele>1097.4821777</ele>
        <time>2014-07-08T07:56:19Z</time>
      </trkpt>
      <trkpt lat="44.4482" lon="6.14218">
        <ele>1098.4433594</ele>
        <time>2014-07-08T07:56:29Z</time>
      </trkpt>
      <trkpt lat="44.4483" lon="6.14218">
        <ele>1098.4433594</ele>
        <time>2014-07-08T07:56:34Z</time>
      </trkpt>
      <trkpt lat="44.44866" lon="6.14246">
        <ele>1099.885498</ele>
        <time>2014-07-08T07:56:47Z</time>
      </trkpt>
      <trkpt lat="44.44882" lon="6.14249">
        <ele>1100.3664551</ele>
        <time>2014-07-08T07:56:57Z</time>
      </trkpt>
      <trkpt lat="44.4489" lon="6.14251">
        <ele>1100.3664551</ele>
        <time>2014-07-08T07:57:01Z</time>
      </trkpt>
      <trkpt lat="44.44908" lon="6.14255">
        <ele>1100.8469238</ele>
        <time>2014-07-08T07:57:09Z</time>
      </trkpt>
      <trkpt lat="44.44915" lon="6.14256">
        <ele>1101.3276367</ele>
        <time>2014-07-08T07:57:15Z</time>
      </trkpt>
      <trkpt lat="44.44933" lon="6.14252">
        <ele>1102.2888184</ele>
        <time>2014-07-08T07:57:26Z</time>
      </trkpt>
      <trkpt lat="44.44946" lon="6.14252">
        <ele>1102.2888184</ele>
        <time>2014-07-08T07:57:31Z</time>
      </trkpt>
      <trkpt lat="44.4499" lon="6.14277">
        <ele>1101.8083496</ele>
        <time>2014-07-08T07:57:48Z</time>
      </trkpt>
      <trkpt lat="44.44993" lon="6.14277">
        <ele>1101.8083496</ele>
        <time>2014-07-08T07:57:49Z</time>
      </trkpt>
      <trkpt lat="44.44999" lon="6.14281">
        <ele>1102.2888184</ele>
        <time>2014-07-08T07:57:52Z</time>
      </trkpt>
      <trkpt lat="44.45011" lon="6.14282">
        <ele>1101.8083496</ele>
        <time>2014-07-08T07:57:57Z</time>
      </trkpt>
      <trkpt lat="44.45027" lon="6.14302">
        <ele>1101.8083496</ele>
        <time>2014-07-08T07:58:07Z</time>
      </trkpt>
      <trkpt lat="44.45029" lon="6.14332">
        <ele>1101.8083496</ele>
        <time>2014-07-08T07:58:17Z</time>
      </trkpt>
      <trkpt lat="44.4503" lon="6.14375">
        <ele>1101.8083496</ele>
        <time>2014-07-08T07:58:31Z</time>
      </trkpt>
      <trkpt lat="44.45024" lon="6.144">
        <ele>1101.3276367</ele>
        <time>2014-07-08T07:58:39Z</time>
      </trkpt>
      <trkpt lat="44.45038" lon="6.14418">
        <ele>1101.3276367</ele>
        <time>2014-07-08T07:58:47Z</time>
      </trkpt>
      <trkpt lat="44.45058" lon="6.14432">
        <ele>1101.3276367</ele>
        <time>2014-07-08T07:58:55Z</time>
      </trkpt>
      <trkpt lat="44.45091" lon="6.14457">
        <ele>1101.3276367</ele>
        <time>2014-07-08T07:59:09Z</time>
      </trkpt>
      <trkpt lat="44.45121" lon="6.14479">
        <ele>1101.8083496</ele>
        <time>2014-07-08T07:59:19Z</time>
      </trkpt>
      <trkpt lat="44.45156" lon="6.14499">
        <ele>1101.8083496</ele>
        <time>2014-07-08T07:59:32Z</time>
      </trkpt>
      <trkpt lat="44.45183" lon="6.14532">
        <ele>1102.2888184</ele>
        <time>2014-07-08T07:59:48Z</time>
      </trkpt>
      <trkpt lat="44.4519" lon="6.14577">
        <ele>1103.2502441</ele>
        <time>2014-07-08T08:00:03Z</time>
      </trkpt>
      <trkpt lat="44.45183" lon="6.14617">
        <ele>1104.2116699</ele>
        <time>2014-07-08T08:00:16Z</time>
      </trkpt>
      <trkpt lat="44.45178" lon="6.14632">
        <ele>1104.6921387</ele>
        <time>2014-07-08T08:00:22Z</time>
      </trkpt>
      <trkpt lat="44.45175" lon="6.14639">
        <ele>1105.1728516</ele>
        <time>2014-07-08T08:00:25Z</time>
      </trkpt>
      <trkpt lat="44.45164" lon="6.14657">
        <ele>1106.6147461</ele>
        <time>2014-07-08T08:00:34Z</time>
      </trkpt>
      <trkpt lat="44.45147" lon="6.14671">
        <ele>1108.0568848</ele>
        <time>2014-07-08T08:00:44Z</time>
      </trkpt>
      <trkpt lat="44.45131" lon="6.14683">
        <ele>1109.4987793</ele>
        <time>2014-07-08T08:00:56Z</time>
      </trkpt>
      <trkpt lat="44.45116" lon="6.14696">
        <ele>1111.9020996</ele>
        <time>2014-07-08T08:01:08Z</time>
      </trkpt>
      <trkpt lat="44.45103" lon="6.14708">
        <ele>1113.3439941</ele>
        <time>2014-07-08T08:01:18Z</time>
      </trkpt>
      <trkpt lat="44.45093" lon="6.14722">
        <ele>1114.3051758</ele>
        <time>2014-07-08T08:01:29Z</time>
      </trkpt>
      <trkpt lat="44.45089" lon="6.14734">
        <ele>1116.2280273</ele>
        <time>2014-07-08T08:01:38Z</time>
      </trkpt>
      <trkpt lat="44.45087" lon="6.14741">
        <ele>1116.2280273</ele>
        <time>2014-07-08T08:01:42Z</time>
      </trkpt>
      <trkpt lat="44.45069" lon="6.14772">
        <ele>1118.6313477</ele>
        <time>2014-07-08T08:02:02Z</time>
      </trkpt>
      <trkpt lat="44.45064" lon="6.14777">
        <ele>1118.6313477</ele>
        <time>2014-07-08T08:02:07Z</time>
      </trkpt>
      <trkpt lat="44.45064" lon="6.14781">
        <ele>1119.5927734</ele>
        <time>2014-07-08T08:02:09Z</time>
      </trkpt>
      <trkpt lat="44.45061" lon="6.14787">
        <ele>1120.0732422</ele>
        <time>2014-07-08T08:02:12Z</time>
      </trkpt>
      <trkpt lat="44.4506" lon="6.14805">
        <ele>1120.0732422</ele>
        <time>2014-07-08T08:02:19Z</time>
      </trkpt>
      <trkpt lat="44.45061" lon="6.14813">
        <ele>1121.034668</ele>
        <time>2014-07-08T08:02:23Z</time>
      </trkpt>
      <trkpt lat="44.4506" lon="6.14818">
        <ele>1121.034668</ele>
        <time>2014-07-08T08:02:26Z</time>
      </trkpt>
      <trkpt lat="44.45062" lon="6.14829">
        <ele>1121.5151367</ele>
        <time>2014-07-08T08:02:33Z</time>
      </trkpt>
      <trkpt lat="44.45063" lon="6.14833">
        <ele>1121.9958496</ele>
        <time>2014-07-08T08:02:35Z</time>
      </trkpt>
      <trkpt lat="44.45073" lon="6.14862">
        <ele>1123.918457</ele>
        <time>2014-07-08T08:02:51Z</time>
      </trkpt>
      <trkpt lat="44.45077" lon="6.14872">
        <ele>1124.3991699</ele>
        <time>2014-07-08T08:02:56Z</time>
      </trkpt>
      <trkpt lat="44.45095" lon="6.14901">
        <ele>1126.3217773</ele>
        <time>2014-07-08T08:03:12Z</time>
      </trkpt>
      <trkpt lat="44.45106" lon="6.14922">
        <ele>1127.7636719</ele>
        <time>2014-07-08T08:03:24Z</time>
      </trkpt>
      <trkpt lat="44.45114" lon="6.1493">
        <ele>1128.2443848</ele>
        <time>2014-07-08T08:03:27Z</time>
      </trkpt>
      <trkpt lat="44.45115" lon="6.14935">
        <ele>1128.7250977</ele>
        <time>2014-07-08T08:03:29Z</time>
      </trkpt>
      <trkpt lat="44.45123" lon="6.14949">
        <ele>1129.6862793</ele>
        <time>2014-07-08T08:03:37Z</time>
      </trkpt>
      <trkpt lat="44.45134" lon="6.1498">
        <ele>1131.6088867</ele>
        <time>2014-07-08T08:03:53Z</time>
      </trkpt>
      <trkpt lat="44.45133" lon="6.14991">
        <ele>1132.5705566</ele>
        <time>2014-07-08T08:03:59Z</time>
      </trkpt>
      <trkpt lat="44.45135" lon="6.15001">
        <ele>1133.5317383</ele>
        <time>2014-07-08T08:04:04Z</time>
      </trkpt>
      <trkpt lat="44.45122" lon="6.15035">
        <ele>1135.4543457</ele>
        <time>2014-07-08T08:04:22Z</time>
      </trkpt>
      <trkpt lat="44.4511" lon="6.1505">
        <ele>1136.8962402</ele>
        <time>2014-07-08T08:04:35Z</time>
      </trkpt>
      <trkpt lat="44.45108" lon="6.15052">
        <ele>1136.8962402</ele>
        <time>2014-07-08T08:04:36Z</time>
      </trkpt>
      <trkpt lat="44.45105" lon="6.15056">
        <ele>1137.857666</ele>
        <time>2014-07-08T08:04:39Z</time>
      </trkpt>
      <trkpt lat="44.45101" lon="6.15063">
        <ele>1137.857666</ele>
        <time>2014-07-08T08:04:43Z</time>
      </trkpt>
      <trkpt lat="44.45099" lon="6.15071">
        <ele>1138.3383789</ele>
        <time>2014-07-08T08:04:47Z</time>
      </trkpt>
      <trkpt lat="44.45088" lon="6.15097">
        <ele>1140.2609863</ele>
        <time>2014-07-08T08:05:00Z</time>
      </trkpt>
      <trkpt lat="44.45082" lon="6.15115">
        <ele>1141.222168</ele>
        <time>2014-07-08T08:05:10Z</time>
      </trkpt>
      <trkpt lat="44.45077" lon="6.15126">
        <ele>1142.1835938</ele>
        <time>2014-07-08T08:05:16Z</time>
      </trkpt>
      <trkpt lat="44.45072" lon="6.15134">
        <ele>1142.6643066</ele>
        <time>2014-07-08T08:05:21Z</time>
      </trkpt>
      <trkpt lat="44.45068" lon="6.15141">
        <ele>1143.6254883</ele>
        <time>2014-07-08T08:05:26Z</time>
      </trkpt>
      <trkpt lat="44.45066" lon="6.15145">
        <ele>1144.1062012</ele>
        <time>2014-07-08T08:05:28Z</time>
      </trkpt>
      <trkpt lat="44.45054" lon="6.15167">
        <ele>1145.5480957</ele>
        <time>2014-07-08T08:05:41Z</time>
      </trkpt>
      <trkpt lat="44.4505" lon="6.15172">
        <ele>1146.0288086</ele>
        <time>2014-07-08T08:05:47Z</time>
      </trkpt>
      <trkpt lat="44.45025" lon="6.15165">
        <ele>1147.4707031</ele>
        <time>2014-07-08T08:06:02Z</time>
      </trkpt>
      <trkpt lat="44.45019" lon="6.15158">
        <ele>1148.4321289</ele>
        <time>2014-07-08T08:06:07Z</time>
      </trkpt>
      <trkpt lat="44.44998" lon="6.15145">
        <ele>1150.3549805</ele>
        <time>2014-07-08T08:06:22Z</time>
      </trkpt>
      <trkpt lat="44.44988" lon="6.15138">
        <ele>1151.3161621</ele>
        <time>2014-07-08T08:06:30Z</time>
      </trkpt>
      <trkpt lat="44.44981" lon="6.15133">
        <ele>1151.796875</ele>
        <time>2014-07-08T08:06:34Z</time>
      </trkpt>
      <trkpt lat="44.44974" lon="6.15128">
        <ele>1152.2773438</ele>
        <time>2014-07-08T08:06:40Z</time>
      </trkpt>
      <trkpt lat="44.44959" lon="6.15113">
        <ele>1153.7194824</ele>
        <time>2014-07-08T08:06:52Z</time>
      </trkpt>
      <trkpt lat="44.44954" lon="6.15111">
        <ele>1154.2001953</ele>
        <time>2014-07-08T08:06:55Z</time>
      </trkpt>
      <trkpt lat="44.44939" lon="6.15104">
        <ele>1155.6420898</ele>
        <time>2014-07-08T08:07:05Z</time>
      </trkpt>
      <trkpt lat="44.44924" lon="6.15106">
        <ele>1157.0839844</ele>
        <time>2014-07-08T08:07:13Z</time>
      </trkpt>
      <trkpt lat="44.44912" lon="6.15108">
        <ele>1158.0454102</ele>
        <time>2014-07-08T08:07:23Z</time>
      </trkpt>
      <trkpt lat="44.44891" lon="6.1512">
        <ele>1159.9677734</ele>
        <time>2014-07-08T08:07:36Z</time>
      </trkpt>
      <trkpt lat="44.44879" lon="6.15133">
        <ele>1160.9291992</ele>
        <time>2014-07-08T08:07:46Z</time>
      </trkpt>
      <trkpt lat="44.44861" lon="6.15137">
        <ele>1162.3710938</ele>
        <time>2014-07-08T08:07:59Z</time>
      </trkpt>
      <trkpt lat="44.44851" lon="6.15143">
        <ele>1162.8518066</ele>
        <time>2014-07-08T08:08:07Z</time>
      </trkpt>
      <trkpt lat="44.44827" lon="6.15154">
        <ele>1164.7746582</ele>
        <time>2014-07-08T08:08:24Z</time>
      </trkpt>
      <trkpt lat="44.44811" lon="6.1515">
        <ele>1165.736084</ele>
        <time>2014-07-08T08:08:36Z</time>
      </trkpt>
      <trkpt lat="44.44788" lon="6.1515">
        <ele>1167.1779785</ele>
        <time>2014-07-08T08:08:51Z</time>
      </trkpt>
      <trkpt lat="44.44779" lon="6.15151">
        <ele>1168.619873</ele>
        <time>2014-07-08T08:08:57Z</time>
      </trkpt>
      <trkpt lat="44.44764" lon="6.15146">
        <ele>1169.1005859</ele>
        <time>2014-07-08T08:09:08Z</time>
      </trkpt>
      <trkpt lat="44.44762" lon="6.15143">
        <ele>1169.5812988</ele>
        <time>2014-07-08T08:09:10Z</time>
      </trkpt>
      <trkpt lat="44.44756" lon="6.15139">
        <ele>1170.0617676</ele>
        <time>2014-07-08T08:09:14Z</time>
      </trkpt>
      <trkpt lat="44.44758" lon="6.15131">
        <ele>1169.5812988</ele>
        <time>2014-07-08T08:09:25Z</time>
      </trkpt>
      <trkpt lat="44.44757" lon="6.15136">
        <ele>1169.5812988</ele>
        <time>2014-07-08T08:09:45Z</time>
      </trkpt>
      <trkpt lat="44.44762" lon="6.1515">
        <ele>1170.5424805</ele>
        <time>2014-07-08T08:11:03Z</time>
      </trkpt>
      <trkpt lat="44.44767" lon="6.15156">
        <ele>1170.5424805</ele>
        <time>2014-07-08T08:11:51Z</time>
      </trkpt>
      <trkpt lat="44.44761" lon="6.15155">
        <ele>1171.984375</ele>
        <time>2014-07-08T08:15:29Z</time>
      </trkpt>
      <trkpt lat="44.44757" lon="6.15153">
        <ele>1172.4650879</ele>
        <time>2014-07-08T08:15:34Z</time>
      </trkpt>
      <trkpt lat="44.44754" lon="6.15153">
        <ele>1172.4650879</ele>
        <time>2014-07-08T08:15:36Z</time>
      </trkpt>
      <trkpt lat="44.44742" lon="6.15146">
        <ele>1173.9069824</ele>
        <time>2014-07-08T08:15:44Z</time>
      </trkpt>
      <trkpt lat="44.4473" lon="6.15145">
        <ele>1174.8684082</ele>
        <time>2014-07-08T08:15:52Z</time>
      </trkpt>
      <trkpt lat="44.44717" lon="6.15149">
        <ele>1176.3103027</ele>
        <time>2014-07-08T08:16:01Z</time>
      </trkpt>
      <trkpt lat="44.44702" lon="6.15144">
        <ele>1177.2717285</ele>
        <time>2014-07-08T08:16:11Z</time>
      </trkpt>
      <trkpt lat="44.44681" lon="6.15134">
        <ele>1178.713623</ele>
        <time>2014-07-08T08:16:24Z</time>
      </trkpt>
      <trkpt lat="44.44671" lon="6.15125">
        <ele>1179.6748047</ele>
        <time>2014-07-08T08:16:36Z</time>
      </trkpt>
      <trkpt lat="44.44651" lon="6.15118">
        <ele>1180.1557617</ele>
        <time>2014-07-08T08:16:50Z</time>
      </trkpt>
      <trkpt lat="44.44627" lon="6.15111">
        <ele>1182.0783691</ele>
        <time>2014-07-08T08:17:04Z</time>
      </trkpt>
      <trkpt lat="44.44614" lon="6.151">
        <ele>1183.5202637</ele>
        <time>2014-07-08T08:17:15Z</time>
      </trkpt>
      <trkpt lat="44.44609" lon="6.15097">
        <ele>1183.5202637</ele>
        <time>2014-07-08T08:17:19Z</time>
      </trkpt>
      <trkpt lat="44.44606" lon="6.15096">
        <ele>1183.5202637</ele>
        <time>2014-07-08T08:17:21Z</time>
      </trkpt>
      <trkpt lat="44.44602" lon="6.15093">
        <ele>1183.5202637</ele>
        <time>2014-07-08T08:17:24Z</time>
      </trkpt>
      <trkpt lat="44.44591" lon="6.15076">
        <ele>1184.4816895</ele>
        <time>2014-07-08T08:17:38Z</time>
      </trkpt>
      <trkpt lat="44.44581" lon="6.15066">
        <ele>1185.4428711</ele>
        <time>2014-07-08T08:17:46Z</time>
      </trkpt>
      <trkpt lat="44.44579" lon="6.1506">
        <ele>1186.4042969</ele>
        <time>2014-07-08T08:17:49Z</time>
      </trkpt>
      <trkpt lat="44.44573" lon="6.15048">
        <ele>1187.3654785</ele>
        <time>2014-07-08T08:17:58Z</time>
      </trkpt>
      <trkpt lat="44.44567" lon="6.15029">
        <ele>1188.3269043</ele>
        <time>2014-07-08T08:18:10Z</time>
      </trkpt>
      <trkpt lat="44.44556" lon="6.15027">
        <ele>1189.2880859</ele>
        <time>2014-07-08T08:18:18Z</time>
      </trkpt>
      <trkpt lat="44.44553" lon="6.15024">
        <ele>1189.2880859</ele>
        <time>2014-07-08T08:18:23Z</time>
      </trkpt>
      <trkpt lat="44.44545" lon="6.1503">
        <ele>1190.7299805</ele>
        <time>2014-07-08T08:18:30Z</time>
      </trkpt>
      <trkpt lat="44.44543" lon="6.15025">
        <ele>1190.7299805</ele>
        <time>2014-07-08T08:18:34Z</time>
      </trkpt>
      <trkpt lat="44.44537" lon="6.15017">
        <ele>1191.6914063</ele>
        <time>2014-07-08T08:18:39Z</time>
      </trkpt>
      <trkpt lat="44.44535" lon="6.15009">
        <ele>1191.6914063</ele>
        <time>2014-07-08T08:18:42Z</time>
      </trkpt>
      <trkpt lat="44.44532" lon="6.14999">
        <ele>1193.1333008</ele>
        <time>2014-07-08T08:18:47Z</time>
      </trkpt>
      <trkpt lat="44.44516" lon="6.14979">
        <ele>1194.5751953</ele>
        <time>2014-07-08T08:19:02Z</time>
      </trkpt>
      <trkpt lat="44.44512" lon="6.14975">
        <ele>1195.0559082</ele>
        <time>2014-07-08T08:19:05Z</time>
      </trkpt>
      <trkpt lat="44.44499" lon="6.14968">
        <ele>1196.0175781</ele>
        <time>2014-07-08T08:19:16Z</time>
      </trkpt>
      <trkpt lat="44.44493" lon="6.14971">
        <ele>1196.9787598</ele>
        <time>2014-07-08T08:19:24Z</time>
      </trkpt>
      <trkpt lat="44.44489" lon="6.14979">
        <ele>1197.9401855</ele>
        <time>2014-07-08T08:19:28Z</time>
      </trkpt>
      <trkpt lat="44.44486" lon="6.14999">
        <ele>1199.862793</ele>
        <time>2014-07-08T08:19:41Z</time>
      </trkpt>
      <trkpt lat="44.44486" lon="6.14999">
        <ele>1199.862793</ele>
        <time>2014-07-08T08:19:42Z</time>
      </trkpt>
      <trkpt lat="44.44487" lon="6.15003">
        <ele>1200.3435059</ele>
        <time>2014-07-08T08:19:45Z</time>
      </trkpt>
      <trkpt lat="44.44484" lon="6.15009">
        <ele>1200.8239746</ele>
        <time>2014-07-08T08:19:48Z</time>
      </trkpt>
      <trkpt lat="44.44488" lon="6.1502">
        <ele>1201.7854004</ele>
        <time>2014-07-08T08:19:54Z</time>
      </trkpt>
      <trkpt lat="44.44489" lon="6.15024">
        <ele>1201.7854004</ele>
        <time>2014-07-08T08:19:57Z</time>
      </trkpt>
      <trkpt lat="44.4449" lon="6.15026">
        <ele>1202.2658691</ele>
        <time>2014-07-08T08:19:59Z</time>
      </trkpt>
      <trkpt lat="44.4449" lon="6.15031">
        <ele>1202.746582</ele>
        <time>2014-07-08T08:20:04Z</time>
      </trkpt>
      <trkpt lat="44.445" lon="6.15044">
        <ele>1204.6691895</ele>
        <time>2014-07-08T08:20:12Z</time>
      </trkpt>
      <trkpt lat="44.44497" lon="6.15065">
        <ele>1206.111084</ele>
        <time>2014-07-08T08:20:24Z</time>
      </trkpt>
      <trkpt lat="44.44491" lon="6.15073">
        <ele>1207.0725098</ele>
        <time>2014-07-08T08:20:34Z</time>
      </trkpt>
      <trkpt lat="44.4448" lon="6.15092">
        <ele>1208.0339355</ele>
        <time>2014-07-08T08:20:47Z</time>
      </trkpt>
      <trkpt lat="44.44483" lon="6.15104">
        <ele>1209.4758301</ele>
        <time>2014-07-08T08:20:54Z</time>
      </trkpt>
      <trkpt lat="44.44482" lon="6.15114">
        <ele>1210.4370117</ele>
        <time>2014-07-08T08:21:00Z</time>
      </trkpt>
      <trkpt lat="44.44483" lon="6.15116">
        <ele>1210.4370117</ele>
        <time>2014-07-08T08:21:02Z</time>
      </trkpt>
      <trkpt lat="44.44484" lon="6.15123">
        <ele>1210.9177246</ele>
        <time>2014-07-08T08:21:06Z</time>
      </trkpt>
      <trkpt lat="44.44485" lon="6.15129">
        <ele>1211.8791504</ele>
        <time>2014-07-08T08:21:10Z</time>
      </trkpt>
      <trkpt lat="44.44483" lon="6.15132">
        <ele>1212.3598633</ele>
        <time>2014-07-08T08:21:12Z</time>
      </trkpt>
      <trkpt lat="44.44487" lon="6.1514">
        <ele>1212.8405762</ele>
        <time>2014-07-08T08:21:16Z</time>
      </trkpt>
      <trkpt lat="44.44489" lon="6.15163">
        <ele>1214.7631836</ele>
        <time>2014-07-08T08:21:29Z</time>
      </trkpt>
      <trkpt lat="44.44489" lon="6.15167">
        <ele>1214.2824707</ele>
        <time>2014-07-08T08:21:32Z</time>
      </trkpt>
      <trkpt lat="44.44487" lon="6.15174">
        <ele>1214.7631836</ele>
        <time>2014-07-08T08:21:36Z</time>
      </trkpt>
      <trkpt lat="44.44484" lon="6.15174">
        <ele>1215.2438965</ele>
        <time>2014-07-08T08:21:40Z</time>
      </trkpt>
      <trkpt lat="44.44483" lon="6.15161">
        <ele>1215.7246094</ele>
        <time>2014-07-08T08:21:46Z</time>
      </trkpt>
      <trkpt lat="44.44483" lon="6.15157">
        <ele>1216.2050781</ele>
        <time>2014-07-08T08:21:48Z</time>
      </trkpt>
      <trkpt lat="44.44487" lon="6.15145">
        <ele>1217.1665039</ele>
        <time>2014-07-08T08:21:55Z</time>
      </trkpt>
      <trkpt lat="44.4449" lon="6.15131">
        <ele>1218.6083984</ele>
        <time>2014-07-08T08:22:02Z</time>
      </trkpt>
      <trkpt lat="44.44492" lon="6.15109">
        <ele>1221.4921875</ele>
        <time>2014-07-08T08:22:15Z</time>
      </trkpt>
      <trkpt lat="44.44493" lon="6.15094">
        <ele>1223.4150391</ele>
        <time>2014-07-08T08:22:25Z</time>
      </trkpt>
      <trkpt lat="44.4449" lon="6.1508">
        <ele>1224.8569336</ele>
        <time>2014-07-08T08:22:33Z</time>
      </trkpt>
      <trkpt lat="44.44484" lon="6.15072">
        <ele>1225.8181152</ele>
        <time>2014-07-08T08:22:37Z</time>
      </trkpt>
      <trkpt lat="44.44483" lon="6.15057">
        <ele>1228.2216797</ele>
        <time>2014-07-08T08:22:47Z</time>
      </trkpt>
      <trkpt lat="44.44481" lon="6.15046">
        <ele>1230.625</ele>
        <time>2014-07-08T08:22:59Z</time>
      </trkpt>
      <trkpt lat="44.44481" lon="6.15038">
        <ele>1231.5861816</ele>
        <time>2014-07-08T08:23:04Z</time>
      </trkpt>
      <trkpt lat="44.44464" lon="6.15008">
        <ele>1234.4702148</ele>
        <time>2014-07-08T08:23:18Z</time>
      </trkpt>
      <trkpt lat="44.4446" lon="6.15001">
        <ele>1234.9509277</ele>
        <time>2014-07-08T08:23:22Z</time>
      </trkpt>
      <trkpt lat="44.44456" lon="6.14995">
        <ele>1236.3928223</ele>
        <time>2014-07-08T08:23:27Z</time>
      </trkpt>
      <trkpt lat="44.44453" lon="6.14986">
        <ele>1238.3154297</ele>
        <time>2014-07-08T08:23:39Z</time>
      </trkpt>
      <trkpt lat="44.44451" lon="6.14985">
        <ele>1238.7961426</ele>
        <time>2014-07-08T08:23:41Z</time>
      </trkpt>
      <trkpt lat="44.44456" lon="6.14977">
        <ele>1239.2766113</ele>
        <time>2014-07-08T08:23:43Z</time>
      </trkpt>
      <trkpt lat="44.44463" lon="6.14964">
        <ele>1242.1606445</ele>
        <time>2014-07-08T08:23:55Z</time>
      </trkpt>
      <trkpt lat="44.44469" lon="6.14942">
        <ele>1245.0446777</ele>
        <time>2014-07-08T08:24:09Z</time>
      </trkpt>
      <trkpt lat="44.44468" lon="6.14939">
        <ele>1245.5253906</ele>
        <time>2014-07-08T08:24:11Z</time>
      </trkpt>
      <trkpt lat="44.44471" lon="6.14933">
        <ele>1246.9672852</ele>
        <time>2014-07-08T08:24:15Z</time>
      </trkpt>
      <trkpt lat="44.44474" lon="6.14932">
        <ele>1246.9672852</ele>
        <time>2014-07-08T08:24:17Z</time>
      </trkpt>
      <trkpt lat="44.44467" lon="6.14929">
        <ele>1247.9287109</ele>
        <time>2014-07-08T08:24:22Z</time>
      </trkpt>
      <trkpt lat="44.44458" lon="6.14917">
        <ele>1249.8513184</ele>
        <time>2014-07-08T08:24:33Z</time>
      </trkpt>
      <trkpt lat="44.44454" lon="6.14893">
        <ele>1253.2158203</ele>
        <time>2014-07-08T08:24:47Z</time>
      </trkpt>
      <trkpt lat="44.44453" lon="6.1488">
        <ele>1255.1384277</ele>
        <time>2014-07-08T08:24:56Z</time>
      </trkpt>
      <trkpt lat="44.44452" lon="6.14873">
        <ele>1256.0996094</ele>
        <time>2014-07-08T08:25:00Z</time>
      </trkpt>
      <trkpt lat="44.44456" lon="6.14853">
        <ele>1258.0224609</ele>
        <time>2014-07-08T08:25:12Z</time>
      </trkpt>
      <trkpt lat="44.44454" lon="6.14834">
        <ele>1260.9064941</ele>
        <time>2014-07-08T08:25:27Z</time>
      </trkpt>
      <trkpt lat="44.44463" lon="6.14832">
        <ele>1262.8291016</ele>
        <time>2014-07-08T08:25:42Z</time>
      </trkpt>
      <trkpt lat="44.44459" lon="6.1482">
        <ele>1265.2324219</ele>
        <time>2014-07-08T08:26:06Z</time>
      </trkpt>
      <trkpt lat="44.44453" lon="6.14818">
        <ele>1265.7131348</ele>
        <time>2014-07-08T08:26:08Z</time>
      </trkpt>
      <trkpt lat="44.44455" lon="6.14803">
        <ele>1268.5969238</ele>
        <time>2014-07-08T08:26:20Z</time>
      </trkpt>
      <trkpt lat="44.44467" lon="6.14786">
        <ele>1271.9614258</ele>
        <time>2014-07-08T08:26:34Z</time>
      </trkpt>
      <trkpt lat="44.44476" lon="6.14775">
        <ele>1273.8840332</ele>
        <time>2014-07-08T08:26:46Z</time>
      </trkpt>
      <trkpt lat="44.44485" lon="6.14776">
        <ele>1276.7683105</ele>
        <time>2014-07-08T08:26:58Z</time>
      </trkpt>
      <trkpt lat="44.44487" lon="6.14779">
        <ele>1277.2490234</ele>
        <time>2014-07-08T08:27:00Z</time>
      </trkpt>
      <trkpt lat="44.4449" lon="6.14783">
        <ele>1277.7294922</ele>
        <time>2014-07-08T08:27:03Z</time>
      </trkpt>
      <trkpt lat="44.44497" lon="6.14791">
        <ele>1279.1713867</ele>
        <time>2014-07-08T08:27:09Z</time>
      </trkpt>
      <trkpt lat="44.445" lon="6.148">
        <ele>1280.1328125</ele>
        <time>2014-07-08T08:27:16Z</time>
      </trkpt>
      <trkpt lat="44.44506" lon="6.14798">
        <ele>1282.5361328</ele>
        <time>2014-07-08T08:27:27Z</time>
      </trkpt>
      <trkpt lat="44.44512" lon="6.14798">
        <ele>1284.9394531</ele>
        <time>2014-07-08T08:27:39Z</time>
      </trkpt>
      <trkpt lat="44.44528" lon="6.14789">
        <ele>1287.3425293</ele>
        <time>2014-07-08T08:27:52Z</time>
      </trkpt>
      <trkpt lat="44.44543" lon="6.14788">
        <ele>1290.2265625</ele>
        <time>2014-07-08T08:28:04Z</time>
      </trkpt>
      <trkpt lat="44.44551" lon="6.14788">
        <ele>1291.668457</ele>
        <time>2014-07-08T08:28:11Z</time>
      </trkpt>
      <trkpt lat="44.44559" lon="6.14786">
        <ele>1292.630127</ele>
        <time>2014-07-08T08:28:17Z</time>
      </trkpt>
      <trkpt lat="44.44571" lon="6.14779">
        <ele>1294.0720215</ele>
        <time>2014-07-08T08:28:22Z</time>
      </trkpt>
      <trkpt lat="44.44598" lon="6.14775">
        <ele>1296.9558105</ele>
        <time>2014-07-08T08:28:36Z</time>
      </trkpt>
      <trkpt lat="44.44598" lon="6.14779">
        <ele>1297.4365234</ele>
        <time>2014-07-08T08:28:38Z</time>
      </trkpt>
      <trkpt lat="44.44606" lon="6.14778">
        <ele>1298.3977051</ele>
        <time>2014-07-08T08:28:43Z</time>
      </trkpt>
      <trkpt lat="44.44608" lon="6.14781">
        <ele>1298.3977051</ele>
        <time>2014-07-08T08:28:46Z</time>
      </trkpt>
      <trkpt lat="44.44615" lon="6.14788">
        <ele>1300.8010254</ele>
        <time>2014-07-08T08:28:53Z</time>
      </trkpt>
      <trkpt lat="44.44623" lon="6.14795">
        <ele>1302.2429199</ele>
        <time>2014-07-08T08:29:04Z</time>
      </trkpt>
      <trkpt lat="44.44626" lon="6.14797">
        <ele>1302.7236328</ele>
        <time>2014-07-08T08:29:12Z</time>
      </trkpt>
      <trkpt lat="44.44631" lon="6.14794">
        <ele>1303.6850586</ele>
        <time>2014-07-08T08:29:17Z</time>
      </trkpt>
      <trkpt lat="44.44635" lon="6.14791">
        <ele>1305.607666</ele>
        <time>2014-07-08T08:29:30Z</time>
      </trkpt>
      <trkpt lat="44.44647" lon="6.14783">
        <ele>1307.5302734</ele>
        <time>2014-07-08T08:29:45Z</time>
      </trkpt>
      <trkpt lat="44.4465" lon="6.14782">
        <ele>1308.4916992</ele>
        <time>2014-07-08T08:29:48Z</time>
      </trkpt>
      <trkpt lat="44.44659" lon="6.14789">
        <ele>1309.453125</ele>
        <time>2014-07-08T08:29:59Z</time>
      </trkpt>
      <trkpt lat="44.44675" lon="6.14799">
        <ele>1311.8564453</ele>
        <time>2014-07-08T08:30:20Z</time>
      </trkpt>
      <trkpt lat="44.44689" lon="6.14816">
        <ele>1314.2595215</ele>
        <time>2014-07-08T08:30:38Z</time>
      </trkpt>
      <trkpt lat="44.44691" lon="6.14821">
        <ele>1315.2209473</ele>
        <time>2014-07-08T08:30:44Z</time>
      </trkpt>
      <trkpt lat="44.44711" lon="6.14831">
        <ele>1316.1821289</ele>
        <time>2014-07-08T08:31:01Z</time>
      </trkpt>
      <trkpt lat="44.44712" lon="6.14833">
        <ele>1316.6628418</ele>
        <time>2014-07-08T08:31:04Z</time>
      </trkpt>
      <trkpt lat="44.44719" lon="6.14842">
        <ele>1319.0661621</ele>
        <time>2014-07-08T08:31:18Z</time>
      </trkpt>
      <trkpt lat="44.44729" lon="6.14866">
        <ele>1320.5080566</ele>
        <time>2014-07-08T08:31:34Z</time>
      </trkpt>
      <trkpt lat="44.44732" lon="6.1488">
        <ele>1321.4692383</ele>
        <time>2014-07-08T08:31:43Z</time>
      </trkpt>
      <trkpt lat="44.44732" lon="6.14886">
        <ele>1321.4692383</ele>
        <time>2014-07-08T08:31:46Z</time>
      </trkpt>
      <trkpt lat="44.44739" lon="6.14903">
        <ele>1323.3920898</ele>
        <time>2014-07-08T08:31:58Z</time>
      </trkpt>
      <trkpt lat="44.44745" lon="6.14927">
        <ele>1324.8342285</ele>
        <time>2014-07-08T08:32:18Z</time>
      </trkpt>
      <trkpt lat="44.4476" lon="6.14936">
        <ele>1326.7568359</ele>
        <time>2014-07-08T08:32:35Z</time>
      </trkpt>
      <trkpt lat="44.44768" lon="6.14938">
        <ele>1328.6794434</ele>
        <time>2014-07-08T08:32:53Z</time>
      </trkpt>
      <trkpt lat="44.44784" lon="6.1494">
        <ele>1330.6020508</ele>
        <time>2014-07-08T08:33:13Z</time>
      </trkpt>
      <trkpt lat="44.44799" lon="6.14919">
        <ele>1332.0439453</ele>
        <time>2014-07-08T08:33:36Z</time>
      </trkpt>
      <trkpt lat="44.44799" lon="6.14906">
        <ele>1333.005127</ele>
        <time>2014-07-08T08:33:45Z</time>
      </trkpt>
      <trkpt lat="44.44794" lon="6.14889">
        <ele>1334.9279785</ele>
        <time>2014-07-08T08:34:02Z</time>
      </trkpt>
      <trkpt lat="44.44794" lon="6.14887">
        <ele>1334.9279785</ele>
        <time>2014-07-08T08:34:04Z</time>
      </trkpt>
      <trkpt lat="44.44789" lon="6.14873">
        <ele>1336.369873</ele>
        <time>2014-07-08T08:34:17Z</time>
      </trkpt>
      <trkpt lat="44.44779" lon="6.14854">
        <ele>1337.3310547</ele>
        <time>2014-07-08T08:34:33Z</time>
      </trkpt>
      <trkpt lat="44.44771" lon="6.14835">
        <ele>1338.7731934</ele>
        <time>2014-07-08T08:34:52Z</time>
      </trkpt>
      <trkpt lat="44.44754" lon="6.14805">
        <ele>1341.6572266</ele>
        <time>2014-07-08T08:35:19Z</time>
      </trkpt>
      <trkpt lat="44.44737" lon="6.14787">
        <ele>1344.0605469</ele>
        <time>2014-07-08T08:35:47Z</time>
      </trkpt>
      <trkpt lat="44.44721" lon="6.14786">
        <ele>1345.0217285</ele>
        <time>2014-07-08T08:36:03Z</time>
      </trkpt>
      <trkpt lat="44.44714" lon="6.14787">
        <ele>1346.4638672</ele>
        <time>2014-07-08T08:36:11Z</time>
      </trkpt>
      <trkpt lat="44.44711" lon="6.14787">
        <ele>1345.9831543</ele>
        <time>2014-07-08T08:36:15Z</time>
      </trkpt>
      <trkpt lat="44.44698" lon="6.14781">
        <ele>1348.3862305</ele>
        <time>2014-07-08T08:36:30Z</time>
      </trkpt>
      <trkpt lat="44.44695" lon="6.1478">
        <ele>1348.8669434</ele>
        <time>2014-07-08T08:36:34Z</time>
      </trkpt>
      <trkpt lat="44.44689" lon="6.14776">
        <ele>1349.8283691</ele>
        <time>2014-07-08T08:36:41Z</time>
      </trkpt>
      <trkpt lat="44.44676" lon="6.14771">
        <ele>1351.2702637</ele>
        <time>2014-07-08T08:36:54Z</time>
      </trkpt>
      <trkpt lat="44.44672" lon="6.14766">
        <ele>1350.7895508</ele>
        <time>2014-07-08T08:37:02Z</time>
      </trkpt>
      <trkpt lat="44.4467" lon="6.14761">
        <ele>1351.7509766</ele>
        <time>2014-07-08T08:37:06Z</time>
      </trkpt>
      <trkpt lat="44.44658" lon="6.14755">
        <ele>1353.673584</ele>
        <time>2014-07-08T08:37:17Z</time>
      </trkpt>
      <trkpt lat="44.44651" lon="6.14754">
        <ele>1354.6347656</ele>
        <time>2014-07-08T08:37:24Z</time>
      </trkpt>
      <trkpt lat="44.44645" lon="6.14752">
        <ele>1355.1154785</ele>
        <time>2014-07-08T08:37:30Z</time>
      </trkpt>
      <trkpt lat="44.4463" lon="6.14746">
        <ele>1355.5961914</ele>
        <time>2014-07-08T08:37:47Z</time>
      </trkpt>
      <trkpt lat="44.44623" lon="6.14743">
        <ele>1356.5576172</ele>
        <time>2014-07-08T08:37:54Z</time>
      </trkpt>
      <trkpt lat="44.4461" lon="6.14732">
        <ele>1357.9997559</ele>
        <time>2014-07-08T08:38:09Z</time>
      </trkpt>
      <trkpt lat="44.44596" lon="6.14722">
        <ele>1359.4416504</ele>
        <time>2014-07-08T08:38:23Z</time>
      </trkpt>
      <trkpt lat="44.44589" lon="6.14711">
        <ele>1360.8835449</ele>
        <time>2014-07-08T08:38:36Z</time>
      </trkpt>
      <trkpt lat="44.44574" lon="6.14696">
        <ele>1362.3254395</ele>
        <time>2014-07-08T08:38:56Z</time>
      </trkpt>
      <trkpt lat="44.44564" lon="6.14687">
        <ele>1363.767334</ele>
        <time>2014-07-08T08:39:09Z</time>
      </trkpt>
      <trkpt lat="44.44562" lon="6.14678">
        <ele>1364.7287598</ele>
        <time>2014-07-08T08:39:18Z</time>
      </trkpt>
      <trkpt lat="44.44551" lon="6.14663">
        <ele>1365.6901855</ele>
        <time>2014-07-08T08:39:32Z</time>
      </trkpt>
      <trkpt lat="44.44546" lon="6.14651">
        <ele>1366.6513672</ele>
        <time>2014-07-08T08:39:42Z</time>
      </trkpt>
      <trkpt lat="44.44545" lon="6.14648">
        <ele>1367.1320801</ele>
        <time>2014-07-08T08:39:45Z</time>
      </trkpt>
      <trkpt lat="44.44544" lon="6.14634">
        <ele>1368.0932617</ele>
        <time>2014-07-08T08:39:57Z</time>
      </trkpt>
      <trkpt lat="44.44534" lon="6.14613">
        <ele>1370.0158691</ele>
        <time>2014-07-08T08:40:16Z</time>
      </trkpt>
      <trkpt lat="44.4453" lon="6.14606">
        <ele>1370.0158691</ele>
        <time>2014-07-08T08:40:21Z</time>
      </trkpt>
      <trkpt lat="44.4453" lon="6.14599">
        <ele>1370.496582</ele>
        <time>2014-07-08T08:40:28Z</time>
      </trkpt>
      <trkpt lat="44.44525" lon="6.14592">
        <ele>1371.4577637</ele>
        <time>2014-07-08T08:40:35Z</time>
      </trkpt>
      <trkpt lat="44.44522" lon="6.14577">
        <ele>1372.9001465</ele>
        <time>2014-07-08T08:40:50Z</time>
      </trkpt>
      <trkpt lat="44.44517" lon="6.14556">
        <ele>1373.8613281</ele>
        <time>2014-07-08T08:41:06Z</time>
      </trkpt>
      <trkpt lat="44.44498" lon="6.14536">
        <ele>1375.7839355</ele>
        <time>2014-07-08T08:41:27Z</time>
      </trkpt>
      <trkpt lat="44.44492" lon="6.14534">
        <ele>1376.7453613</ele>
        <time>2014-07-08T08:41:32Z</time>
      </trkpt>
      <trkpt lat="44.44476" lon="6.14514">
        <ele>1377.706543</ele>
        <time>2014-07-08T08:41:53Z</time>
      </trkpt>
      <trkpt lat="44.44467" lon="6.14511">
        <ele>1378.6679688</ele>
        <time>2014-07-08T08:42:10Z</time>
      </trkpt>
      <trkpt lat="44.44463" lon="6.14513">
        <ele>1378.6679688</ele>
        <time>2014-07-08T08:42:27Z</time>
      </trkpt>
      <trkpt lat="44.44462" lon="6.14519">
        <ele>1377.2260742</ele>
        <time>2014-07-08T08:43:12Z</time>
      </trkpt>
      <trkpt lat="44.44461" lon="6.14525">
        <ele>1377.2260742</ele>
        <time>2014-07-08T08:43:17Z</time>
      </trkpt>
      <trkpt lat="44.44461" lon="6.14531">
        <ele>1377.2260742</ele>
        <time>2014-07-08T08:43:20Z</time>
      </trkpt>
      <trkpt lat="44.44457" lon="6.14542">
        <ele>1377.2260742</ele>
        <time>2014-07-08T08:43:24Z</time>
      </trkpt>
      <trkpt lat="44.44431" lon="6.14567">
        <ele>1377.2260742</ele>
        <time>2014-07-08T08:43:40Z</time>
      </trkpt>
      <trkpt lat="44.44411" lon="6.14582">
        <ele>1377.2260742</ele>
        <time>2014-07-08T08:43:51Z</time>
      </trkpt>
      <trkpt lat="44.44399" lon="6.14591">
        <ele>1378.1872559</ele>
        <time>2014-07-08T08:43:58Z</time>
      </trkpt>
      <trkpt lat="44.44379" lon="6.14605">
        <ele>1378.6679688</ele>
        <time>2014-07-08T08:44:09Z</time>
      </trkpt>
      <trkpt lat="44.44349" lon="6.14647">
        <ele>1378.1872559</ele>
        <time>2014-07-08T08:44:27Z</time>
      </trkpt>
      <trkpt lat="44.4433" lon="6.14673">
        <ele>1378.1872559</ele>
        <time>2014-07-08T08:44:39Z</time>
      </trkpt>
      <trkpt lat="44.44302" lon="6.14704">
        <ele>1378.6679688</ele>
        <time>2014-07-08T08:44:55Z</time>
      </trkpt>
      <trkpt lat="44.44283" lon="6.14729">
        <ele>1378.6679688</ele>
        <time>2014-07-08T08:45:11Z</time>
      </trkpt>
      <trkpt lat="44.4427" lon="6.14753">
        <ele>1379.1484375</ele>
        <time>2014-07-08T08:45:24Z</time>
      </trkpt>
      <trkpt lat="44.44261" lon="6.14785">
        <ele>1379.6291504</ele>
        <time>2014-07-08T08:45:41Z</time>
      </trkpt>
      <trkpt lat="44.44258" lon="6.14797">
        <ele>1379.1484375</ele>
        <time>2014-07-08T08:46:03Z</time>
      </trkpt>
      <trkpt lat="44.44253" lon="6.14825">
        <ele>1380.1098633</ele>
        <time>2014-07-08T08:46:55Z</time>
      </trkpt>
      <trkpt lat="44.44252" lon="6.14826">
        <ele>1382.0324707</ele>
        <time>2014-07-08T08:47:41Z</time>
      </trkpt>
      <trkpt lat="44.44252" lon="6.14826">
        <ele>1380.5905762</ele>
        <time>2014-07-08T08:47:43Z</time>
      </trkpt>
      <trkpt lat="44.44252" lon="6.14826">
        <ele>1380.5905762</ele>
        <time>2014-07-08T08:48:04Z</time>
      </trkpt>
      <trkpt lat="44.44252" lon="6.14827">
        <ele>1382.9936523</ele>
        <time>2014-07-08T08:48:25Z</time>
      </trkpt>
      <trkpt lat="44.44252" lon="6.14827">
        <ele>1381.0712891</ele>
        <time>2014-07-08T08:48:29Z</time>
      </trkpt>
      <trkpt lat="44.44252" lon="6.14827">
        <ele>1382.0324707</ele>
        <time>2014-07-08T08:48:57Z</time>
      </trkpt>
      <trkpt lat="44.44252" lon="6.14828">
        <ele>1381.5517578</ele>
        <time>2014-07-08T08:49:30Z</time>
      </trkpt>
      <trkpt lat="44.44248" lon="6.14837">
        <ele>1381.0712891</ele>
        <time>2014-07-08T08:49:36Z</time>
      </trkpt>
      <trkpt lat="44.44242" lon="6.14834">
        <ele>1380.5905762</ele>
        <time>2014-07-08T08:49:49Z</time>
      </trkpt>
      <trkpt lat="44.44235" lon="6.14836">
        <ele>1379.6291504</ele>
        <time>2014-07-08T08:50:12Z</time>
      </trkpt>
      <trkpt lat="44.44228" lon="6.14827">
        <ele>1379.6291504</ele>
        <time>2014-07-08T08:51:44Z</time>
      </trkpt>
      <trkpt lat="44.44225" lon="6.14819">
        <ele>1379.6291504</ele>
        <time>2014-07-08T08:51:47Z</time>
      </trkpt>
      <trkpt lat="44.44221" lon="6.14814">
        <ele>1378.6679688</ele>
        <time>2014-07-08T08:51:50Z</time>
      </trkpt>
      <trkpt lat="44.4419" lon="6.14783">
        <ele>1376.2646484</ele>
        <time>2014-07-08T08:52:01Z</time>
      </trkpt>
      <trkpt lat="44.44179" lon="6.14766">
        <ele>1374.8227539</ele>
        <time>2014-07-08T08:52:05Z</time>
      </trkpt>
      <trkpt lat="44.44159" lon="6.14723">
        <ele>1371.4577637</ele>
        <time>2014-07-08T08:52:13Z</time>
      </trkpt>
      <trkpt lat="44.44155" lon="6.14711">
        <ele>1370.9772949</ele>
        <time>2014-07-08T08:52:15Z</time>
      </trkpt>
      <trkpt lat="44.44152" lon="6.14686">
        <ele>1370.0158691</ele>
        <time>2014-07-08T08:52:19Z</time>
      </trkpt>
      <trkpt lat="44.44158" lon="6.1465">
        <ele>1367.6125488</ele>
        <time>2014-07-08T08:52:25Z</time>
      </trkpt>
      <trkpt lat="44.44162" lon="6.14632">
        <ele>1367.6125488</ele>
        <time>2014-07-08T08:52:28Z</time>
      </trkpt>
      <trkpt lat="44.44159" lon="6.1461">
        <ele>1365.6901855</ele>
        <time>2014-07-08T08:52:32Z</time>
      </trkpt>
      <trkpt lat="44.44152" lon="6.14591">
        <ele>1364.7287598</ele>
        <time>2014-07-08T08:52:36Z</time>
      </trkpt>
      <trkpt lat="44.44153" lon="6.14581">
        <ele>1363.767334</ele>
        <time>2014-07-08T08:52:38Z</time>
      </trkpt>
      <trkpt lat="44.44155" lon="6.14573">
        <ele>1363.767334</ele>
        <time>2014-07-08T08:52:40Z</time>
      </trkpt>
      <trkpt lat="44.44141" lon="6.14559">
        <ele>1362.3254395</ele>
        <time>2014-07-08T08:52:47Z</time>
      </trkpt>
      <trkpt lat="44.44127" lon="6.14555">
        <ele>1360.8835449</ele>
        <time>2014-07-08T08:52:51Z</time>
      </trkpt>
      <trkpt lat="44.44114" lon="6.14556">
        <ele>1359.4416504</ele>
        <time>2014-07-08T08:52:54Z</time>
      </trkpt>
      <trkpt lat="44.44108" lon="6.14556">
        <ele>1359.4416504</ele>
        <time>2014-07-08T08:52:56Z</time>
      </trkpt>
      <trkpt lat="44.44101" lon="6.14548">
        <ele>1357.519043</ele>
        <time>2014-07-08T08:52:59Z</time>
      </trkpt>
      <trkpt lat="44.44086" lon="6.14521">
        <ele>1356.5576172</ele>
        <time>2014-07-08T08:53:05Z</time>
      </trkpt>
      <trkpt lat="44.44074" lon="6.1452">
        <ele>1354.6347656</ele>
        <time>2014-07-08T08:53:08Z</time>
      </trkpt>
      <trkpt lat="44.44072" lon="6.14523">
        <ele>1354.1542969</ele>
        <time>2014-07-08T08:53:09Z</time>
      </trkpt>
      <trkpt lat="44.44045" lon="6.14558">
        <ele>1351.2702637</ele>
        <time>2014-07-08T08:53:21Z</time>
      </trkpt>
      <trkpt lat="44.44001" lon="6.14578">
        <ele>1348.8669434</ele>
        <time>2014-07-08T08:53:34Z</time>
      </trkpt>
      <trkpt lat="44.43995" lon="6.14581">
        <ele>1348.3862305</ele>
        <time>2014-07-08T08:53:36Z</time>
      </trkpt>
      <trkpt lat="44.43991" lon="6.1458">
        <ele>1348.3862305</ele>
        <time>2014-07-08T08:53:38Z</time>
      </trkpt>
      <trkpt lat="44.43981" lon="6.1457">
        <ele>1346.4638672</ele>
        <time>2014-07-08T08:53:42Z</time>
      </trkpt>
      <trkpt lat="44.43964" lon="6.14514">
        <ele>1343.579834</ele>
        <time>2014-07-08T08:53:55Z</time>
      </trkpt>
      <trkpt lat="44.43955" lon="6.14465">
        <ele>1340.215332</ele>
        <time>2014-07-08T08:54:07Z</time>
      </trkpt>
      <trkpt lat="44.43955" lon="6.14462">
        <ele>1340.215332</ele>
        <time>2014-07-08T08:54:08Z</time>
      </trkpt>
      <trkpt lat="44.43932" lon="6.14458">
        <ele>1338.7731934</ele>
        <time>2014-07-08T08:54:17Z</time>
      </trkpt>
      <trkpt lat="44.43887" lon="6.14478">
        <ele>1335.4084473</ele>
        <time>2014-07-08T08:54:30Z</time>
      </trkpt>
      <trkpt lat="44.43884" lon="6.14478">
        <ele>1335.4084473</ele>
        <time>2014-07-08T08:54:31Z</time>
      </trkpt>
      <trkpt lat="44.43836" lon="6.14481">
        <ele>1331.5632324</ele>
        <time>2014-07-08T08:54:44Z</time>
      </trkpt>
      <trkpt lat="44.43794" lon="6.14472">
        <ele>1330.1213379</ele>
        <time>2014-07-08T08:54:57Z</time>
      </trkpt>
      <trkpt lat="44.4379" lon="6.14432">
        <ele>1330.1213379</ele>
        <time>2014-07-08T08:55:08Z</time>
      </trkpt>
      <trkpt lat="44.43804" lon="6.14393">
        <ele>1331.0827637</ele>
        <time>2014-07-08T08:55:20Z</time>
      </trkpt>
      <trkpt lat="44.43813" lon="6.1436">
        <ele>1331.5632324</ele>
        <time>2014-07-08T08:55:32Z</time>
      </trkpt>
      <trkpt lat="44.43808" lon="6.14347">
        <ele>1332.0439453</ele>
        <time>2014-07-08T08:55:37Z</time>
      </trkpt>
      <trkpt lat="44.43768" lon="6.14327">
        <ele>1332.5246582</ele>
        <time>2014-07-08T08:55:52Z</time>
      </trkpt>
      <trkpt lat="44.43744" lon="6.14292">
        <ele>1333.005127</ele>
        <time>2014-07-08T08:56:07Z</time>
      </trkpt>
      <trkpt lat="44.43746" lon="6.14271">
        <ele>1333.9665527</ele>
        <time>2014-07-08T08:56:15Z</time>
      </trkpt>
      <trkpt lat="44.43748" lon="6.14263">
        <ele>1334.4472656</ele>
        <time>2014-07-08T08:56:18Z</time>
      </trkpt>
      <trkpt lat="44.43748" lon="6.14227">
        <ele>1335.8891602</ele>
        <time>2014-07-08T08:56:32Z</time>
      </trkpt>
      <trkpt lat="44.43751" lon="6.14206">
        <ele>1337.3310547</ele>
        <time>2014-07-08T08:56:43Z</time>
      </trkpt>
      <trkpt lat="44.43755" lon="6.14196">
        <ele>1337.8117676</ele>
        <time>2014-07-08T08:56:48Z</time>
      </trkpt>
      <trkpt lat="44.43756" lon="6.14191">
        <ele>1337.8117676</ele>
        <time>2014-07-08T08:56:51Z</time>
      </trkpt>
      <trkpt lat="44.43758" lon="6.14181">
        <ele>1338.2924805</ele>
        <time>2014-07-08T08:56:57Z</time>
      </trkpt>
      <trkpt lat="44.43766" lon="6.14165">
        <ele>1339.734375</ele>
        <time>2014-07-08T08:57:07Z</time>
      </trkpt>
      <trkpt lat="44.43771" lon="6.14147">
        <ele>1341.1765137</ele>
        <time>2014-07-08T08:57:17Z</time>
      </trkpt>
      <trkpt lat="44.43778" lon="6.14131">
        <ele>1342.1379395</ele>
        <time>2014-07-08T08:57:27Z</time>
      </trkpt>
      <trkpt lat="44.43778" lon="6.1413">
        <ele>1342.1379395</ele>
        <time>2014-07-08T08:57:28Z</time>
      </trkpt>
      <trkpt lat="44.43783" lon="6.14108">
        <ele>1343.0991211</ele>
        <time>2014-07-08T08:57:40Z</time>
      </trkpt>
      <trkpt lat="44.43784" lon="6.14095">
        <ele>1344.5410156</ele>
        <time>2014-07-08T08:57:46Z</time>
      </trkpt>
      <trkpt lat="44.43781" lon="6.14089">
        <ele>1344.5410156</ele>
        <time>2014-07-08T08:57:49Z</time>
      </trkpt>
      <trkpt lat="44.43785" lon="6.14076">
        <ele>1345.0217285</ele>
        <time>2014-07-08T08:57:55Z</time>
      </trkpt>
      <trkpt lat="44.43795" lon="6.14059">
        <ele>1346.9443359</ele>
        <time>2014-07-08T08:58:08Z</time>
      </trkpt>
      <trkpt lat="44.43809" lon="6.14057">
        <ele>1348.3862305</ele>
        <time>2014-07-08T08:58:21Z</time>
      </trkpt>
      <trkpt lat="44.43826" lon="6.14037">
        <ele>1349.3476563</ele>
        <time>2014-07-08T08:58:35Z</time>
      </trkpt>
      <trkpt lat="44.43836" lon="6.14031">
        <ele>1350.309082</ele>
        <time>2014-07-08T08:58:41Z</time>
      </trkpt>
      <trkpt lat="44.43849" lon="6.14019">
        <ele>1351.2702637</ele>
        <time>2014-07-08T08:58:51Z</time>
      </trkpt>
      <trkpt lat="44.43854" lon="6.14004">
        <ele>1351.7509766</ele>
        <time>2014-07-08T08:58:59Z</time>
      </trkpt>
      <trkpt lat="44.4385" lon="6.13995">
        <ele>1353.673584</ele>
        <time>2014-07-08T08:59:11Z</time>
      </trkpt>
      <trkpt lat="44.43832" lon="6.13995">
        <ele>1355.5961914</ele>
        <time>2014-07-08T08:59:24Z</time>
      </trkpt>
      <trkpt lat="44.4383" lon="6.13998">
        <ele>1355.5961914</ele>
        <time>2014-07-08T08:59:26Z</time>
      </trkpt>
      <trkpt lat="44.43808" lon="6.13993">
        <ele>1357.9997559</ele>
        <time>2014-07-08T08:59:43Z</time>
      </trkpt>
      <trkpt lat="44.43787" lon="6.13983">
        <ele>1359.4416504</ele>
        <time>2014-07-08T09:00:00Z</time>
      </trkpt>
      <trkpt lat="44.43772" lon="6.13978">
        <ele>1361.3642578</ele>
        <time>2014-07-08T09:00:17Z</time>
      </trkpt>
      <trkpt lat="44.43765" lon="6.13972">
        <ele>1363.2868652</ele>
        <time>2014-07-08T09:00:39Z</time>
      </trkpt>
      <trkpt lat="44.43765" lon="6.13966">
        <ele>1363.767334</ele>
        <time>2014-07-08T09:00:45Z</time>
      </trkpt>
      <trkpt lat="44.43765" lon="6.13954">
        <ele>1364.7287598</ele>
        <time>2014-07-08T09:01:03Z</time>
      </trkpt>
      <trkpt lat="44.43772" lon="6.13923">
        <ele>1367.1320801</ele>
        <time>2014-07-08T09:01:34Z</time>
      </trkpt>
      <trkpt lat="44.43764" lon="6.13905">
        <ele>1368.0932617</ele>
        <time>2014-07-08T09:01:51Z</time>
      </trkpt>
      <trkpt lat="44.43762" lon="6.13905">
        <ele>1368.0932617</ele>
        <time>2014-07-08T09:02:01Z</time>
      </trkpt>
      <trkpt lat="44.43739" lon="6.13897">
        <ele>1369.0546875</ele>
        <time>2014-07-08T09:02:16Z</time>
      </trkpt>
      <trkpt lat="44.43716" lon="6.13891">
        <ele>1371.4577637</ele>
        <time>2014-07-08T09:02:28Z</time>
      </trkpt>
      <trkpt lat="44.43697" lon="6.13879">
        <ele>1372.9001465</ele>
        <time>2014-07-08T09:02:41Z</time>
      </trkpt>
      <trkpt lat="44.43685" lon="6.1386">
        <ele>1373.8613281</ele>
        <time>2014-07-08T09:02:55Z</time>
      </trkpt>
      <trkpt lat="44.43685" lon="6.13825">
        <ele>1373.8613281</ele>
        <time>2014-07-08T09:03:09Z</time>
      </trkpt>
      <trkpt lat="44.43685" lon="6.138">
        <ele>1375.3032227</ele>
        <time>2014-07-08T09:03:17Z</time>
      </trkpt>
      <trkpt lat="44.43685" lon="6.13791">
        <ele>1374.8227539</ele>
        <time>2014-07-08T09:03:21Z</time>
      </trkpt>
      <trkpt lat="44.43685" lon="6.13786">
        <ele>1374.8227539</ele>
        <time>2014-07-08T09:03:23Z</time>
      </trkpt>
      <trkpt lat="44.43686" lon="6.13779">
        <ele>1375.7839355</ele>
        <time>2014-07-08T09:03:25Z</time>
      </trkpt>
      <trkpt lat="44.43686" lon="6.13773">
        <ele>1375.7839355</ele>
        <time>2014-07-08T09:03:28Z</time>
      </trkpt>
      <trkpt lat="44.43685" lon="6.13769">
        <ele>1376.2646484</ele>
        <time>2014-07-08T09:03:30Z</time>
      </trkpt>
      <trkpt lat="44.4369" lon="6.13752">
        <ele>1376.2646484</ele>
        <time>2014-07-08T09:03:37Z</time>
      </trkpt>
      <trkpt lat="44.43691" lon="6.1371">
        <ele>1373.8613281</ele>
        <time>2014-07-08T09:03:47Z</time>
      </trkpt>
      <trkpt lat="44.43695" lon="6.13682">
        <ele>1374.342041</ele>
        <time>2014-07-08T09:03:55Z</time>
      </trkpt>
      <trkpt lat="44.43701" lon="6.13679">
        <ele>1375.7839355</ele>
        <time>2014-07-08T09:03:59Z</time>
      </trkpt>
      <trkpt lat="44.43715" lon="6.13674">
        <ele>1376.7453613</ele>
        <time>2014-07-08T09:04:08Z</time>
      </trkpt>
      <trkpt lat="44.4372" lon="6.13672">
        <ele>1377.2260742</ele>
        <time>2014-07-08T09:04:10Z</time>
      </trkpt>
      <trkpt lat="44.43737" lon="6.13665">
        <ele>1378.1872559</ele>
        <time>2014-07-08T09:04:20Z</time>
      </trkpt>
      <trkpt lat="44.43753" lon="6.1366">
        <ele>1379.6291504</ele>
        <time>2014-07-08T09:04:34Z</time>
      </trkpt>
      <trkpt lat="44.43767" lon="6.1366">
        <ele>1381.0712891</ele>
        <time>2014-07-08T09:04:44Z</time>
      </trkpt>
      <trkpt lat="44.43774" lon="6.13664">
        <ele>1381.5517578</ele>
        <time>2014-07-08T09:04:48Z</time>
      </trkpt>
      <trkpt lat="44.4378" lon="6.13666">
        <ele>1382.5131836</ele>
        <time>2014-07-08T09:04:53Z</time>
      </trkpt>
      <trkpt lat="44.43796" lon="6.13666">
        <ele>1382.9936523</ele>
        <time>2014-07-08T09:05:03Z</time>
      </trkpt>
      <trkpt lat="44.43819" lon="6.13629">
        <ele>1382.9936523</ele>
        <time>2014-07-08T09:05:19Z</time>
      </trkpt>
      <trkpt lat="44.43824" lon="6.13578">
        <ele>1381.0712891</ele>
        <time>2014-07-08T09:05:31Z</time>
      </trkpt>
      <trkpt lat="44.43816" lon="6.13539">
        <ele>1382.0324707</ele>
        <time>2014-07-08T09:05:44Z</time>
      </trkpt>
      <trkpt lat="44.43806" lon="6.13531">
        <ele>1382.0324707</ele>
        <time>2014-07-08T09:05:49Z</time>
      </trkpt>
      <trkpt lat="44.43776" lon="6.13507">
        <ele>1382.5131836</ele>
        <time>2014-07-08T09:06:03Z</time>
      </trkpt>
      <trkpt lat="44.43771" lon="6.13474">
        <ele>1385.3969727</ele>
        <time>2014-07-08T09:06:18Z</time>
      </trkpt>
      <trkpt lat="44.43738" lon="6.13451">
        <ele>1385.3969727</ele>
        <time>2014-07-08T09:06:35Z</time>
      </trkpt>
      <trkpt lat="44.43721" lon="6.13403">
        <ele>1385.8776855</ele>
        <time>2014-07-08T09:06:52Z</time>
      </trkpt>
      <trkpt lat="44.43734" lon="6.13374">
        <ele>1388.28125</ele>
        <time>2014-07-08T09:07:06Z</time>
      </trkpt>
      <trkpt lat="44.43748" lon="6.13352">
        <ele>1388.7619629</ele>
        <time>2014-07-08T09:07:18Z</time>
      </trkpt>
      <trkpt lat="44.4376" lon="6.13333">
        <ele>1389.7231445</ele>
        <time>2014-07-08T09:07:27Z</time>
      </trkpt>
      <trkpt lat="44.43784" lon="6.133">
        <ele>1389.2424316</ele>
        <time>2014-07-08T09:07:41Z</time>
      </trkpt>
      <trkpt lat="44.43788" lon="6.13292">
        <ele>1388.28125</ele>
        <time>2014-07-08T09:07:44Z</time>
      </trkpt>
      <trkpt lat="44.43793" lon="6.13215">
        <ele>1388.28125</ele>
        <time>2014-07-08T09:08:02Z</time>
      </trkpt>
      <trkpt lat="44.43792" lon="6.13194">
        <ele>1387.800293</ele>
        <time>2014-07-08T09:08:06Z</time>
      </trkpt>
      <trkpt lat="44.43784" lon="6.13115">
        <ele>1388.28125</ele>
        <time>2014-07-08T09:08:23Z</time>
      </trkpt>
      <trkpt lat="44.43777" lon="6.13066">
        <ele>1389.2424316</ele>
        <time>2014-07-08T09:08:37Z</time>
      </trkpt>
      <trkpt lat="44.43759" lon="6.13023">
        <ele>1389.2424316</ele>
        <time>2014-07-08T09:08:51Z</time>
      </trkpt>
      <trkpt lat="44.43754" lon="6.13011">
        <ele>1390.2038574</ele>
        <time>2014-07-08T09:08:56Z</time>
      </trkpt>
      <trkpt lat="44.4373" lon="6.12989">
        <ele>1393.0876465</ele>
        <time>2014-07-08T09:09:11Z</time>
      </trkpt>
      <trkpt lat="44.43728" lon="6.12989">
        <ele>1393.0876465</ele>
        <time>2014-07-08T09:09:13Z</time>
      </trkpt>
      <trkpt lat="44.43713" lon="6.12988">
        <ele>1394.529541</ele>
        <time>2014-07-08T09:09:23Z</time>
      </trkpt>
      <trkpt lat="44.43704" lon="6.12981">
        <ele>1395.4909668</ele>
        <time>2014-07-08T09:09:30Z</time>
      </trkpt>
      <trkpt lat="44.43702" lon="6.12973">
        <ele>1396.4523926</ele>
        <time>2014-07-08T09:09:34Z</time>
      </trkpt>
      <trkpt lat="44.43702" lon="6.1297">
        <ele>1396.4523926</ele>
        <time>2014-07-08T09:09:36Z</time>
      </trkpt>
      <trkpt lat="44.437" lon="6.12964">
        <ele>1396.4523926</ele>
        <time>2014-07-08T09:09:39Z</time>
      </trkpt>
      <trkpt lat="44.43691" lon="6.12939">
        <ele>1398.8554688</ele>
        <time>2014-07-08T09:09:53Z</time>
      </trkpt>
      <trkpt lat="44.43691" lon="6.12937">
        <ele>1398.8554688</ele>
        <time>2014-07-08T09:09:54Z</time>
      </trkpt>
      <trkpt lat="44.43686" lon="6.12914">
        <ele>1400.2976074</ele>
        <time>2014-07-08T09:10:07Z</time>
      </trkpt>
      <trkpt lat="44.43685" lon="6.12911">
        <ele>1400.7780762</ele>
        <time>2014-07-08T09:10:09Z</time>
      </trkpt>
      <trkpt lat="44.43681" lon="6.12906">
        <ele>1401.2587891</ele>
        <time>2014-07-08T09:10:12Z</time>
      </trkpt>
      <trkpt lat="44.43673" lon="6.12888">
        <ele>1402.7006836</ele>
        <time>2014-07-08T09:10:25Z</time>
      </trkpt>
      <trkpt lat="44.4367" lon="6.12882">
        <ele>1402.7006836</ele>
        <time>2014-07-08T09:10:30Z</time>
      </trkpt>
      <trkpt lat="44.43666" lon="6.12875">
        <ele>1403.1813965</ele>
        <time>2014-07-08T09:10:34Z</time>
      </trkpt>
      <trkpt lat="44.43654" lon="6.12858">
        <ele>1405.5849609</ele>
        <time>2014-07-08T09:10:50Z</time>
      </trkpt>
      <trkpt lat="44.43649" lon="6.12852">
        <ele>1406.5461426</ele>
        <time>2014-07-08T09:10:55Z</time>
      </trkpt>
      <trkpt lat="44.43634" lon="6.12842">
        <ele>1408.46875</ele>
        <time>2014-07-08T09:11:05Z</time>
      </trkpt>
      <trkpt lat="44.43633" lon="6.1284">
        <ele>1408.46875</ele>
        <time>2014-07-08T09:11:07Z</time>
      </trkpt>
      <trkpt lat="44.43619" lon="6.12835">
        <ele>1410.8720703</ele>
        <time>2014-07-08T09:11:19Z</time>
      </trkpt>
      <trkpt lat="44.43618" lon="6.12834">
        <ele>1410.8720703</ele>
        <time>2014-07-08T09:11:20Z</time>
      </trkpt>
      <trkpt lat="44.43607" lon="6.12829">
        <ele>1412.3139648</ele>
        <time>2014-07-08T09:11:31Z</time>
      </trkpt>
      <trkpt lat="44.43602" lon="6.12825">
        <ele>1412.7946777</ele>
        <time>2014-07-08T09:11:35Z</time>
      </trkpt>
      <trkpt lat="44.43598" lon="6.12822">
        <ele>1413.2753906</ele>
        <time>2014-07-08T09:11:39Z</time>
      </trkpt>
      <trkpt lat="44.43588" lon="6.12797">
        <ele>1414.7172852</ele>
        <time>2014-07-08T09:11:54Z</time>
      </trkpt>
      <trkpt lat="44.43585" lon="6.12788">
        <ele>1415.197998</ele>
        <time>2014-07-08T09:11:59Z</time>
      </trkpt>
      <trkpt lat="44.4358" lon="6.12777">
        <ele>1415.6787109</ele>
        <time>2014-07-08T09:12:05Z</time>
      </trkpt>
      <trkpt lat="44.43578" lon="6.1277">
        <ele>1416.1591797</ele>
        <time>2014-07-08T09:12:09Z</time>
      </trkpt>
      <trkpt lat="44.4357" lon="6.12746">
        <ele>1418.0817871</ele>
        <time>2014-07-08T09:12:22Z</time>
      </trkpt>
      <trkpt lat="44.43568" lon="6.12744">
        <ele>1418.5625</ele>
        <time>2014-07-08T09:12:24Z</time>
      </trkpt>
      <trkpt lat="44.43556" lon="6.1272">
        <ele>1420.0046387</ele>
        <time>2014-07-08T09:12:39Z</time>
      </trkpt>
      <trkpt lat="44.43547" lon="6.12696">
        <ele>1420.4853516</ele>
        <time>2014-07-08T09:12:53Z</time>
      </trkpt>
      <trkpt lat="44.43537" lon="6.1267">
        <ele>1422.407959</ele>
        <time>2014-07-08T09:13:05Z</time>
      </trkpt>
      <trkpt lat="44.43532" lon="6.12663">
        <ele>1422.8886719</ele>
        <time>2014-07-08T09:13:09Z</time>
      </trkpt>
      <trkpt lat="44.43519" lon="6.12629">
        <ele>1423.8498535</ele>
        <time>2014-07-08T09:13:26Z</time>
      </trkpt>
      <trkpt lat="44.43515" lon="6.12622">
        <ele>1424.3305664</ele>
        <time>2014-07-08T09:13:29Z</time>
      </trkpt>
      <trkpt lat="44.43505" lon="6.12599">
        <ele>1425.7724609</ele>
        <time>2014-07-08T09:13:40Z</time>
      </trkpt>
      <trkpt lat="44.43501" lon="6.12593">
        <ele>1426.2531738</ele>
        <time>2014-07-08T09:13:43Z</time>
      </trkpt>
      <trkpt lat="44.43498" lon="6.12581">
        <ele>1426.7338867</ele>
        <time>2014-07-08T09:13:49Z</time>
      </trkpt>
      <trkpt lat="44.43482" lon="6.12549">
        <ele>1426.7338867</ele>
        <time>2014-07-08T09:14:04Z</time>
      </trkpt>
      <trkpt lat="44.43471" lon="6.125">
        <ele>1425.7724609</ele>
        <time>2014-07-08T09:14:15Z</time>
      </trkpt>
      <trkpt lat="44.43462" lon="6.12463">
        <ele>1425.7724609</ele>
        <time>2014-07-08T09:14:21Z</time>
      </trkpt>
      <trkpt lat="44.43456" lon="6.12448">
        <ele>1424.8112793</ele>
        <time>2014-07-08T09:14:24Z</time>
      </trkpt>
      <trkpt lat="44.43445" lon="6.12426">
        <ele>1423.8498535</ele>
        <time>2014-07-08T09:14:28Z</time>
      </trkpt>
      <trkpt lat="44.43412" lon="6.12393">
        <ele>1424.3305664</ele>
        <time>2014-07-08T09:14:39Z</time>
      </trkpt>
      <trkpt lat="44.43393" lon="6.12389">
        <ele>1425.7724609</ele>
        <time>2014-07-08T09:14:49Z</time>
      </trkpt>
      <trkpt lat="44.43373" lon="6.12385">
        <ele>1426.2531738</ele>
        <time>2014-07-08T09:14:58Z</time>
      </trkpt>
      <trkpt lat="44.43354" lon="6.12373">
        <ele>1426.2531738</ele>
        <time>2014-07-08T09:15:08Z</time>
      </trkpt>
      <trkpt lat="44.4335" lon="6.12374">
        <ele>1426.2531738</ele>
        <time>2014-07-08T09:15:10Z</time>
      </trkpt>
      <trkpt lat="44.43347" lon="6.12382">
        <ele>1427.2145996</ele>
        <time>2014-07-08T09:15:13Z</time>
      </trkpt>
      <trkpt lat="44.43321" lon="6.12405">
        <ele>1427.2145996</ele>
        <time>2014-07-08T09:15:26Z</time>
      </trkpt>
      <trkpt lat="44.43308" lon="6.12404">
        <ele>1426.7338867</ele>
        <time>2014-07-08T09:15:31Z</time>
      </trkpt>
      <trkpt lat="44.43282" lon="6.12432">
        <ele>1427.2145996</ele>
        <time>2014-07-08T09:15:44Z</time>
      </trkpt>
      <trkpt lat="44.43266" lon="6.12449">
        <ele>1426.2531738</ele>
        <time>2014-07-08T09:15:58Z</time>
      </trkpt>
      <trkpt lat="44.43266" lon="6.12452">
        <ele>1426.2531738</ele>
        <time>2014-07-08T09:16:52Z</time>
      </trkpt>
      <trkpt lat="44.43265" lon="6.12452">
        <ele>1424.8112793</ele>
        <time>2014-07-08T09:18:50Z</time>
      </trkpt>
      <trkpt lat="44.43234" lon="6.12479">
        <ele>1423.3693848</ele>
        <time>2014-07-08T09:19:04Z</time>
      </trkpt>
      <trkpt lat="44.43189" lon="6.125">
        <ele>1420.9660645</ele>
        <time>2014-07-08T09:19:17Z</time>
      </trkpt>
      <trkpt lat="44.43157" lon="6.12528">
        <ele>1419.5239258</ele>
        <time>2014-07-08T09:19:27Z</time>
      </trkpt>
      <trkpt lat="44.43138" lon="6.12548">
        <ele>1417.1206055</ele>
        <time>2014-07-08T09:19:31Z</time>
      </trkpt>
      <trkpt lat="44.43107" lon="6.12579">
        <ele>1413.7558594</ele>
        <time>2014-07-08T09:19:40Z</time>
      </trkpt>
      <trkpt lat="44.43106" lon="6.12577">
        <ele>1413.7558594</ele>
        <time>2014-07-08T09:19:41Z</time>
      </trkpt>
      <trkpt lat="44.43103" lon="6.1259">
        <ele>1413.7558594</ele>
        <time>2014-07-08T09:19:45Z</time>
      </trkpt>
      <trkpt lat="44.43106" lon="6.12608">
        <ele>1412.7946777</ele>
        <time>2014-07-08T09:19:48Z</time>
      </trkpt>
      <trkpt lat="44.43108" lon="6.12621">
        <ele>1412.7946777</ele>
        <time>2014-07-08T09:19:50Z</time>
      </trkpt>
      <trkpt lat="44.43115" lon="6.12651">
        <ele>1409.9106445</ele>
        <time>2014-07-08T09:19:55Z</time>
      </trkpt>
      <trkpt lat="44.43117" lon="6.1267">
        <ele>1407.9882813</ele>
        <time>2014-07-08T09:19:59Z</time>
      </trkpt>
      <trkpt lat="44.43116" lon="6.12686">
        <ele>1406.0654297</ele>
        <time>2014-07-08T09:20:03Z</time>
      </trkpt>
      <trkpt lat="44.43108" lon="6.12713">
        <ele>1404.6235352</ele>
        <time>2014-07-08T09:20:07Z</time>
      </trkpt>
      <trkpt lat="44.43097" lon="6.12777">
        <ele>1404.1430664</ele>
        <time>2014-07-08T09:20:14Z</time>
      </trkpt>
      <trkpt lat="44.43086" lon="6.1283">
        <ele>1405.104248</ele>
        <time>2014-07-08T09:20:25Z</time>
      </trkpt>
      <trkpt lat="44.43076" lon="6.12866">
        <ele>1406.5461426</ele>
        <time>2014-07-08T09:20:36Z</time>
      </trkpt>
      <trkpt lat="44.4307" lon="6.12875">
        <ele>1407.0268555</ele>
        <time>2014-07-08T09:20:40Z</time>
      </trkpt>
      <trkpt lat="44.43056" lon="6.12892">
        <ele>1407.9882813</ele>
        <time>2014-07-08T09:20:49Z</time>
      </trkpt>
      <trkpt lat="44.43038" lon="6.12906">
        <ele>1409.4301758</ele>
        <time>2014-07-08T09:21:00Z</time>
      </trkpt>
      <trkpt lat="44.43036" lon="6.12907">
        <ele>1409.4301758</ele>
        <time>2014-07-08T09:21:01Z</time>
      </trkpt>
      <trkpt lat="44.43016" lon="6.12908">
        <ele>1411.3527832</ele>
        <time>2014-07-08T09:21:11Z</time>
      </trkpt>
      <trkpt lat="44.42994" lon="6.12917">
        <ele>1412.3139648</ele>
        <time>2014-07-08T09:21:22Z</time>
      </trkpt>
      <trkpt lat="44.42974" lon="6.12903">
        <ele>1413.2753906</ele>
        <time>2014-07-08T09:21:33Z</time>
      </trkpt>
      <trkpt lat="44.42971" lon="6.12896">
        <ele>1414.2365723</ele>
        <time>2014-07-08T09:21:37Z</time>
      </trkpt>
      <trkpt lat="44.42964" lon="6.12878">
        <ele>1415.197998</ele>
        <time>2014-07-08T09:21:53Z</time>
      </trkpt>
      <trkpt lat="44.42959" lon="6.12873">
        <ele>1415.197998</ele>
        <time>2014-07-08T09:22:40Z</time>
      </trkpt>
      <trkpt lat="44.42954" lon="6.12856">
        <ele>1416.6398926</ele>
        <time>2014-07-08T09:23:05Z</time>
      </trkpt>
      <trkpt lat="44.42935" lon="6.12839">
        <ele>1417.1206055</ele>
        <time>2014-07-08T09:23:14Z</time>
      </trkpt>
      <trkpt lat="44.42926" lon="6.12826">
        <ele>1417.6010742</ele>
        <time>2014-07-08T09:23:21Z</time>
      </trkpt>
      <trkpt lat="44.42922" lon="6.12824">
        <ele>1418.0817871</ele>
        <time>2014-07-08T09:23:23Z</time>
      </trkpt>
      <trkpt lat="44.42911" lon="6.12819">
        <ele>1418.5625</ele>
        <time>2014-07-08T09:23:29Z</time>
      </trkpt>
      <trkpt lat="44.42902" lon="6.12815">
        <ele>1419.0432129</ele>
        <time>2014-07-08T09:23:34Z</time>
      </trkpt>
      <trkpt lat="44.42893" lon="6.12807">
        <ele>1419.5239258</ele>
        <time>2014-07-08T09:23:41Z</time>
      </trkpt>
      <trkpt lat="44.42881" lon="6.12802">
        <ele>1419.5239258</ele>
        <time>2014-07-08T09:23:47Z</time>
      </trkpt>
      <trkpt lat="44.42876" lon="6.12798">
        <ele>1420.0046387</ele>
        <time>2014-07-08T09:23:50Z</time>
      </trkpt>
      <trkpt lat="44.42864" lon="6.12797">
        <ele>1420.0046387</ele>
        <time>2014-07-08T09:23:57Z</time>
      </trkpt>
      <trkpt lat="44.42862" lon="6.12795">
        <ele>1420.0046387</ele>
        <time>2014-07-08T09:23:59Z</time>
      </trkpt>
      <trkpt lat="44.42837" lon="6.12793">
        <ele>1421.4465332</ele>
        <time>2014-07-08T09:24:13Z</time>
      </trkpt>
      <trkpt lat="44.42832" lon="6.12791">
        <ele>1420.9660645</ele>
        <time>2014-07-08T09:24:15Z</time>
      </trkpt>
      <trkpt lat="44.42825" lon="6.12777">
        <ele>1421.9272461</ele>
        <time>2014-07-08T09:24:22Z</time>
      </trkpt>
      <trkpt lat="44.42821" lon="6.12761">
        <ele>1422.8886719</ele>
        <time>2014-07-08T09:24:29Z</time>
      </trkpt>
      <trkpt lat="44.42818" lon="6.12744">
        <ele>1424.3305664</ele>
        <time>2014-07-08T09:24:36Z</time>
      </trkpt>
      <trkpt lat="44.42816" lon="6.12735">
        <ele>1424.3305664</ele>
        <time>2014-07-08T09:24:40Z</time>
      </trkpt>
      <trkpt lat="44.42814" lon="6.1273">
        <ele>1424.8112793</ele>
        <time>2014-07-08T09:24:43Z</time>
      </trkpt>
      <trkpt lat="44.42811" lon="6.12722">
        <ele>1425.291748</ele>
        <time>2014-07-08T09:24:47Z</time>
      </trkpt>
      <trkpt lat="44.42804" lon="6.12701">
        <ele>1425.7724609</ele>
        <time>2014-07-08T09:24:56Z</time>
      </trkpt>
      <trkpt lat="44.42804" lon="6.12695">
        <ele>1426.2531738</ele>
        <time>2014-07-08T09:24:59Z</time>
      </trkpt>
      <trkpt lat="44.42801" lon="6.12687">
        <ele>1426.2531738</ele>
        <time>2014-07-08T09:25:03Z</time>
      </trkpt>
      <trkpt lat="44.428" lon="6.12662">
        <ele>1427.6950684</ele>
        <time>2014-07-08T09:25:16Z</time>
      </trkpt>
      <trkpt lat="44.42801" lon="6.12655">
        <ele>1428.1757813</ele>
        <time>2014-07-08T09:25:19Z</time>
      </trkpt>
      <trkpt lat="44.42791" lon="6.12615">
        <ele>1429.6176758</ele>
        <time>2014-07-08T09:25:36Z</time>
      </trkpt>
      <trkpt lat="44.42786" lon="6.1259">
        <ele>1430.5791016</ele>
        <time>2014-07-08T09:25:47Z</time>
      </trkpt>
      <trkpt lat="44.42768" lon="6.12558">
        <ele>1432.501709</ele>
        <time>2014-07-08T09:26:04Z</time>
      </trkpt>
      <trkpt lat="44.42753" lon="6.12527">
        <ele>1433.9436035</ele>
        <time>2014-07-08T09:26:21Z</time>
      </trkpt>
      <trkpt lat="44.42751" lon="6.12521">
        <ele>1434.4243164</ele>
        <time>2014-07-08T09:26:24Z</time>
      </trkpt>
      <trkpt lat="44.42742" lon="6.12495">
        <ele>1435.385498</ele>
        <time>2014-07-08T09:26:37Z</time>
      </trkpt>
      <trkpt lat="44.42742" lon="6.1249">
        <ele>1435.385498</ele>
        <time>2014-07-08T09:26:39Z</time>
      </trkpt>
      <trkpt lat="44.4274" lon="6.12471">
        <ele>1435.8662109</ele>
        <time>2014-07-08T09:26:48Z</time>
      </trkpt>
      <trkpt lat="44.42742" lon="6.12444">
        <ele>1436.8276367</ele>
        <time>2014-07-08T09:27:00Z</time>
      </trkpt>
      <trkpt lat="44.42715" lon="6.12427">
        <ele>1437.7890625</ele>
        <time>2014-07-08T09:27:13Z</time>
      </trkpt>
      <trkpt lat="44.42701" lon="6.12422">
        <ele>1438.2697754</ele>
        <time>2014-07-08T09:27:21Z</time>
      </trkpt>
      <trkpt lat="44.42697" lon="6.12418">
        <ele>1438.7504883</ele>
        <time>2014-07-08T09:27:24Z</time>
      </trkpt>
      <trkpt lat="44.42693" lon="6.12409">
        <ele>1439.230957</ele>
        <time>2014-07-08T09:27:29Z</time>
      </trkpt>
      <trkpt lat="44.4268" lon="6.12388">
        <ele>1440.1923828</ele>
        <time>2014-07-08T09:27:40Z</time>
      </trkpt>
      <trkpt lat="44.42673" lon="6.12375">
        <ele>1440.6728516</ele>
        <time>2014-07-08T09:27:46Z</time>
      </trkpt>
      <trkpt lat="44.4267" lon="6.12359">
        <ele>1440.6728516</ele>
        <time>2014-07-08T09:27:53Z</time>
      </trkpt>
      <trkpt lat="44.42668" lon="6.12356">
        <ele>1440.6728516</ele>
        <time>2014-07-08T09:27:55Z</time>
      </trkpt>
      <trkpt lat="44.42672" lon="6.12338">
        <ele>1440.6728516</ele>
        <time>2014-07-08T09:28:02Z</time>
      </trkpt>
      <trkpt lat="44.42675" lon="6.12329">
        <ele>1440.6728516</ele>
        <time>2014-07-08T09:28:05Z</time>
      </trkpt>
      <trkpt lat="44.42676" lon="6.12295">
        <ele>1441.1535645</ele>
        <time>2014-07-08T09:28:19Z</time>
      </trkpt>
      <trkpt lat="44.42681" lon="6.12288">
        <ele>1440.6728516</ele>
        <time>2014-07-08T09:28:22Z</time>
      </trkpt>
      <trkpt lat="44.42698" lon="6.12242">
        <ele>1439.230957</ele>
        <time>2014-07-08T09:28:33Z</time>
      </trkpt>
      <trkpt lat="44.427" lon="6.12237">
        <ele>1439.230957</ele>
        <time>2014-07-08T09:28:34Z</time>
      </trkpt>
      <trkpt lat="44.42712" lon="6.12192">
        <ele>1437.7890625</ele>
        <time>2014-07-08T09:28:43Z</time>
      </trkpt>
      <trkpt lat="44.42712" lon="6.12186">
        <ele>1437.7890625</ele>
        <time>2014-07-08T09:28:45Z</time>
      </trkpt>
      <trkpt lat="44.4271" lon="6.12155">
        <ele>1438.7504883</ele>
        <time>2014-07-08T09:28:54Z</time>
      </trkpt>
      <trkpt lat="44.42731" lon="6.12115">
        <ele>1436.8276367</ele>
        <time>2014-07-08T09:29:06Z</time>
      </trkpt>
      <trkpt lat="44.42726" lon="6.12059">
        <ele>1435.8662109</ele>
        <time>2014-07-08T09:29:16Z</time>
      </trkpt>
      <trkpt lat="44.42726" lon="6.12046">
        <ele>1435.8662109</ele>
        <time>2014-07-08T09:29:19Z</time>
      </trkpt>
      <trkpt lat="44.42728" lon="6.11999">
        <ele>1436.8276367</ele>
        <time>2014-07-08T09:29:33Z</time>
      </trkpt>
      <trkpt lat="44.42729" lon="6.1198">
        <ele>1436.347168</ele>
        <time>2014-07-08T09:29:38Z</time>
      </trkpt>
      <trkpt lat="44.42731" lon="6.11942">
        <ele>1433.9436035</ele>
        <time>2014-07-08T09:29:47Z</time>
      </trkpt>
      <trkpt lat="44.42694" lon="6.11891">
        <ele>1432.0209961</ele>
        <time>2014-07-08T09:29:58Z</time>
      </trkpt>
      <trkpt lat="44.42662" lon="6.11852">
        <ele>1430.5791016</ele>
        <time>2014-07-08T09:30:09Z</time>
      </trkpt>
      <trkpt lat="44.42653" lon="6.11812">
        <ele>1430.5791016</ele>
        <time>2014-07-08T09:30:20Z</time>
      </trkpt>
      <trkpt lat="44.42655" lon="6.11794">
        <ele>1430.5791016</ele>
        <time>2014-07-08T09:30:26Z</time>
      </trkpt>
      <trkpt lat="44.42683" lon="6.11765">
        <ele>1430.0983887</ele>
        <time>2014-07-08T09:30:40Z</time>
      </trkpt>
      <trkpt lat="44.42713" lon="6.11763">
        <ele>1430.0983887</ele>
        <time>2014-07-08T09:30:51Z</time>
      </trkpt>
      <trkpt lat="44.42721" lon="6.11759">
        <ele>1430.0983887</ele>
        <time>2014-07-08T09:30:54Z</time>
      </trkpt>
      <trkpt lat="44.42763" lon="6.11744">
        <ele>1427.6950684</ele>
        <time>2014-07-08T09:31:06Z</time>
      </trkpt>
      <trkpt lat="44.4277" lon="6.11746">
        <ele>1427.2145996</ele>
        <time>2014-07-08T09:31:08Z</time>
      </trkpt>
      <trkpt lat="44.42791" lon="6.11732">
        <ele>1426.7338867</ele>
        <time>2014-07-08T09:31:15Z</time>
      </trkpt>
      <trkpt lat="44.42817" lon="6.11718">
        <ele>1424.8112793</ele>
        <time>2014-07-08T09:31:22Z</time>
      </trkpt>
      <trkpt lat="44.42833" lon="6.11714">
        <ele>1423.8498535</ele>
        <time>2014-07-08T09:31:26Z</time>
      </trkpt>
      <trkpt lat="44.42874" lon="6.11705">
        <ele>1420.4853516</ele>
        <time>2014-07-08T09:31:38Z</time>
      </trkpt>
      <trkpt lat="44.42881" lon="6.11705">
        <ele>1418.0817871</ele>
        <time>2014-07-08T09:31:55Z</time>
      </trkpt>
      <trkpt lat="44.42881" lon="6.11705">
        <ele>1420.0046387</ele>
        <time>2014-07-08T09:31:58Z</time>
      </trkpt>
      <trkpt lat="44.42881" lon="6.11705">
        <ele>1418.0817871</ele>
        <time>2014-07-08T09:32:04Z</time>
      </trkpt>
      <trkpt lat="44.42881" lon="6.11706">
        <ele>1418.5625</ele>
        <time>2014-07-08T09:32:32Z</time>
      </trkpt>
      <trkpt lat="44.42884" lon="6.11704">
        <ele>1418.0817871</ele>
        <time>2014-07-08T09:33:10Z</time>
      </trkpt>
      <trkpt lat="44.42895" lon="6.11697">
        <ele>1419.0432129</ele>
        <time>2014-07-08T09:33:18Z</time>
      </trkpt>
      <trkpt lat="44.42909" lon="6.11685">
        <ele>1419.5239258</ele>
        <time>2014-07-08T09:33:26Z</time>
      </trkpt>
      <trkpt lat="44.42931" lon="6.11669">
        <ele>1421.4465332</ele>
        <time>2014-07-08T09:33:41Z</time>
      </trkpt>
      <trkpt lat="44.42945" lon="6.11675">
        <ele>1422.407959</ele>
        <time>2014-07-08T09:33:52Z</time>
      </trkpt>
      <trkpt lat="44.4295" lon="6.11679">
        <ele>1423.8498535</ele>
        <time>2014-07-08T09:33:56Z</time>
      </trkpt>
      <trkpt lat="44.4296" lon="6.11681">
        <ele>1424.8112793</ele>
        <time>2014-07-08T09:34:02Z</time>
      </trkpt>
      <trkpt lat="44.42963" lon="6.11679">
        <ele>1425.291748</ele>
        <time>2014-07-08T09:34:04Z</time>
      </trkpt>
      <trkpt lat="44.42975" lon="6.11679">
        <ele>1425.7724609</ele>
        <time>2014-07-08T09:34:12Z</time>
      </trkpt>
      <trkpt lat="44.42986" lon="6.11676">
        <ele>1426.7338867</ele>
        <time>2014-07-08T09:34:19Z</time>
      </trkpt>
      <trkpt lat="44.43001" lon="6.11653">
        <ele>1427.6950684</ele>
        <time>2014-07-08T09:34:31Z</time>
      </trkpt>
      <trkpt lat="44.43013" lon="6.11642">
        <ele>1428.1757813</ele>
        <time>2014-07-08T09:34:39Z</time>
      </trkpt>
      <trkpt lat="44.43032" lon="6.11624">
        <ele>1429.1369629</ele>
        <time>2014-07-08T09:34:52Z</time>
      </trkpt>
      <trkpt lat="44.43043" lon="6.11615">
        <ele>1428.6564941</ele>
        <time>2014-07-08T09:35:00Z</time>
      </trkpt>
      <trkpt lat="44.43056" lon="6.11597">
        <ele>1429.1369629</ele>
        <time>2014-07-08T09:35:10Z</time>
      </trkpt>
      <trkpt lat="44.43059" lon="6.11592">
        <ele>1429.6176758</ele>
        <time>2014-07-08T09:35:13Z</time>
      </trkpt>
      <trkpt lat="44.43069" lon="6.11574">
        <ele>1430.0983887</ele>
        <time>2014-07-08T09:35:23Z</time>
      </trkpt>
      <trkpt lat="44.43075" lon="6.11565">
        <ele>1430.0983887</ele>
        <time>2014-07-08T09:35:26Z</time>
      </trkpt>
      <trkpt lat="44.43077" lon="6.11558">
        <ele>1430.0983887</ele>
        <time>2014-07-08T09:35:29Z</time>
      </trkpt>
      <trkpt lat="44.43088" lon="6.11549">
        <ele>1431.0598145</ele>
        <time>2014-07-08T09:35:37Z</time>
      </trkpt>
      <trkpt lat="44.43101" lon="6.11536">
        <ele>1431.5402832</ele>
        <time>2014-07-08T09:35:44Z</time>
      </trkpt>
      <trkpt lat="44.43107" lon="6.11494">
        <ele>1433.4628906</ele>
        <time>2014-07-08T09:36:00Z</time>
      </trkpt>
      <trkpt lat="44.43108" lon="6.11492">
        <ele>1433.4628906</ele>
        <time>2014-07-08T09:36:01Z</time>
      </trkpt>
      <trkpt lat="44.43111" lon="6.11489">
        <ele>1433.4628906</ele>
        <time>2014-07-08T09:36:03Z</time>
      </trkpt>
      <trkpt lat="44.43115" lon="6.1148">
        <ele>1434.4243164</ele>
        <time>2014-07-08T09:36:08Z</time>
      </trkpt>
      <trkpt lat="44.43115" lon="6.11468">
        <ele>1434.9050293</ele>
        <time>2014-07-08T09:36:13Z</time>
      </trkpt>
      <trkpt lat="44.4311" lon="6.11429">
        <ele>1436.8276367</ele>
        <time>2014-07-08T09:36:28Z</time>
      </trkpt>
      <trkpt lat="44.43107" lon="6.11397">
        <ele>1438.2697754</ele>
        <time>2014-07-08T09:36:43Z</time>
      </trkpt>
      <trkpt lat="44.43103" lon="6.11368">
        <ele>1440.1923828</ele>
        <time>2014-07-08T09:36:56Z</time>
      </trkpt>
      <trkpt lat="44.43103" lon="6.11358">
        <ele>1440.1923828</ele>
        <time>2014-07-08T09:37:00Z</time>
      </trkpt>
      <trkpt lat="44.43103" lon="6.11327">
        <ele>1442.1149902</ele>
        <time>2014-07-08T09:37:14Z</time>
      </trkpt>
      <trkpt lat="44.43098" lon="6.11301">
        <ele>1443.0761719</ele>
        <time>2014-07-08T09:37:27Z</time>
      </trkpt>
      <trkpt lat="44.43085" lon="6.11269">
        <ele>1445.4794922</ele>
        <time>2014-07-08T09:37:40Z</time>
      </trkpt>
      <trkpt lat="44.43076" lon="6.11248">
        <ele>1446.440918</ele>
        <time>2014-07-08T09:37:49Z</time>
      </trkpt>
      <trkpt lat="44.43074" lon="6.11239">
        <ele>1447.4020996</ele>
        <time>2014-07-08T09:37:54Z</time>
      </trkpt>
      <trkpt lat="44.43068" lon="6.11215">
        <ele>1449.324707</ele>
        <time>2014-07-08T09:38:06Z</time>
      </trkpt>
      <trkpt lat="44.43066" lon="6.11205">
        <ele>1449.8054199</ele>
        <time>2014-07-08T09:38:11Z</time>
      </trkpt>
      <trkpt lat="44.43062" lon="6.11174">
        <ele>1450.7666016</ele>
        <time>2014-07-08T09:38:25Z</time>
      </trkpt>
      <trkpt lat="44.43066" lon="6.1115">
        <ele>1451.7280273</ele>
        <time>2014-07-08T09:38:35Z</time>
      </trkpt>
      <trkpt lat="44.43058" lon="6.11103">
        <ele>1452.2087402</ele>
        <time>2014-07-08T09:38:54Z</time>
      </trkpt>
      <trkpt lat="44.43052" lon="6.11098">
        <ele>1452.2087402</ele>
        <time>2014-07-08T09:39:07Z</time>
      </trkpt>
      <trkpt lat="44.43052" lon="6.11094">
        <ele>1452.2087402</ele>
        <time>2014-07-08T09:39:23Z</time>
      </trkpt>
      <trkpt lat="44.43046" lon="6.11077">
        <ele>1452.2087402</ele>
        <time>2014-07-08T09:39:39Z</time>
      </trkpt>
      <trkpt lat="44.43045" lon="6.11069">
        <ele>1452.6894531</ele>
        <time>2014-07-08T09:40:06Z</time>
      </trkpt>
      <trkpt lat="44.43046" lon="6.11066">
        <ele>1452.6894531</ele>
        <time>2014-07-08T09:40:42Z</time>
      </trkpt>
      <trkpt lat="44.43048" lon="6.1106">
        <ele>1452.6894531</ele>
        <time>2014-07-08T09:41:23Z</time>
      </trkpt>
      <trkpt lat="44.43054" lon="6.11058">
        <ele>1453.6508789</ele>
        <time>2014-07-08T09:45:38Z</time>
      </trkpt>
      <trkpt lat="44.43067" lon="6.11069">
        <ele>1452.6894531</ele>
        <time>2014-07-08T09:45:51Z</time>
      </trkpt>
      <trkpt lat="44.43082" lon="6.11098">
        <ele>1450.7666016</ele>
        <time>2014-07-08T09:46:03Z</time>
      </trkpt>
      <trkpt lat="44.43087" lon="6.11101">
        <ele>1449.8054199</ele>
        <time>2014-07-08T09:46:04Z</time>
      </trkpt>
      <trkpt lat="44.43102" lon="6.11125">
        <ele>1448.3632813</ele>
        <time>2014-07-08T09:46:11Z</time>
      </trkpt>
      <trkpt lat="44.43114" lon="6.11143">
        <ele>1446.440918</ele>
        <time>2014-07-08T09:46:18Z</time>
      </trkpt>
      <trkpt lat="44.43145" lon="6.11147">
        <ele>1443.0761719</ele>
        <time>2014-07-08T09:46:29Z</time>
      </trkpt>
      <trkpt lat="44.43147" lon="6.11148">
        <ele>1443.0761719</ele>
        <time>2014-07-08T09:46:30Z</time>
      </trkpt>
      <trkpt lat="44.43161" lon="6.11162">
        <ele>1440.6728516</ele>
        <time>2014-07-08T09:46:36Z</time>
      </trkpt>
      <trkpt lat="44.43174" lon="6.11182">
        <ele>1438.7504883</ele>
        <time>2014-07-08T09:46:42Z</time>
      </trkpt>
      <trkpt lat="44.4319" lon="6.11215">
        <ele>1435.385498</ele>
        <time>2014-07-08T09:46:52Z</time>
      </trkpt>
      <trkpt lat="44.43215" lon="6.11242">
        <ele>1432.9821777</ele>
        <time>2014-07-08T09:47:03Z</time>
      </trkpt>
      <trkpt lat="44.4322" lon="6.11246">
        <ele>1432.501709</ele>
        <time>2014-07-08T09:47:05Z</time>
      </trkpt>
      <trkpt lat="44.43243" lon="6.1126">
        <ele>1430.0983887</ele>
        <time>2014-07-08T09:47:12Z</time>
      </trkpt>
      <trkpt lat="44.43268" lon="6.11269">
        <ele>1427.2145996</ele>
        <time>2014-07-08T09:47:19Z</time>
      </trkpt>
      <trkpt lat="44.43302" lon="6.11282">
        <ele>1424.3305664</ele>
        <time>2014-07-08T09:47:29Z</time>
      </trkpt>
      <trkpt lat="44.43342" lon="6.11296">
        <ele>1420.0046387</ele>
        <time>2014-07-08T09:47:40Z</time>
      </trkpt>
      <trkpt lat="44.43379" lon="6.113">
        <ele>1417.6010742</ele>
        <time>2014-07-08T09:47:53Z</time>
      </trkpt>
      <trkpt lat="44.43377" lon="6.11298">
        <ele>1417.1206055</ele>
        <time>2014-07-08T09:48:04Z</time>
      </trkpt>
      <trkpt lat="44.43379" lon="6.11297">
        <ele>1417.1206055</ele>
        <time>2014-07-08T09:48:32Z</time>
      </trkpt>
      <trkpt lat="44.43381" lon="6.11296">
        <ele>1416.6398926</ele>
        <time>2014-07-08T09:48:44Z</time>
      </trkpt>
      <trkpt lat="44.43382" lon="6.11295">
        <ele>1416.1591797</ele>
        <time>2014-07-08T09:48:48Z</time>
      </trkpt>
      <trkpt lat="44.43394" lon="6.11296">
        <ele>1415.197998</ele>
        <time>2014-07-08T09:48:55Z</time>
      </trkpt>
      <trkpt lat="44.434" lon="6.11297">
        <ele>1415.197998</ele>
        <time>2014-07-08T09:48:58Z</time>
      </trkpt>
      <trkpt lat="44.4341" lon="6.11303">
        <ele>1413.2753906</ele>
        <time>2014-07-08T09:49:05Z</time>
      </trkpt>
      <trkpt lat="44.43439" lon="6.11316">
        <ele>1411.3527832</ele>
        <time>2014-07-08T09:49:21Z</time>
      </trkpt>
      <trkpt lat="44.43441" lon="6.11295">
        <ele>1409.9106445</ele>
        <time>2014-07-08T09:49:31Z</time>
      </trkpt>
      <trkpt lat="44.43427" lon="6.11279">
        <ele>1409.4301758</ele>
        <time>2014-07-08T09:49:43Z</time>
      </trkpt>
      <trkpt lat="44.43423" lon="6.11279">
        <ele>1409.4301758</ele>
        <time>2014-07-08T09:50:04Z</time>
      </trkpt>
      <trkpt lat="44.43416" lon="6.11255">
        <ele>1407.0268555</ele>
        <time>2014-07-08T09:50:21Z</time>
      </trkpt>
      <trkpt lat="44.43405" lon="6.11235">
        <ele>1405.5849609</ele>
        <time>2014-07-08T09:50:28Z</time>
      </trkpt>
      <trkpt lat="44.43375" lon="6.11222">
        <ele>1403.6621094</ele>
        <time>2014-07-08T09:50:38Z</time>
      </trkpt>
      <trkpt lat="44.43373" lon="6.11223">
        <ele>1402.7006836</ele>
        <time>2014-07-08T09:50:39Z</time>
      </trkpt>
      <trkpt lat="44.43365" lon="6.11228">
        <ele>1401.739502</ele>
        <time>2014-07-08T09:50:42Z</time>
      </trkpt>
      <trkpt lat="44.43324" lon="6.11221">
        <ele>1399.3361816</ele>
        <time>2014-07-08T09:50:55Z</time>
      </trkpt>
      <trkpt lat="44.43306" lon="6.11203">
        <ele>1396.9328613</ele>
        <time>2014-07-08T09:51:03Z</time>
      </trkpt>
      <trkpt lat="44.43283" lon="6.11157">
        <ele>1393.5683594</ele>
        <time>2014-07-08T09:51:14Z</time>
      </trkpt>
      <trkpt lat="44.43271" lon="6.11143">
        <ele>1393.0876465</ele>
        <time>2014-07-08T09:51:18Z</time>
      </trkpt>
      <trkpt lat="44.43257" lon="6.11119">
        <ele>1390.2038574</ele>
        <time>2014-07-08T09:51:25Z</time>
      </trkpt>
      <trkpt lat="44.43225" lon="6.11086">
        <ele>1388.7619629</ele>
        <time>2014-07-08T09:51:35Z</time>
      </trkpt>
      <trkpt lat="44.43215" lon="6.11064">
        <ele>1386.8388672</ele>
        <time>2014-07-08T09:51:39Z</time>
      </trkpt>
      <trkpt lat="44.43209" lon="6.11052">
        <ele>1386.3583984</ele>
        <time>2014-07-08T09:51:41Z</time>
      </trkpt>
      <trkpt lat="44.43207" lon="6.11039">
        <ele>1385.8776855</ele>
        <time>2014-07-08T09:51:43Z</time>
      </trkpt>
      <trkpt lat="44.43199" lon="6.1103">
        <ele>1384.9165039</ele>
        <time>2014-07-08T09:51:46Z</time>
      </trkpt>
      <trkpt lat="44.4318" lon="6.11011">
        <ele>1382.9936523</ele>
        <time>2014-07-08T09:51:53Z</time>
      </trkpt>
      <trkpt lat="44.43167" lon="6.10992">
        <ele>1382.0324707</ele>
        <time>2014-07-08T09:51:57Z</time>
      </trkpt>
      <trkpt lat="44.43161" lon="6.10931">
        <ele>1378.1872559</ele>
        <time>2014-07-08T09:52:08Z</time>
      </trkpt>
      <trkpt lat="44.43162" lon="6.10924">
        <ele>1378.1872559</ele>
        <time>2014-07-08T09:52:09Z</time>
      </trkpt>
      <trkpt lat="44.43166" lon="6.10878">
        <ele>1375.7839355</ele>
        <time>2014-07-08T09:52:16Z</time>
      </trkpt>
      <trkpt lat="44.43167" lon="6.10864">
        <ele>1373.8613281</ele>
        <time>2014-07-08T09:52:19Z</time>
      </trkpt>
      <trkpt lat="44.43152" lon="6.10778">
        <ele>1370.9772949</ele>
        <time>2014-07-08T09:52:32Z</time>
      </trkpt>
      <trkpt lat="44.43147" lon="6.10729">
        <ele>1368.0932617</ele>
        <time>2014-07-08T09:52:39Z</time>
      </trkpt>
      <trkpt lat="44.43151" lon="6.10705">
        <ele>1364.7287598</ele>
        <time>2014-07-08T09:52:45Z</time>
      </trkpt>
      <trkpt lat="44.43151" lon="6.10708">
        <ele>1364.2480469</ele>
        <time>2014-07-08T09:52:47Z</time>
      </trkpt>
      <trkpt lat="44.43154" lon="6.10713">
        <ele>1364.7287598</ele>
        <time>2014-07-08T09:52:55Z</time>
      </trkpt>
      <trkpt lat="44.43157" lon="6.1071">
        <ele>1363.2868652</ele>
        <time>2014-07-08T09:53:10Z</time>
      </trkpt>
      <trkpt lat="44.43164" lon="6.10698">
        <ele>1361.8449707</ele>
        <time>2014-07-08T09:53:14Z</time>
      </trkpt>
      <trkpt lat="44.43165" lon="6.10677">
        <ele>1359.4416504</ele>
        <time>2014-07-08T09:53:23Z</time>
      </trkpt>
      <trkpt lat="44.4318" lon="6.10648">
        <ele>1357.519043</ele>
        <time>2014-07-08T09:53:32Z</time>
      </trkpt>
      <trkpt lat="44.43184" lon="6.10641">
        <ele>1356.5576172</ele>
        <time>2014-07-08T09:53:34Z</time>
      </trkpt>
      <trkpt lat="44.43194" lon="6.10591">
        <ele>1352.2314453</ele>
        <time>2014-07-08T09:53:42Z</time>
      </trkpt>
      <trkpt lat="44.43194" lon="6.10585">
        <ele>1352.2314453</ele>
        <time>2014-07-08T09:53:43Z</time>
      </trkpt>
      <trkpt lat="44.43198" lon="6.10565">
        <ele>1350.309082</ele>
        <time>2014-07-08T09:53:47Z</time>
      </trkpt>
      <trkpt lat="44.43197" lon="6.10546">
        <ele>1348.8669434</ele>
        <time>2014-07-08T09:53:51Z</time>
      </trkpt>
      <trkpt lat="44.432" lon="6.10513">
        <ele>1346.9443359</ele>
        <time>2014-07-08T09:53:57Z</time>
      </trkpt>
      <trkpt lat="44.43202" lon="6.10495">
        <ele>1345.5024414</ele>
        <time>2014-07-08T09:54:02Z</time>
      </trkpt>
      <trkpt lat="44.4319" lon="6.10452">
        <ele>1341.6572266</ele>
        <time>2014-07-08T09:54:12Z</time>
      </trkpt>
      <trkpt lat="44.43178" lon="6.10423">
        <ele>1339.734375</ele>
        <time>2014-07-08T09:54:17Z</time>
      </trkpt>
      <trkpt lat="44.43157" lon="6.10379">
        <ele>1336.8503418</ele>
        <time>2014-07-08T09:54:28Z</time>
      </trkpt>
      <trkpt lat="44.43158" lon="6.10362">
        <ele>1335.4084473</ele>
        <time>2014-07-08T09:54:32Z</time>
      </trkpt>
      <trkpt lat="44.43152" lon="6.1035">
        <ele>1334.4472656</ele>
        <time>2014-07-08T09:54:37Z</time>
      </trkpt>
      <trkpt lat="44.43161" lon="6.10325">
        <ele>1332.5246582</ele>
        <time>2014-07-08T09:54:45Z</time>
      </trkpt>
      <trkpt lat="44.43175" lon="6.1029">
        <ele>1330.6020508</ele>
        <time>2014-07-08T09:54:58Z</time>
      </trkpt>
      <trkpt lat="44.43186" lon="6.1026">
        <ele>1326.7568359</ele>
        <time>2014-07-08T09:55:09Z</time>
      </trkpt>
      <trkpt lat="44.43191" lon="6.10227">
        <ele>1323.8725586</ele>
        <time>2014-07-08T09:55:20Z</time>
      </trkpt>
      <trkpt lat="44.43192" lon="6.10224">
        <ele>1323.8725586</ele>
        <time>2014-07-08T09:55:21Z</time>
      </trkpt>
      <trkpt lat="44.43203" lon="6.10212">
        <ele>1319.546875</ele>
        <time>2014-07-08T09:55:29Z</time>
      </trkpt>
      <trkpt lat="44.43205" lon="6.1021">
        <ele>1319.546875</ele>
        <time>2014-07-08T09:55:30Z</time>
      </trkpt>
      <trkpt lat="44.43206" lon="6.10208">
        <ele>1320.0273438</ele>
        <time>2014-07-08T09:55:31Z</time>
      </trkpt>
      <trkpt lat="44.4321" lon="6.10199">
        <ele>1319.0661621</ele>
        <time>2014-07-08T09:55:34Z</time>
      </trkpt>
      <trkpt lat="44.43219" lon="6.10177">
        <ele>1314.2595215</ele>
        <time>2014-07-08T09:55:45Z</time>
      </trkpt>
      <trkpt lat="44.43226" lon="6.10149">
        <ele>1311.8564453</ele>
        <time>2014-07-08T09:55:53Z</time>
      </trkpt>
      <trkpt lat="44.43227" lon="6.10111">
        <ele>1308.0112305</ele>
        <time>2014-07-08T09:56:00Z</time>
      </trkpt>
      <trkpt lat="44.43227" lon="6.10083">
        <ele>1304.6462402</ele>
        <time>2014-07-08T09:56:07Z</time>
      </trkpt>
      <trkpt lat="44.43228" lon="6.10054">
        <ele>1302.7236328</ele>
        <time>2014-07-08T09:56:12Z</time>
      </trkpt>
      <trkpt lat="44.43227" lon="6.10049">
        <ele>1301.7624512</ele>
        <time>2014-07-08T09:56:13Z</time>
      </trkpt>
      <trkpt lat="44.43225" lon="6.10037">
        <ele>1300.3205566</ele>
        <time>2014-07-08T09:56:17Z</time>
      </trkpt>
      <trkpt lat="44.43224" lon="6.10031">
        <ele>1298.878418</ele>
        <time>2014-07-08T09:56:19Z</time>
      </trkpt>
      <trkpt lat="44.4322" lon="6.10007">
        <ele>1296.4753418</ele>
        <time>2014-07-08T09:56:25Z</time>
      </trkpt>
      <trkpt lat="44.4322" lon="6.10003">
        <ele>1296.4753418</ele>
        <time>2014-07-08T09:56:27Z</time>
      </trkpt>
      <trkpt lat="44.43225" lon="6.09998">
        <ele>1293.5913086</ele>
        <time>2014-07-08T09:56:33Z</time>
      </trkpt>
      <trkpt lat="44.43235" lon="6.09989">
        <ele>1290.7070313</ele>
        <time>2014-07-08T09:56:40Z</time>
      </trkpt>
      <trkpt lat="44.43242" lon="6.09982">
        <ele>1289.7458496</ele>
        <time>2014-07-08T09:56:44Z</time>
      </trkpt>
      <trkpt lat="44.43244" lon="6.09977">
        <ele>1288.3039551</ele>
        <time>2014-07-08T09:56:46Z</time>
      </trkpt>
      <trkpt lat="44.43249" lon="6.0997">
        <ele>1286.3813477</ele>
        <time>2014-07-08T09:56:52Z</time>
      </trkpt>
      <trkpt lat="44.43252" lon="6.09966">
        <ele>1284.4587402</ele>
        <time>2014-07-08T09:56:55Z</time>
      </trkpt>
      <trkpt lat="44.43259" lon="6.0996">
        <ele>1283.0166016</ele>
        <time>2014-07-08T09:56:59Z</time>
      </trkpt>
      <trkpt lat="44.4326" lon="6.09958">
        <ele>1282.5361328</ele>
        <time>2014-07-08T09:57:00Z</time>
      </trkpt>
      <trkpt lat="44.43267" lon="6.09951">
        <ele>1281.574707</ele>
        <time>2014-07-08T09:57:03Z</time>
      </trkpt>
      <trkpt lat="44.4327" lon="6.09948">
        <ele>1280.6135254</ele>
        <time>2014-07-08T09:57:05Z</time>
      </trkpt>
      <trkpt lat="44.43282" lon="6.09936">
        <ele>1278.2102051</ele>
        <time>2014-07-08T09:57:12Z</time>
      </trkpt>
      <trkpt lat="44.43293" lon="6.09927">
        <ele>1276.2875977</ele>
        <time>2014-07-08T09:57:16Z</time>
      </trkpt>
      <trkpt lat="44.43318" lon="6.099">
        <ele>1272.9228516</ele>
        <time>2014-07-08T09:57:22Z</time>
      </trkpt>
      <trkpt lat="44.43347" lon="6.09886">
        <ele>1269.5583496</ele>
        <time>2014-07-08T09:57:29Z</time>
      </trkpt>
      <trkpt lat="44.4335" lon="6.09887">
        <ele>1269.5583496</ele>
        <time>2014-07-08T09:57:30Z</time>
      </trkpt>
      <trkpt lat="44.4339" lon="6.09883">
        <ele>1266.6743164</ele>
        <time>2014-07-08T09:57:36Z</time>
      </trkpt>
      <trkpt lat="44.43396" lon="6.09885">
        <ele>1266.6743164</ele>
        <time>2014-07-08T09:57:37Z</time>
      </trkpt>
      <trkpt lat="44.43427" lon="6.09867">
        <ele>1263.7902832</ele>
        <time>2014-07-08T09:57:44Z</time>
      </trkpt>
      <trkpt lat="44.43438" lon="6.09823">
        <ele>1260.4257813</ele>
        <time>2014-07-08T09:57:50Z</time>
      </trkpt>
      <trkpt lat="44.43441" lon="6.09815">
        <ele>1259.9448242</ele>
        <time>2014-07-08T09:57:51Z</time>
      </trkpt>
      <trkpt lat="44.43451" lon="6.09764">
        <ele>1258.0224609</ele>
        <time>2014-07-08T09:57:55Z</time>
      </trkpt>
      <trkpt lat="44.4346" lon="6.09741">
        <ele>1255.1384277</ele>
        <time>2014-07-08T09:57:58Z</time>
      </trkpt>
      <trkpt lat="44.43463" lon="6.09707">
        <ele>1253.6965332</ele>
        <time>2014-07-08T09:58:01Z</time>
      </trkpt>
      <trkpt lat="44.43473" lon="6.09683">
        <ele>1251.2932129</ele>
        <time>2014-07-08T09:58:05Z</time>
      </trkpt>
      <trkpt lat="44.4348" lon="6.09656">
        <ele>1247.9287109</ele>
        <time>2014-07-08T09:58:10Z</time>
      </trkpt>
      <trkpt lat="44.43479" lon="6.09654">
        <ele>1247.9287109</ele>
        <time>2014-07-08T09:58:11Z</time>
      </trkpt>
      <trkpt lat="44.43479" lon="6.09641">
        <ele>1246.0061035</ele>
        <time>2014-07-08T09:58:14Z</time>
      </trkpt>
      <trkpt lat="44.43481" lon="6.09603">
        <ele>1244.0834961</ele>
        <time>2014-07-08T09:58:21Z</time>
      </trkpt>
      <trkpt lat="44.43479" lon="6.09591">
        <ele>1243.6025391</ele>
        <time>2014-07-08T09:58:23Z</time>
      </trkpt>
      <trkpt lat="44.43455" lon="6.09549">
        <ele>1240.7185059</ele>
        <time>2014-07-08T09:58:32Z</time>
      </trkpt>
      <trkpt lat="44.43448" lon="6.09535">
        <ele>1238.7961426</ele>
        <time>2014-07-08T09:58:35Z</time>
      </trkpt>
      <trkpt lat="44.43448" lon="6.09532">
        <ele>1238.7961426</ele>
        <time>2014-07-08T09:58:36Z</time>
      </trkpt>
      <trkpt lat="44.43448" lon="6.09524">
        <ele>1237.8347168</ele>
        <time>2014-07-08T09:58:49Z</time>
      </trkpt>
      <trkpt lat="44.43449" lon="6.09523">
        <ele>1235.4313965</ele>
        <time>2014-07-08T09:59:34Z</time>
      </trkpt>
      <trkpt lat="44.43449" lon="6.09519">
        <ele>1233.0280762</ele>
        <time>2014-07-08T10:00:05Z</time>
      </trkpt>
      <trkpt lat="44.43449" lon="6.09519">
        <ele>1229.6635742</ele>
        <time>2014-07-08T10:01:02Z</time>
      </trkpt>
      <trkpt lat="44.43449" lon="6.09519">
        <ele>1229.6635742</ele>
        <time>2014-07-08T10:01:16Z</time>
      </trkpt>
      <trkpt lat="44.43462" lon="6.09515">
        <ele>1228.2216797</ele>
        <time>2014-07-08T10:01:24Z</time>
      </trkpt>
      <trkpt lat="44.43489" lon="6.09544">
        <ele>1223.8955078</ele>
        <time>2014-07-08T10:01:34Z</time>
      </trkpt>
      <trkpt lat="44.43493" lon="6.09549">
        <ele>1223.8955078</ele>
        <time>2014-07-08T10:01:35Z</time>
      </trkpt>
      <trkpt lat="44.43517" lon="6.0958">
        <ele>1219.5698242</ele>
        <time>2014-07-08T10:01:42Z</time>
      </trkpt>
      <trkpt lat="44.43533" lon="6.09599">
        <ele>1218.1276855</ele>
        <time>2014-07-08T10:01:46Z</time>
      </trkpt>
      <trkpt lat="44.43535" lon="6.09622">
        <ele>1215.7246094</ele>
        <time>2014-07-08T10:01:50Z</time>
      </trkpt>
      <trkpt lat="44.43531" lon="6.09631">
        <ele>1214.2824707</ele>
        <time>2014-07-08T10:01:52Z</time>
      </trkpt>
      <trkpt lat="44.4353" lon="6.09653">
        <ele>1211.8791504</ele>
        <time>2014-07-08T10:01:57Z</time>
      </trkpt>
      <trkpt lat="44.43555" lon="6.09707">
        <ele>1208.5144043</ele>
        <time>2014-07-08T10:02:04Z</time>
      </trkpt>
      <trkpt lat="44.43557" lon="6.09721">
        <ele>1207.5532227</ele>
        <time>2014-07-08T10:02:06Z</time>
      </trkpt>
      <trkpt lat="44.43557" lon="6.09701">
        <ele>1206.111084</ele>
        <time>2014-07-08T10:02:09Z</time>
      </trkpt>
      <trkpt lat="44.43567" lon="6.09719">
        <ele>1203.7080078</ele>
        <time>2014-07-08T10:02:13Z</time>
      </trkpt>
      <trkpt lat="44.4357" lon="6.09724">
        <ele>1202.2658691</ele>
        <time>2014-07-08T10:02:14Z</time>
      </trkpt>
      <trkpt lat="44.43569" lon="6.09749">
        <ele>1199.862793</ele>
        <time>2014-07-08T10:02:20Z</time>
      </trkpt>
      <trkpt lat="44.43552" lon="6.09764">
        <ele>1196.0175781</ele>
        <time>2014-07-08T10:02:25Z</time>
      </trkpt>
      <trkpt lat="44.43522" lon="6.09753">
        <ele>1195.0559082</ele>
        <time>2014-07-08T10:02:27Z</time>
      </trkpt>
      <trkpt lat="44.4352" lon="6.09745">
        <ele>1194.5751953</ele>
        <time>2014-07-08T10:02:28Z</time>
      </trkpt>
      <trkpt lat="44.4349" lon="6.09762">
        <ele>1190.7299805</ele>
        <time>2014-07-08T10:02:33Z</time>
      </trkpt>
      <trkpt lat="44.43491" lon="6.09769">
        <ele>1190.7299805</ele>
        <time>2014-07-08T10:02:34Z</time>
      </trkpt>
      <trkpt lat="44.43493" lon="6.09788">
        <ele>1190.2495117</ele>
        <time>2014-07-08T10:02:36Z</time>
      </trkpt>
      <trkpt lat="44.43478" lon="6.098">
        <ele>1187.3654785</ele>
        <time>2014-07-08T10:02:41Z</time>
      </trkpt>
      <trkpt lat="44.43466" lon="6.09842">
        <ele>1184.4816895</ele>
        <time>2014-07-08T10:02:47Z</time>
      </trkpt>
      <trkpt lat="44.43471" lon="6.09865">
        <ele>1183.0395508</ele>
        <time>2014-07-08T10:02:50Z</time>
      </trkpt>
      <trkpt lat="44.43473" lon="6.09874">
        <ele>1181.5976563</ele>
        <time>2014-07-08T10:02:51Z</time>
      </trkpt>
      <trkpt lat="44.43476" lon="6.09908">
        <ele>1180.1557617</ele>
        <time>2014-07-08T10:02:54Z</time>
      </trkpt>
      <trkpt lat="44.43484" lon="6.09928">
        <ele>1177.7521973</ele>
        <time>2014-07-08T10:02:57Z</time>
      </trkpt>
      <trkpt lat="44.43483" lon="6.09938">
        <ele>1175.8295898</ele>
        <time>2014-07-08T10:02:59Z</time>
      </trkpt>
      <trkpt lat="44.43483" lon="6.09948">
        <ele>1174.3876953</ele>
        <time>2014-07-08T10:03:01Z</time>
      </trkpt>
      <trkpt lat="44.43497" lon="6.09937">
        <ele>1172.4650879</ele>
        <time>2014-07-08T10:03:05Z</time>
      </trkpt>
      <trkpt lat="44.43533" lon="6.09932">
        <ele>1171.5036621</ele>
        <time>2014-07-08T10:03:08Z</time>
      </trkpt>
      <trkpt lat="44.43559" lon="6.09934">
        <ele>1169.5812988</ele>
        <time>2014-07-08T10:03:11Z</time>
      </trkpt>
      <trkpt lat="44.43576" lon="6.0994">
        <ele>1168.1391602</ele>
        <time>2014-07-08T10:03:13Z</time>
      </trkpt>
      <trkpt lat="44.43584" lon="6.09925">
        <ele>1167.6584473</ele>
        <time>2014-07-08T10:03:15Z</time>
      </trkpt>
      <trkpt lat="44.43591" lon="6.09922">
        <ele>1166.2165527</ele>
        <time>2014-07-08T10:03:17Z</time>
      </trkpt>
      <trkpt lat="44.43611" lon="6.09942">
        <ele>1163.8129883</ele>
        <time>2014-07-08T10:03:23Z</time>
      </trkpt>
      <trkpt lat="44.43621" lon="6.09948">
        <ele>1161.890625</ele>
        <time>2014-07-08T10:03:25Z</time>
      </trkpt>
      <trkpt lat="44.4363" lon="6.09957">
        <ele>1160.9291992</ele>
        <time>2014-07-08T10:03:27Z</time>
      </trkpt>
      <trkpt lat="44.43642" lon="6.09982">
        <ele>1157.5646973</ele>
        <time>2014-07-08T10:03:33Z</time>
      </trkpt>
      <trkpt lat="44.43643" lon="6.09986">
        <ele>1157.5646973</ele>
        <time>2014-07-08T10:03:34Z</time>
      </trkpt>
      <trkpt lat="44.43644" lon="6.09991">
        <ele>1156.6032715</ele>
        <time>2014-07-08T10:03:36Z</time>
      </trkpt>
      <trkpt lat="44.43619" lon="6.10015">
        <ele>1153.2387695</ele>
        <time>2014-07-08T10:03:46Z</time>
      </trkpt>
      <trkpt lat="44.43613" lon="6.10027">
        <ele>1152.7580566</ele>
        <time>2014-07-08T10:03:48Z</time>
      </trkpt>
      <trkpt lat="44.4361" lon="6.10038">
        <ele>1151.796875</ele>
        <time>2014-07-08T10:03:50Z</time>
      </trkpt>
      <trkpt lat="44.43599" lon="6.10067">
        <ele>1148.4321289</ele>
        <time>2014-07-08T10:03:55Z</time>
      </trkpt>
      <trkpt lat="44.43605" lon="6.10069">
        <ele>1145.5480957</ele>
        <time>2014-07-08T10:04:00Z</time>
      </trkpt>
      <trkpt lat="44.43619" lon="6.10067">
        <ele>1144.1062012</ele>
        <time>2014-07-08T10:04:04Z</time>
      </trkpt>
      <trkpt lat="44.43646" lon="6.1009">
        <ele>1140.2609863</ele>
        <time>2014-07-08T10:04:14Z</time>
      </trkpt>
      <trkpt lat="44.43661" lon="6.10129">
        <ele>1136.4157715</ele>
        <time>2014-07-08T10:04:24Z</time>
      </trkpt>
      <trkpt lat="44.43662" lon="6.10132">
        <ele>1136.4157715</ele>
        <time>2014-07-08T10:04:25Z</time>
      </trkpt>
      <trkpt lat="44.43678" lon="6.10166">
        <ele>1133.5317383</ele>
        <time>2014-07-08T10:04:32Z</time>
      </trkpt>
      <trkpt lat="44.43681" lon="6.10177">
        <ele>1132.0898438</ele>
        <time>2014-07-08T10:04:34Z</time>
      </trkpt>
      <trkpt lat="44.43683" lon="6.10204">
        <ele>1128.7250977</ele>
        <time>2014-07-08T10:04:40Z</time>
      </trkpt>
      <trkpt lat="44.43684" lon="6.10208">
        <ele>1128.7250977</ele>
        <time>2014-07-08T10:04:41Z</time>
      </trkpt>
      <trkpt lat="44.43709" lon="6.10266">
        <ele>1126.3217773</ele>
        <time>2014-07-08T10:04:52Z</time>
      </trkpt>
      <trkpt lat="44.43708" lon="6.10274">
        <ele>1124.3991699</ele>
        <time>2014-07-08T10:04:55Z</time>
      </trkpt>
      <trkpt lat="44.43726" lon="6.10302">
        <ele>1123.918457</ele>
        <time>2014-07-08T10:05:01Z</time>
      </trkpt>
      <trkpt lat="44.43761" lon="6.10385">
        <ele>1121.5151367</ele>
        <time>2014-07-08T10:05:14Z</time>
      </trkpt>
      <trkpt lat="44.43766" lon="6.10392">
        <ele>1121.5151367</ele>
        <time>2014-07-08T10:05:15Z</time>
      </trkpt>
      <trkpt lat="44.43778" lon="6.10418">
        <ele>1118.6313477</ele>
        <time>2014-07-08T10:05:21Z</time>
      </trkpt>
      <trkpt lat="44.43782" lon="6.10441">
        <ele>1116.2280273</ele>
        <time>2014-07-08T10:05:25Z</time>
      </trkpt>
      <trkpt lat="44.43785" lon="6.10453">
        <ele>1115.2666016</ele>
        <time>2014-07-08T10:05:27Z</time>
      </trkpt>
      <trkpt lat="44.43782" lon="6.10479">
        <ele>1112.3825684</ele>
        <time>2014-07-08T10:05:32Z</time>
      </trkpt>
      <trkpt lat="44.43781" lon="6.10485">
        <ele>1112.3825684</ele>
        <time>2014-07-08T10:05:33Z</time>
      </trkpt>
      <trkpt lat="44.43768" lon="6.10512">
        <ele>1110.4599609</ele>
        <time>2014-07-08T10:05:41Z</time>
      </trkpt>
      <trkpt lat="44.43787" lon="6.10511">
        <ele>1109.0180664</ele>
        <time>2014-07-08T10:05:46Z</time>
      </trkpt>
      <trkpt lat="44.43819" lon="6.105">
        <ele>1105.1728516</ele>
        <time>2014-07-08T10:05:53Z</time>
      </trkpt>
      <trkpt lat="44.43826" lon="6.105">
        <ele>1103.730957</ele>
        <time>2014-07-08T10:05:55Z</time>
      </trkpt>
      <trkpt lat="44.43831" lon="6.105">
        <ele>1102.2888184</ele>
        <time>2014-07-08T10:05:57Z</time>
      </trkpt>
      <trkpt lat="44.43859" lon="6.10486">
        <ele>1098.9240723</ele>
        <time>2014-07-08T10:06:02Z</time>
      </trkpt>
      <trkpt lat="44.43899" lon="6.10456">
        <ele>1096.0402832</ele>
        <time>2014-07-08T10:06:07Z</time>
      </trkpt>
      <trkpt lat="44.43906" lon="6.10449">
        <ele>1095.0788574</ele>
        <time>2014-07-08T10:06:09Z</time>
      </trkpt>
      <trkpt lat="44.43931" lon="6.1043">
        <ele>1092.1950684</ele>
        <time>2014-07-08T10:06:16Z</time>
      </trkpt>
      <trkpt lat="44.43935" lon="6.10422">
        <ele>1091.2336426</ele>
        <time>2014-07-08T10:06:18Z</time>
      </trkpt>
      <trkpt lat="44.43936" lon="6.10418">
        <ele>1091.2336426</ele>
        <time>2014-07-08T10:06:19Z</time>
      </trkpt>
      <trkpt lat="44.4394" lon="6.1035">
        <ele>1086.9077148</ele>
        <time>2014-07-08T10:06:30Z</time>
      </trkpt>
      <trkpt lat="44.43944" lon="6.10342">
        <ele>1085.9465332</ele>
        <time>2014-07-08T10:06:32Z</time>
      </trkpt>
      <trkpt lat="44.43949" lon="6.10336">
        <ele>1084.0239258</ele>
        <time>2014-07-08T10:06:34Z</time>
      </trkpt>
      <trkpt lat="44.43954" lon="6.10329">
        <ele>1083.5429688</ele>
        <time>2014-07-08T10:06:36Z</time>
      </trkpt>
      <trkpt lat="44.43961" lon="6.1032">
        <ele>1082.1010742</ele>
        <time>2014-07-08T10:06:39Z</time>
      </trkpt>
      <trkpt lat="44.43969" lon="6.10306">
        <ele>1080.1784668</ele>
        <time>2014-07-08T10:06:43Z</time>
      </trkpt>
      <trkpt lat="44.43971" lon="6.10304">
        <ele>1079.6977539</ele>
        <time>2014-07-08T10:06:44Z</time>
      </trkpt>
      <trkpt lat="44.43976" lon="6.103">
        <ele>1079.217041</ele>
        <time>2014-07-08T10:06:46Z</time>
      </trkpt>
      <trkpt lat="44.43991" lon="6.10292">
        <ele>1075.8525391</ele>
        <time>2014-07-08T10:06:52Z</time>
      </trkpt>
      <trkpt lat="44.43993" lon="6.10291">
        <ele>1075.8525391</ele>
        <time>2014-07-08T10:06:53Z</time>
      </trkpt>
      <trkpt lat="44.44" lon="6.10287">
        <ele>1074.4106445</ele>
        <time>2014-07-08T10:06:56Z</time>
      </trkpt>
      <trkpt lat="44.44031" lon="6.10267">
        <ele>1071.0461426</ele>
        <time>2014-07-08T10:07:07Z</time>
      </trkpt>
      <trkpt lat="44.44034" lon="6.10265">
        <ele>1071.0461426</ele>
        <time>2014-07-08T10:07:08Z</time>
      </trkpt>
      <trkpt lat="44.4404" lon="6.10266">
        <ele>1070.0847168</ele>
        <time>2014-07-08T10:07:20Z</time>
      </trkpt>
      <trkpt lat="44.4404" lon="6.10267">
        <ele>1070.0847168</ele>
        <time>2014-07-08T10:07:27Z</time>
      </trkpt>
      <trkpt lat="44.44043" lon="6.10276">
        <ele>1070.0847168</ele>
        <time>2014-07-08T10:07:32Z</time>
      </trkpt>
      <trkpt lat="44.44049" lon="6.10314">
        <ele>1071.0461426</ele>
        <time>2014-07-08T10:07:42Z</time>
      </trkpt>
      <trkpt lat="44.44057" lon="6.10346">
        <ele>1072.0073242</ele>
        <time>2014-07-08T10:07:51Z</time>
      </trkpt>
      <trkpt lat="44.44073" lon="6.10407">
        <ele>1070.5654297</ele>
        <time>2014-07-08T10:08:05Z</time>
      </trkpt>
      <trkpt lat="44.44064" lon="6.10441">
        <ele>1070.0847168</ele>
        <time>2014-07-08T10:08:17Z</time>
      </trkpt>
      <trkpt lat="44.4406" lon="6.10489">
        <ele>1072.0073242</ele>
        <time>2014-07-08T10:08:28Z</time>
      </trkpt>
      <trkpt lat="44.4406" lon="6.10529">
        <ele>1073.4494629</ele>
        <time>2014-07-08T10:08:43Z</time>
      </trkpt>
      <trkpt lat="44.44057" lon="6.10542">
        <ele>1073.9299316</ele>
        <time>2014-07-08T10:08:49Z</time>
      </trkpt>
      <trkpt lat="44.44057" lon="6.10557">
        <ele>1074.8913574</ele>
        <time>2014-07-08T10:08:58Z</time>
      </trkpt>
      <trkpt lat="44.44062" lon="6.10574">
        <ele>1076.333252</ele>
        <time>2014-07-08T10:09:07Z</time>
      </trkpt>
      <trkpt lat="44.4406" lon="6.10602">
        <ele>1079.217041</ele>
        <time>2014-07-08T10:09:22Z</time>
      </trkpt>
      <trkpt lat="44.4406" lon="6.10605">
        <ele>1080.1784668</ele>
        <time>2014-07-08T10:09:24Z</time>
      </trkpt>
      <trkpt lat="44.44059" lon="6.10624">
        <ele>1082.5817871</ele>
        <time>2014-07-08T10:09:35Z</time>
      </trkpt>
      <trkpt lat="44.44063" lon="6.10655">
        <ele>1083.5429688</ele>
        <time>2014-07-08T10:09:49Z</time>
      </trkpt>
      <trkpt lat="44.44068" lon="6.10657">
        <ele>1083.5429688</ele>
        <time>2014-07-08T10:10:03Z</time>
      </trkpt>
      <trkpt lat="44.44069" lon="6.10658">
        <ele>1083.5429688</ele>
        <time>2014-07-08T10:10:41Z</time>
      </trkpt>
      <trkpt lat="44.44065" lon="6.10671">
        <ele>1086.4272461</ele>
        <time>2014-07-08T10:11:00Z</time>
      </trkpt>
      <trkpt lat="44.44057" lon="6.10675">
        <ele>1087.8691406</ele>
        <time>2014-07-08T10:11:30Z</time>
      </trkpt>
      <trkpt lat="44.44052" lon="6.1067">
        <ele>1087.8691406</ele>
        <time>2014-07-08T10:11:50Z</time>
      </trkpt>
      <trkpt lat="44.44047" lon="6.10663">
        <ele>1088.8305664</ele>
        <time>2014-07-08T10:11:56Z</time>
      </trkpt>
      <trkpt lat="44.44042" lon="6.10654">
        <ele>1089.791748</ele>
        <time>2014-07-08T10:12:11Z</time>
      </trkpt>
      <trkpt lat="44.4404" lon="6.10654">
        <ele>1089.3110352</ele>
        <time>2014-07-08T10:12:15Z</time>
      </trkpt>
      <trkpt lat="44.44041" lon="6.10647">
        <ele>1088.8305664</ele>
        <time>2014-07-08T10:12:25Z</time>
      </trkpt>
      <trkpt lat="44.44039" lon="6.10645">
        <ele>1089.3110352</ele>
        <time>2014-07-08T10:12:27Z</time>
      </trkpt>
      <trkpt lat="44.44037" lon="6.10635">
        <ele>1090.2724609</ele>
        <time>2014-07-08T10:12:36Z</time>
      </trkpt>
      <trkpt lat="44.44035" lon="6.10625">
        <ele>1088.3498535</ele>
        <time>2014-07-08T10:12:44Z</time>
      </trkpt>
      <trkpt lat="44.44034" lon="6.10615">
        <ele>1088.8305664</ele>
        <time>2014-07-08T10:12:55Z</time>
      </trkpt>
      <trkpt lat="44.44033" lon="6.10615">
        <ele>1090.2724609</ele>
        <time>2014-07-08T10:12:57Z</time>
      </trkpt>
      <trkpt lat="44.44033" lon="6.10615">
        <ele>1089.3110352</ele>
        <time>2014-07-08T10:13:20Z</time>
      </trkpt>
      <trkpt lat="44.44033" lon="6.10615">
        <ele>1089.3110352</ele>
        <time>2014-07-08T10:13:35Z</time>
      </trkpt>
      <trkpt lat="44.44033" lon="6.10614">
        <ele>1091.2336426</ele>
        <time>2014-07-08T10:13:43Z</time>
      </trkpt>
      <trkpt lat="44.44033" lon="6.10613">
        <ele>1090.7529297</ele>
        <time>2014-07-08T10:14:36Z</time>
      </trkpt>
      <trkpt lat="44.44035" lon="6.10613">
        <ele>1090.2724609</ele>
        <time>2014-07-08T10:15:01Z</time>
      </trkpt>
      <trkpt lat="44.44035" lon="6.10613">
        <ele>1089.791748</ele>
        <time>2014-07-08T10:15:28Z</time>
      </trkpt>
      <trkpt lat="44.44036" lon="6.10611">
        <ele>1089.791748</ele>
        <time>2014-07-08T10:18:32Z</time>
      </trkpt>
      <trkpt lat="44.44044" lon="6.10611">
        <ele>1093.15625</ele>
        <time>2014-07-08T10:43:13Z</time>
      </trkpt>
      <trkpt lat="44.44044" lon="6.10611">
        <ele>1092.1950684</ele>
        <time>2014-07-08T10:44:19Z</time>
      </trkpt>
      <trkpt lat="44.44044" lon="6.10612">
        <ele>1093.6369629</ele>
        <time>2014-07-08T10:44:57Z</time>
      </trkpt>
      <trkpt lat="44.44044" lon="6.10614">
        <ele>1093.15625</ele>
        <time>2014-07-08T10:45:18Z</time>
      </trkpt>
      <trkpt lat="44.44049" lon="6.10622">
        <ele>1092.6757813</ele>
        <time>2014-07-08T10:45:40Z</time>
      </trkpt>
      <trkpt lat="44.44051" lon="6.10626">
        <ele>1093.6369629</ele>
        <time>2014-07-08T10:45:56Z</time>
      </trkpt>
      <trkpt lat="44.44049" lon="6.10628">
        <ele>1095.0788574</ele>
        <time>2014-07-08T10:46:07Z</time>
      </trkpt>
      <trkpt lat="44.4405" lon="6.10627">
        <ele>1093.6369629</ele>
        <time>2014-07-08T10:46:09Z</time>
      </trkpt>
      <trkpt lat="44.4405" lon="6.10618">
        <ele>1093.6369629</ele>
        <time>2014-07-08T10:46:24Z</time>
      </trkpt>
      <trkpt lat="44.44049" lon="6.10618">
        <ele>1094.5981445</ele>
        <time>2014-07-08T10:46:32Z</time>
      </trkpt>
      <trkpt lat="44.44049" lon="6.10618">
        <ele>1093.6369629</ele>
        <time>2014-07-08T10:46:36Z</time>
      </trkpt>
      <trkpt lat="44.44048" lon="6.10618">
        <ele>1094.5981445</ele>
        <time>2014-07-08T10:48:48Z</time>
      </trkpt>
      <trkpt lat="44.44048" lon="6.10618">
        <ele>1095.5595703</ele>
        <time>2014-07-08T10:50:01Z</time>
      </trkpt>
      <trkpt lat="44.44045" lon="6.10615">
        <ele>1095.5595703</ele>
        <time>2014-07-08T10:50:51Z</time>
      </trkpt>
      <trkpt lat="44.44046" lon="6.10628">
        <ele>1096.0402832</ele>
        <time>2014-07-08T10:51:39Z</time>
      </trkpt>
      <trkpt lat="44.44048" lon="6.1063">
        <ele>1095.5595703</ele>
        <time>2014-07-08T10:51:43Z</time>
      </trkpt>
      <trkpt lat="44.44053" lon="6.10653">
        <ele>1094.1176758</ele>
        <time>2014-07-08T10:52:00Z</time>
      </trkpt>
      <trkpt lat="44.44055" lon="6.10662">
        <ele>1094.5981445</ele>
        <time>2014-07-08T10:52:06Z</time>
      </trkpt>
      <trkpt lat="44.44055" lon="6.10673">
        <ele>1094.1176758</ele>
        <time>2014-07-08T10:52:14Z</time>
      </trkpt>
      <trkpt lat="44.44061" lon="6.10671">
        <ele>1092.1950684</ele>
        <time>2014-07-08T10:52:30Z</time>
      </trkpt>
      <trkpt lat="44.44063" lon="6.10666">
        <ele>1090.7529297</ele>
        <time>2014-07-08T10:52:35Z</time>
      </trkpt>
      <trkpt lat="44.44075" lon="6.10664">
        <ele>1090.7529297</ele>
        <time>2014-07-08T10:52:39Z</time>
      </trkpt>
      <trkpt lat="44.44076" lon="6.10675">
        <ele>1090.2724609</ele>
        <time>2014-07-08T10:52:48Z</time>
      </trkpt>
      <trkpt lat="44.44078" lon="6.1069">
        <ele>1089.791748</ele>
        <time>2014-07-08T10:53:06Z</time>
      </trkpt>
      <trkpt lat="44.44082" lon="6.10696">
        <ele>1090.2724609</ele>
        <time>2014-07-08T10:53:21Z</time>
      </trkpt>
      <trkpt lat="44.44092" lon="6.10704">
        <ele>1091.7143555</ele>
        <time>2014-07-08T10:53:37Z</time>
      </trkpt>
      <trkpt lat="44.44092" lon="6.10741">
        <ele>1093.15625</ele>
        <time>2014-07-08T10:53:59Z</time>
      </trkpt>
      <trkpt lat="44.44113" lon="6.10753">
        <ele>1094.1176758</ele>
        <time>2014-07-08T10:54:16Z</time>
      </trkpt>
      <trkpt lat="44.4411" lon="6.10758">
        <ele>1093.6369629</ele>
        <time>2014-07-08T10:54:50Z</time>
      </trkpt>
      <trkpt lat="44.44119" lon="6.10765">
        <ele>1094.1176758</ele>
        <time>2014-07-08T10:55:03Z</time>
      </trkpt>
      <trkpt lat="44.44127" lon="6.1078">
        <ele>1096.5209961</ele>
        <time>2014-07-08T10:55:25Z</time>
      </trkpt>
      <trkpt lat="44.4413" lon="6.10785">
        <ele>1097.0014648</ele>
        <time>2014-07-08T10:55:30Z</time>
      </trkpt>
      <trkpt lat="44.44133" lon="6.10793">
        <ele>1099.885498</ele>
        <time>2014-07-08T10:55:42Z</time>
      </trkpt>
      <trkpt lat="44.44133" lon="6.10793">
        <ele>1099.885498</ele>
        <time>2014-07-08T10:55:43Z</time>
      </trkpt>
      <trkpt lat="44.44138" lon="6.10796">
        <ele>1097.9628906</ele>
        <time>2014-07-08T10:55:49Z</time>
      </trkpt>
      <trkpt lat="44.44142" lon="6.10815">
        <ele>1099.885498</ele>
        <time>2014-07-08T10:56:03Z</time>
      </trkpt>
      <trkpt lat="44.4415" lon="6.10824">
        <ele>1098.4433594</ele>
        <time>2014-07-08T10:56:12Z</time>
      </trkpt>
      <trkpt lat="44.44152" lon="6.1083">
        <ele>1099.885498</ele>
        <time>2014-07-08T10:56:14Z</time>
      </trkpt>
      <trkpt lat="44.44178" lon="6.10849">
        <ele>1099.885498</ele>
        <time>2014-07-08T10:56:20Z</time>
      </trkpt>
      <trkpt lat="44.44206" lon="6.10871">
        <ele>1099.4047852</ele>
        <time>2014-07-08T10:56:31Z</time>
      </trkpt>
      <trkpt lat="44.44221" lon="6.1089">
        <ele>1101.8083496</ele>
        <time>2014-07-08T10:56:39Z</time>
      </trkpt>
      <trkpt lat="44.4422" lon="6.10899">
        <ele>1101.8083496</ele>
        <time>2014-07-08T10:56:42Z</time>
      </trkpt>
      <trkpt lat="44.44221" lon="6.10901">
        <ele>1101.3276367</ele>
        <time>2014-07-08T10:56:44Z</time>
      </trkpt>
      <trkpt lat="44.4422" lon="6.10909">
        <ele>1101.8083496</ele>
        <time>2014-07-08T10:56:49Z</time>
      </trkpt>
      <trkpt lat="44.44225" lon="6.10915">
        <ele>1102.7695313</ele>
        <time>2014-07-08T10:56:52Z</time>
      </trkpt>
      <trkpt lat="44.44233" lon="6.10928">
        <ele>1100.3664551</ele>
        <time>2014-07-08T10:56:59Z</time>
      </trkpt>
      <trkpt lat="44.44276" lon="6.1097">
        <ele>1101.8083496</ele>
        <time>2014-07-08T10:57:14Z</time>
      </trkpt>
      <trkpt lat="44.44282" lon="6.10976">
        <ele>1100.8469238</ele>
        <time>2014-07-08T10:57:16Z</time>
      </trkpt>
      <trkpt lat="44.44292" lon="6.10997">
        <ele>1100.8469238</ele>
        <time>2014-07-08T10:57:26Z</time>
      </trkpt>
      <trkpt lat="44.44301" lon="6.11005">
        <ele>1101.8083496</ele>
        <time>2014-07-08T10:57:30Z</time>
      </trkpt>
      <trkpt lat="44.44311" lon="6.11011">
        <ele>1101.8083496</ele>
        <time>2014-07-08T10:57:35Z</time>
      </trkpt>
      <trkpt lat="44.44321" lon="6.11019">
        <ele>1101.8083496</ele>
        <time>2014-07-08T10:57:39Z</time>
      </trkpt>
      <trkpt lat="44.4433" lon="6.11037">
        <ele>1102.7695313</ele>
        <time>2014-07-08T10:57:47Z</time>
      </trkpt>
      <trkpt lat="44.4434" lon="6.11055">
        <ele>1103.2502441</ele>
        <time>2014-07-08T10:57:58Z</time>
      </trkpt>
      <trkpt lat="44.44344" lon="6.11058">
        <ele>1103.730957</ele>
        <time>2014-07-08T10:58:00Z</time>
      </trkpt>
      <trkpt lat="44.4437" lon="6.11095">
        <ele>1102.7695313</ele>
        <time>2014-07-08T10:58:12Z</time>
      </trkpt>
      <trkpt lat="44.44389" lon="6.11123">
        <ele>1103.2502441</ele>
        <time>2014-07-08T10:58:25Z</time>
      </trkpt>
      <trkpt lat="44.44415" lon="6.11152">
        <ele>1102.7695313</ele>
        <time>2014-07-08T10:58:38Z</time>
      </trkpt>
      <trkpt lat="44.44423" lon="6.11181">
        <ele>1105.6535645</ele>
        <time>2014-07-08T10:58:52Z</time>
      </trkpt>
      <trkpt lat="44.44423" lon="6.11183">
        <ele>1105.6535645</ele>
        <time>2014-07-08T10:58:53Z</time>
      </trkpt>
      <trkpt lat="44.44433" lon="6.11194">
        <ele>1107.095459</ele>
        <time>2014-07-08T10:59:04Z</time>
      </trkpt>
      <trkpt lat="44.44431" lon="6.11218">
        <ele>1108.0568848</ele>
        <time>2014-07-08T10:59:14Z</time>
      </trkpt>
      <trkpt lat="44.44434" lon="6.11223">
        <ele>1108.5373535</ele>
        <time>2014-07-08T10:59:17Z</time>
      </trkpt>
      <trkpt lat="44.44445" lon="6.11232">
        <ele>1109.0180664</ele>
        <time>2014-07-08T10:59:24Z</time>
      </trkpt>
      <trkpt lat="44.44449" lon="6.11242">
        <ele>1109.0180664</ele>
        <time>2014-07-08T10:59:28Z</time>
      </trkpt>
      <trkpt lat="44.44454" lon="6.11251">
        <ele>1110.9406738</ele>
        <time>2014-07-08T10:59:34Z</time>
      </trkpt>
      <trkpt lat="44.44474" lon="6.11275">
        <ele>1111.4213867</ele>
        <time>2014-07-08T10:59:49Z</time>
      </trkpt>
      <trkpt lat="44.44486" lon="6.11308">
        <ele>1110.4599609</ele>
        <time>2014-07-08T11:00:00Z</time>
      </trkpt>
      <trkpt lat="44.44493" lon="6.11326">
        <ele>1110.4599609</ele>
        <time>2014-07-08T11:00:05Z</time>
      </trkpt>
      <trkpt lat="44.44499" lon="6.11337">
        <ele>1111.4213867</ele>
        <time>2014-07-08T11:00:10Z</time>
      </trkpt>
      <trkpt lat="44.44506" lon="6.11371">
        <ele>1112.8632813</ele>
        <time>2014-07-08T11:00:23Z</time>
      </trkpt>
      <trkpt lat="44.44507" lon="6.11398">
        <ele>1114.3051758</ele>
        <time>2014-07-08T11:00:34Z</time>
      </trkpt>
      <trkpt lat="44.44506" lon="6.11405">
        <ele>1115.2666016</ele>
        <time>2014-07-08T11:00:38Z</time>
      </trkpt>
      <trkpt lat="44.44503" lon="6.11417">
        <ele>1115.7473145</ele>
        <time>2014-07-08T11:00:44Z</time>
      </trkpt>
      <trkpt lat="44.44504" lon="6.1142">
        <ele>1116.2280273</ele>
        <time>2014-07-08T11:00:46Z</time>
      </trkpt>
      <trkpt lat="44.44502" lon="6.11456">
        <ele>1118.6313477</ele>
        <time>2014-07-08T11:01:00Z</time>
      </trkpt>
      <trkpt lat="44.44502" lon="6.11467">
        <ele>1119.5927734</ele>
        <time>2014-07-08T11:01:12Z</time>
      </trkpt>
      <trkpt lat="44.44502" lon="6.11467">
        <ele>1120.0732422</ele>
        <time>2014-07-08T11:02:12Z</time>
      </trkpt>
      <trkpt lat="44.445" lon="6.11471">
        <ele>1120.0732422</ele>
        <time>2014-07-08T11:02:48Z</time>
      </trkpt>
      <trkpt lat="44.44501" lon="6.11471">
        <ele>1118.6313477</ele>
        <time>2014-07-08T11:02:56Z</time>
      </trkpt>
      <trkpt lat="44.44501" lon="6.11471">
        <ele>1120.5539551</ele>
        <time>2014-07-08T11:02:58Z</time>
      </trkpt>
      <trkpt lat="44.44501" lon="6.11471">
        <ele>1121.034668</ele>
        <time>2014-07-08T11:03:09Z</time>
      </trkpt>
      <trkpt lat="44.44501" lon="6.11471">
        <ele>1121.5151367</ele>
        <time>2014-07-08T11:03:32Z</time>
      </trkpt>
      <trkpt lat="44.44501" lon="6.11471">
        <ele>1119.5927734</ele>
        <time>2014-07-08T11:03:38Z</time>
      </trkpt>
      <trkpt lat="44.44501" lon="6.11471">
        <ele>1121.034668</ele>
        <time>2014-07-08T11:03:41Z</time>
      </trkpt>
      <trkpt lat="44.445" lon="6.11472">
        <ele>1118.6313477</ele>
        <time>2014-07-08T11:04:08Z</time>
      </trkpt>
      <trkpt lat="44.44498" lon="6.11473">
        <ele>1120.5539551</ele>
        <time>2014-07-08T11:04:10Z</time>
      </trkpt>
      <trkpt lat="44.44495" lon="6.1148">
        <ele>1120.0732422</ele>
        <time>2014-07-08T11:04:21Z</time>
      </trkpt>
      <trkpt lat="44.4449" lon="6.11485">
        <ele>1121.034668</ele>
        <time>2014-07-08T11:04:27Z</time>
      </trkpt>
      <trkpt lat="44.44484" lon="6.1149">
        <ele>1121.9958496</ele>
        <time>2014-07-08T11:04:33Z</time>
      </trkpt>
      <trkpt lat="44.44472" lon="6.115">
        <ele>1123.4379883</ele>
        <time>2014-07-08T11:04:44Z</time>
      </trkpt>
      <trkpt lat="44.44461" lon="6.1152">
        <ele>1124.8798828</ele>
        <time>2014-07-08T11:04:56Z</time>
      </trkpt>
      <trkpt lat="44.44459" lon="6.11537">
        <ele>1125.3603516</ele>
        <time>2014-07-08T11:05:02Z</time>
      </trkpt>
      <trkpt lat="44.44452" lon="6.11556">
        <ele>1125.8410645</ele>
        <time>2014-07-08T11:05:13Z</time>
      </trkpt>
      <trkpt lat="44.44452" lon="6.11559">
        <ele>1127.2832031</ele>
        <time>2014-07-08T11:05:15Z</time>
      </trkpt>
      <trkpt lat="44.44447" lon="6.11573">
        <ele>1127.7636719</ele>
        <time>2014-07-08T11:05:25Z</time>
      </trkpt>
      <trkpt lat="44.44447" lon="6.11577">
        <ele>1127.7636719</ele>
        <time>2014-07-08T11:05:27Z</time>
      </trkpt>
      <trkpt lat="44.44447" lon="6.11593">
        <ele>1128.2443848</ele>
        <time>2014-07-08T11:05:37Z</time>
      </trkpt>
      <trkpt lat="44.44442" lon="6.11605">
        <ele>1128.7250977</ele>
        <time>2014-07-08T11:05:45Z</time>
      </trkpt>
      <trkpt lat="44.44442" lon="6.11613">
        <ele>1129.6862793</ele>
        <time>2014-07-08T11:05:52Z</time>
      </trkpt>
      <trkpt lat="44.44444" lon="6.1163">
        <ele>1130.1669922</ele>
        <time>2014-07-08T11:06:00Z</time>
      </trkpt>
      <trkpt lat="44.44447" lon="6.11651">
        <ele>1131.6088867</ele>
        <time>2014-07-08T11:06:11Z</time>
      </trkpt>
      <trkpt lat="44.44443" lon="6.11663">
        <ele>1133.0510254</ele>
        <time>2014-07-08T11:06:18Z</time>
      </trkpt>
      <trkpt lat="44.44443" lon="6.11672">
        <ele>1133.0510254</ele>
        <time>2014-07-08T11:06:23Z</time>
      </trkpt>
      <trkpt lat="44.44434" lon="6.11694">
        <ele>1134.0124512</ele>
        <time>2014-07-08T11:06:36Z</time>
      </trkpt>
      <trkpt lat="44.44429" lon="6.11713">
        <ele>1134.0124512</ele>
        <time>2014-07-08T11:06:47Z</time>
      </trkpt>
      <trkpt lat="44.44426" lon="6.11735">
        <ele>1134.973877</ele>
        <time>2014-07-08T11:07:00Z</time>
      </trkpt>
      <trkpt lat="44.44424" lon="6.11748">
        <ele>1135.4543457</ele>
        <time>2014-07-08T11:07:06Z</time>
      </trkpt>
      <trkpt lat="44.44418" lon="6.11751">
        <ele>1135.9350586</ele>
        <time>2014-07-08T11:07:11Z</time>
      </trkpt>
      <trkpt lat="44.44411" lon="6.11737">
        <ele>1137.3769531</ele>
        <time>2014-07-08T11:07:22Z</time>
      </trkpt>
      <trkpt lat="44.44411" lon="6.11737">
        <ele>1137.3769531</ele>
        <time>2014-07-08T11:07:23Z</time>
      </trkpt>
      <trkpt lat="44.44419" lon="6.11729">
        <ele>1137.857666</ele>
        <time>2014-07-08T11:07:29Z</time>
      </trkpt>
      <trkpt lat="44.44412" lon="6.11715">
        <ele>1138.3383789</ele>
        <time>2014-07-08T11:07:36Z</time>
      </trkpt>
      <trkpt lat="44.44414" lon="6.11706">
        <ele>1139.2995605</ele>
        <time>2014-07-08T11:07:41Z</time>
      </trkpt>
      <trkpt lat="44.44415" lon="6.11701">
        <ele>1139.2995605</ele>
        <time>2014-07-08T11:07:44Z</time>
      </trkpt>
      <trkpt lat="44.4442" lon="6.1168">
        <ele>1140.7414551</ele>
        <time>2014-07-08T11:07:57Z</time>
      </trkpt>
      <trkpt lat="44.44419" lon="6.11676">
        <ele>1141.222168</ele>
        <time>2014-07-08T11:07:59Z</time>
      </trkpt>
      <trkpt lat="44.44419" lon="6.11672">
        <ele>1141.7028809</ele>
        <time>2014-07-08T11:08:01Z</time>
      </trkpt>
      <trkpt lat="44.4443" lon="6.11656">
        <ele>1142.6643066</ele>
        <time>2014-07-08T11:08:10Z</time>
      </trkpt>
      <trkpt lat="44.44431" lon="6.11651">
        <ele>1142.6643066</ele>
        <time>2014-07-08T11:08:13Z</time>
      </trkpt>
      <trkpt lat="44.4443" lon="6.1164">
        <ele>1143.1447754</ele>
        <time>2014-07-08T11:08:18Z</time>
      </trkpt>
      <trkpt lat="44.44431" lon="6.11631">
        <ele>1143.6254883</ele>
        <time>2014-07-08T11:08:22Z</time>
      </trkpt>
      <trkpt lat="44.44435" lon="6.11625">
        <ele>1143.6254883</ele>
        <time>2014-07-08T11:08:26Z</time>
      </trkpt>
      <trkpt lat="44.44439" lon="6.11609">
        <ele>1144.5866699</ele>
        <time>2014-07-08T11:08:38Z</time>
      </trkpt>
      <trkpt lat="44.4444" lon="6.11608">
        <ele>1144.5866699</ele>
        <time>2014-07-08T11:08:39Z</time>
      </trkpt>
      <trkpt lat="44.44449" lon="6.1159">
        <ele>1145.0673828</ele>
        <time>2014-07-08T11:08:50Z</time>
      </trkpt>
      <trkpt lat="44.44436" lon="6.11582">
        <ele>1145.5480957</ele>
        <time>2014-07-08T11:09:02Z</time>
      </trkpt>
      <trkpt lat="44.44421" lon="6.11564">
        <ele>1146.5095215</ele>
        <time>2014-07-08T11:09:15Z</time>
      </trkpt>
      <trkpt lat="44.4441" lon="6.11544">
        <ele>1146.9899902</ele>
        <time>2014-07-08T11:09:27Z</time>
      </trkpt>
      <trkpt lat="44.44407" lon="6.1154">
        <ele>1146.9899902</ele>
        <time>2014-07-08T11:09:32Z</time>
      </trkpt>
      <trkpt lat="44.44404" lon="6.11531">
        <ele>1147.951416</ele>
        <time>2014-07-08T11:09:54Z</time>
      </trkpt>
      <trkpt lat="44.44397" lon="6.11512">
        <ele>1146.9899902</ele>
        <time>2014-07-08T11:10:38Z</time>
      </trkpt>
      <trkpt lat="44.44391" lon="6.115">
        <ele>1146.9899902</ele>
        <time>2014-07-08T11:10:45Z</time>
      </trkpt>
      <trkpt lat="44.44388" lon="6.11493">
        <ele>1146.9899902</ele>
        <time>2014-07-08T11:10:49Z</time>
      </trkpt>
      <trkpt lat="44.44386" lon="6.1149">
        <ele>1146.9899902</ele>
        <time>2014-07-08T11:10:51Z</time>
      </trkpt>
      <trkpt lat="44.44383" lon="6.11477">
        <ele>1147.4707031</ele>
        <time>2014-07-08T11:11:00Z</time>
      </trkpt>
      <trkpt lat="44.44383" lon="6.11472">
        <ele>1148.9128418</ele>
        <time>2014-07-08T11:11:04Z</time>
      </trkpt>
      <trkpt lat="44.44376" lon="6.11452">
        <ele>1148.4321289</ele>
        <time>2014-07-08T11:11:19Z</time>
      </trkpt>
      <trkpt lat="44.44364" lon="6.11438">
        <ele>1149.8742676</ele>
        <time>2014-07-08T11:11:31Z</time>
      </trkpt>
      <trkpt lat="44.44353" lon="6.11428">
        <ele>1150.8354492</ele>
        <time>2014-07-08T11:11:39Z</time>
      </trkpt>
      <trkpt lat="44.44351" lon="6.11427">
        <ele>1151.3161621</ele>
        <time>2014-07-08T11:11:41Z</time>
      </trkpt>
      <trkpt lat="44.44342" lon="6.11435">
        <ele>1152.2773438</ele>
        <time>2014-07-08T11:11:52Z</time>
      </trkpt>
      <trkpt lat="44.4434" lon="6.11443">
        <ele>1152.7580566</ele>
        <time>2014-07-08T11:11:57Z</time>
      </trkpt>
      <trkpt lat="44.44342" lon="6.11452">
        <ele>1153.2387695</ele>
        <time>2014-07-08T11:12:01Z</time>
      </trkpt>
      <trkpt lat="44.44342" lon="6.11457">
        <ele>1153.7194824</ele>
        <time>2014-07-08T11:12:04Z</time>
      </trkpt>
      <trkpt lat="44.44344" lon="6.11469">
        <ele>1154.2001953</ele>
        <time>2014-07-08T11:12:13Z</time>
      </trkpt>
      <trkpt lat="44.44342" lon="6.11484">
        <ele>1154.6806641</ele>
        <time>2014-07-08T11:12:21Z</time>
      </trkpt>
      <trkpt lat="44.44341" lon="6.11503">
        <ele>1155.6420898</ele>
        <time>2014-07-08T11:12:32Z</time>
      </trkpt>
      <trkpt lat="44.44343" lon="6.11506">
        <ele>1155.6420898</ele>
        <time>2014-07-08T11:12:34Z</time>
      </trkpt>
      <trkpt lat="44.44346" lon="6.11524">
        <ele>1156.1225586</ele>
        <time>2014-07-08T11:12:43Z</time>
      </trkpt>
      <trkpt lat="44.44351" lon="6.11532">
        <ele>1156.6032715</ele>
        <time>2014-07-08T11:12:50Z</time>
      </trkpt>
      <trkpt lat="44.44357" lon="6.11541">
        <ele>1157.0839844</ele>
        <time>2014-07-08T11:12:55Z</time>
      </trkpt>
      <trkpt lat="44.44361" lon="6.11559">
        <ele>1158.0454102</ele>
        <time>2014-07-08T11:13:07Z</time>
      </trkpt>
      <trkpt lat="44.44361" lon="6.11563">
        <ele>1158.0454102</ele>
        <time>2014-07-08T11:13:09Z</time>
      </trkpt>
      <trkpt lat="44.4436" lon="6.11578">
        <ele>1158.0454102</ele>
        <time>2014-07-08T11:13:19Z</time>
      </trkpt>
      <trkpt lat="44.44356" lon="6.1159">
        <ele>1159.0065918</ele>
        <time>2014-07-08T11:13:28Z</time>
      </trkpt>
      <trkpt lat="44.44352" lon="6.11613">
        <ele>1159.9677734</ele>
        <time>2014-07-08T11:13:43Z</time>
      </trkpt>
      <trkpt lat="44.44351" lon="6.11614">
        <ele>1159.9677734</ele>
        <time>2014-07-08T11:13:44Z</time>
      </trkpt>
      <trkpt lat="44.44347" lon="6.11631">
        <ele>1160.9291992</ele>
        <time>2014-07-08T11:13:57Z</time>
      </trkpt>
      <trkpt lat="44.44346" lon="6.11633">
        <ele>1160.9291992</ele>
        <time>2014-07-08T11:13:59Z</time>
      </trkpt>
      <trkpt lat="44.44344" lon="6.11647">
        <ele>1161.890625</ele>
        <time>2014-07-08T11:14:09Z</time>
      </trkpt>
      <trkpt lat="44.44344" lon="6.11652">
        <ele>1161.890625</ele>
        <time>2014-07-08T11:14:12Z</time>
      </trkpt>
      <trkpt lat="44.44342" lon="6.11654">
        <ele>1161.890625</ele>
        <time>2014-07-08T11:14:14Z</time>
      </trkpt>
      <trkpt lat="44.44342" lon="6.11657">
        <ele>1161.890625</ele>
        <time>2014-07-08T11:14:16Z</time>
      </trkpt>
      <trkpt lat="44.44338" lon="6.11668">
        <ele>1162.3710938</ele>
        <time>2014-07-08T11:14:26Z</time>
      </trkpt>
      <trkpt lat="44.44331" lon="6.11672">
        <ele>1161.890625</ele>
        <time>2014-07-08T11:14:33Z</time>
      </trkpt>
      <trkpt lat="44.44328" lon="6.1168">
        <ele>1162.8518066</ele>
        <time>2014-07-08T11:14:41Z</time>
      </trkpt>
      <trkpt lat="44.44321" lon="6.11693">
        <ele>1163.3325195</ele>
        <time>2014-07-08T11:14:51Z</time>
      </trkpt>
      <trkpt lat="44.4432" lon="6.11712">
        <ele>1163.3325195</ele>
        <time>2014-07-08T11:15:05Z</time>
      </trkpt>
      <trkpt lat="44.44323" lon="6.1173">
        <ele>1163.8129883</ele>
        <time>2014-07-08T11:15:16Z</time>
      </trkpt>
      <trkpt lat="44.44291" lon="6.11716">
        <ele>1161.890625</ele>
        <time>2014-07-08T11:15:27Z</time>
      </trkpt>
      <trkpt lat="44.44295" lon="6.11733">
        <ele>1158.5258789</ele>
        <time>2014-07-08T11:15:32Z</time>
      </trkpt>
      <trkpt lat="44.44289" lon="6.11754">
        <ele>1156.1225586</ele>
        <time>2014-07-08T11:15:38Z</time>
      </trkpt>
      <trkpt lat="44.44282" lon="6.11761">
        <ele>1156.1225586</ele>
        <time>2014-07-08T11:15:41Z</time>
      </trkpt>
      <trkpt lat="44.44264" lon="6.11767">
        <ele>1154.6806641</ele>
        <time>2014-07-08T11:15:45Z</time>
      </trkpt>
      <trkpt lat="44.44238" lon="6.11771">
        <ele>1152.7580566</ele>
        <time>2014-07-08T11:15:50Z</time>
      </trkpt>
      <trkpt lat="44.44229" lon="6.11781">
        <ele>1152.2773438</ele>
        <time>2014-07-08T11:15:52Z</time>
      </trkpt>
      <trkpt lat="44.44218" lon="6.11789">
        <ele>1150.3549805</ele>
        <time>2014-07-08T11:15:54Z</time>
      </trkpt>
      <trkpt lat="44.44205" lon="6.11804">
        <ele>1148.9128418</ele>
        <time>2014-07-08T11:15:57Z</time>
      </trkpt>
      <trkpt lat="44.44198" lon="6.11808">
        <ele>1147.951416</ele>
        <time>2014-07-08T11:15:59Z</time>
      </trkpt>
      <trkpt lat="44.44171" lon="6.11826">
        <ele>1145.5480957</ele>
        <time>2014-07-08T11:16:06Z</time>
      </trkpt>
      <trkpt lat="44.4416" lon="6.11851">
        <ele>1142.6643066</ele>
        <time>2014-07-08T11:16:13Z</time>
      </trkpt>
      <trkpt lat="44.44161" lon="6.11871">
        <ele>1140.2609863</ele>
        <time>2014-07-08T11:16:21Z</time>
      </trkpt>
      <trkpt lat="44.44164" lon="6.11872">
        <ele>1138.8190918</ele>
        <time>2014-07-08T11:16:24Z</time>
      </trkpt>
      <trkpt lat="44.44178" lon="6.11873">
        <ele>1136.4157715</ele>
        <time>2014-07-08T11:16:28Z</time>
      </trkpt>
      <trkpt lat="44.44209" lon="6.11884">
        <ele>1133.0510254</ele>
        <time>2014-07-08T11:16:35Z</time>
      </trkpt>
      <trkpt lat="44.44239" lon="6.11892">
        <ele>1130.6477051</ele>
        <time>2014-07-08T11:16:40Z</time>
      </trkpt>
      <trkpt lat="44.44253" lon="6.11895">
        <ele>1129.2055664</ele>
        <time>2014-07-08T11:16:43Z</time>
      </trkpt>
      <trkpt lat="44.44269" lon="6.11904">
        <ele>1125.3603516</ele>
        <time>2014-07-08T11:16:51Z</time>
      </trkpt>
      <trkpt lat="44.44273" lon="6.11905">
        <ele>1125.3603516</ele>
        <time>2014-07-08T11:16:52Z</time>
      </trkpt>
      <trkpt lat="44.44293" lon="6.11939">
        <ele>1122.4765625</ele>
        <time>2014-07-08T11:16:58Z</time>
      </trkpt>
      <trkpt lat="44.44295" lon="6.11942">
        <ele>1122.4765625</ele>
        <time>2014-07-08T11:16:59Z</time>
      </trkpt>
      <trkpt lat="44.44309" lon="6.11944">
        <ele>1121.5151367</ele>
        <time>2014-07-08T11:17:01Z</time>
      </trkpt>
      <trkpt lat="44.4432" lon="6.11969">
        <ele>1119.5927734</ele>
        <time>2014-07-08T11:17:08Z</time>
      </trkpt>
      <trkpt lat="44.44322" lon="6.11972">
        <ele>1119.1120605</ele>
        <time>2014-07-08T11:17:09Z</time>
      </trkpt>
      <trkpt lat="44.44339" lon="6.1199">
        <ele>1116.7087402</ele>
        <time>2014-07-08T11:17:15Z</time>
      </trkpt>
      <trkpt lat="44.44348" lon="6.11999">
        <ele>1116.2280273</ele>
        <time>2014-07-08T11:17:17Z</time>
      </trkpt>
      <trkpt lat="44.44359" lon="6.12016">
        <ele>1113.8244629</ele>
        <time>2014-07-08T11:17:22Z</time>
      </trkpt>
      <trkpt lat="44.44364" lon="6.12023">
        <ele>1112.8632813</ele>
        <time>2014-07-08T11:17:24Z</time>
      </trkpt>
      <trkpt lat="44.4437" lon="6.12025">
        <ele>1111.4213867</ele>
        <time>2014-07-08T11:17:26Z</time>
      </trkpt>
      <trkpt lat="44.44391" lon="6.12039">
        <ele>1108.0568848</ele>
        <time>2014-07-08T11:17:34Z</time>
      </trkpt>
      <trkpt lat="44.44395" lon="6.12041">
        <ele>1107.5761719</ele>
        <time>2014-07-08T11:17:35Z</time>
      </trkpt>
      <trkpt lat="44.44421" lon="6.12056">
        <ele>1106.1340332</ele>
        <time>2014-07-08T11:17:40Z</time>
      </trkpt>
      <trkpt lat="44.44426" lon="6.12069">
        <ele>1104.6921387</ele>
        <time>2014-07-08T11:17:43Z</time>
      </trkpt>
      <trkpt lat="44.44426" lon="6.12077">
        <ele>1105.1728516</ele>
        <time>2014-07-08T11:17:44Z</time>
      </trkpt>
      <trkpt lat="44.44441" lon="6.12114">
        <ele>1101.8083496</ele>
        <time>2014-07-08T11:17:49Z</time>
      </trkpt>
      <trkpt lat="44.44439" lon="6.1214">
        <ele>1100.3664551</ele>
        <time>2014-07-08T11:17:53Z</time>
      </trkpt>
      <trkpt lat="44.4442" lon="6.12158">
        <ele>1098.9240723</ele>
        <time>2014-07-08T11:17:58Z</time>
      </trkpt>
      <trkpt lat="44.44401" lon="6.12171">
        <ele>1097.0014648</ele>
        <time>2014-07-08T11:18:02Z</time>
      </trkpt>
      <trkpt lat="44.44387" lon="6.12181">
        <ele>1094.5981445</ele>
        <time>2014-07-08T11:18:06Z</time>
      </trkpt>
      <trkpt lat="44.44377" lon="6.1219">
        <ele>1092.1950684</ele>
        <time>2014-07-08T11:18:09Z</time>
      </trkpt>
      <trkpt lat="44.44366" lon="6.12222">
        <ele>1090.2724609</ele>
        <time>2014-07-08T11:18:13Z</time>
      </trkpt>
      <trkpt lat="44.44363" lon="6.12237">
        <ele>1090.2724609</ele>
        <time>2014-07-08T11:18:15Z</time>
      </trkpt>
      <trkpt lat="44.44353" lon="6.12257">
        <ele>1086.9077148</ele>
        <time>2014-07-08T11:18:19Z</time>
      </trkpt>
      <trkpt lat="44.44343" lon="6.12266">
        <ele>1085.4658203</ele>
        <time>2014-07-08T11:18:22Z</time>
      </trkpt>
      <trkpt lat="44.44328" lon="6.12271">
        <ele>1084.0239258</ele>
        <time>2014-07-08T11:18:27Z</time>
      </trkpt>
      <trkpt lat="44.44317" lon="6.12297">
        <ele>1083.0622559</ele>
        <time>2014-07-08T11:18:33Z</time>
      </trkpt>
      <trkpt lat="44.44315" lon="6.12319">
        <ele>1083.5429688</ele>
        <time>2014-07-08T11:18:36Z</time>
      </trkpt>
      <trkpt lat="44.44312" lon="6.12348">
        <ele>1081.1398926</ele>
        <time>2014-07-08T11:18:40Z</time>
      </trkpt>
      <trkpt lat="44.44311" lon="6.12361">
        <ele>1078.2558594</ele>
        <time>2014-07-08T11:18:42Z</time>
      </trkpt>
      <trkpt lat="44.44313" lon="6.12369">
        <ele>1078.2558594</ele>
        <time>2014-07-08T11:18:43Z</time>
      </trkpt>
      <trkpt lat="44.44314" lon="6.12411">
        <ele>1075.3718262</ele>
        <time>2014-07-08T11:18:49Z</time>
      </trkpt>
      <trkpt lat="44.44314" lon="6.12422">
        <ele>1074.4106445</ele>
        <time>2014-07-08T11:18:51Z</time>
      </trkpt>
      <trkpt lat="44.44297" lon="6.1245">
        <ele>1072.96875</ele>
        <time>2014-07-08T11:18:59Z</time>
      </trkpt>
      <trkpt lat="44.44278" lon="6.12466">
        <ele>1069.604248</ele>
        <time>2014-07-08T11:19:04Z</time>
      </trkpt>
      <trkpt lat="44.44273" lon="6.12468">
        <ele>1070.0847168</ele>
        <time>2014-07-08T11:19:05Z</time>
      </trkpt>
      <trkpt lat="44.44263" lon="6.12475">
        <ele>1069.604248</ele>
        <time>2014-07-08T11:19:07Z</time>
      </trkpt>
      <trkpt lat="44.44252" lon="6.1249">
        <ele>1067.2006836</ele>
        <time>2014-07-08T11:19:10Z</time>
      </trkpt>
      <trkpt lat="44.44238" lon="6.12515">
        <ele>1064.7973633</ele>
        <time>2014-07-08T11:19:18Z</time>
      </trkpt>
      <trkpt lat="44.44236" lon="6.1252">
        <ele>1063.8359375</ele>
        <time>2014-07-08T11:19:20Z</time>
      </trkpt>
      <trkpt lat="44.44255" lon="6.12536">
        <ele>1064.3166504</ele>
        <time>2014-07-08T11:19:25Z</time>
      </trkpt>
      <trkpt lat="44.44275" lon="6.12552">
        <ele>1061.9135742</ele>
        <time>2014-07-08T11:19:29Z</time>
      </trkpt>
      <trkpt lat="44.44281" lon="6.12554">
        <ele>1061.4328613</ele>
        <time>2014-07-08T11:19:30Z</time>
      </trkpt>
      <trkpt lat="44.44295" lon="6.12555">
        <ele>1059.9907227</ele>
        <time>2014-07-08T11:19:34Z</time>
      </trkpt>
      <trkpt lat="44.44318" lon="6.12555">
        <ele>1058.5488281</ele>
        <time>2014-07-08T11:19:39Z</time>
      </trkpt>
      <trkpt lat="44.44337" lon="6.12552">
        <ele>1058.5488281</ele>
        <time>2014-07-08T11:19:43Z</time>
      </trkpt>
      <trkpt lat="44.44379" lon="6.12565">
        <ele>1057.1069336</ele>
        <time>2014-07-08T11:19:54Z</time>
      </trkpt>
      <trkpt lat="44.44382" lon="6.12565">
        <ele>1058.0683594</ele>
        <time>2014-07-08T11:19:57Z</time>
      </trkpt>
      <trkpt lat="44.44397" lon="6.12578">
        <ele>1059.5102539</ele>
        <time>2014-07-08T11:20:06Z</time>
      </trkpt>
      <trkpt lat="44.44419" lon="6.12624">
        <ele>1059.029541</ele>
        <time>2014-07-08T11:20:21Z</time>
      </trkpt>
      <trkpt lat="44.44455" lon="6.12669">
        <ele>1058.0683594</ele>
        <time>2014-07-08T11:20:34Z</time>
      </trkpt>
      <trkpt lat="44.44469" lon="6.12678">
        <ele>1055.1843262</ele>
        <time>2014-07-08T11:20:38Z</time>
      </trkpt>
      <trkpt lat="44.44474" lon="6.1268">
        <ele>1055.1843262</ele>
        <time>2014-07-08T11:20:39Z</time>
      </trkpt>
      <trkpt lat="44.4449" lon="6.12693">
        <ele>1054.7036133</ele>
        <time>2014-07-08T11:20:43Z</time>
      </trkpt>
      <trkpt lat="44.44495" lon="6.12695">
        <ele>1054.7036133</ele>
        <time>2014-07-08T11:20:44Z</time>
      </trkpt>
      <trkpt lat="44.44505" lon="6.12709">
        <ele>1054.7036133</ele>
        <time>2014-07-08T11:20:47Z</time>
      </trkpt>
      <trkpt lat="44.44515" lon="6.12731">
        <ele>1053.2617188</ele>
        <time>2014-07-08T11:20:51Z</time>
      </trkpt>
      <trkpt lat="44.44539" lon="6.12793">
        <ele>1052.7810059</ele>
        <time>2014-07-08T11:21:02Z</time>
      </trkpt>
      <trkpt lat="44.44552" lon="6.1281">
        <ele>1050.8581543</ele>
        <time>2014-07-08T11:21:06Z</time>
      </trkpt>
      <trkpt lat="44.44555" lon="6.12813">
        <ele>1050.8581543</ele>
        <time>2014-07-08T11:21:07Z</time>
      </trkpt>
      <trkpt lat="44.4456" lon="6.12819">
        <ele>1049.4162598</ele>
        <time>2014-07-08T11:21:09Z</time>
      </trkpt>
      <trkpt lat="44.44561" lon="6.12821">
        <ele>1049.4162598</ele>
        <time>2014-07-08T11:21:10Z</time>
      </trkpt>
      <trkpt lat="44.44564" lon="6.12822">
        <ele>1048.9355469</ele>
        <time>2014-07-08T11:21:12Z</time>
      </trkpt>
      <trkpt lat="44.44568" lon="6.12822">
        <ele>1047.9743652</ele>
        <time>2014-07-08T11:21:14Z</time>
      </trkpt>
      <trkpt lat="44.44568" lon="6.12822">
        <ele>1047.4936523</ele>
        <time>2014-07-08T11:21:15Z</time>
      </trkpt>
      <trkpt lat="44.44578" lon="6.12821">
        <ele>1047.0129395</ele>
        <time>2014-07-08T11:21:28Z</time>
      </trkpt>
      <trkpt lat="44.44586" lon="6.12831">
        <ele>1046.5324707</ele>
        <time>2014-07-08T11:21:38Z</time>
      </trkpt>
      <trkpt lat="44.44585" lon="6.12831">
        <ele>1046.5324707</ele>
        <time>2014-07-08T11:21:39Z</time>
      </trkpt>
      <trkpt lat="44.44583" lon="6.12833">
        <ele>1046.0517578</ele>
        <time>2014-07-08T11:21:41Z</time>
      </trkpt>
      <trkpt lat="44.44573" lon="6.12856">
        <ele>1044.6096191</ele>
        <time>2014-07-08T11:21:48Z</time>
      </trkpt>
      <trkpt lat="44.44578" lon="6.12874">
        <ele>1043.1677246</ele>
        <time>2014-07-08T11:21:53Z</time>
      </trkpt>
      <trkpt lat="44.44591" lon="6.1288">
        <ele>1042.6872559</ele>
        <time>2014-07-08T11:21:57Z</time>
      </trkpt>
      <trkpt lat="44.44607" lon="6.12884">
        <ele>1039.8032227</ele>
        <time>2014-07-08T11:22:01Z</time>
      </trkpt>
      <trkpt lat="44.4461" lon="6.12885">
        <ele>1039.8032227</ele>
        <time>2014-07-08T11:22:02Z</time>
      </trkpt>
      <trkpt lat="44.44642" lon="6.12894">
        <ele>1038.3613281</ele>
        <time>2014-07-08T11:22:10Z</time>
      </trkpt>
      <trkpt lat="44.44658" lon="6.12897">
        <ele>1038.3613281</ele>
        <time>2014-07-08T11:22:13Z</time>
      </trkpt>
      <trkpt lat="44.44682" lon="6.12898">
        <ele>1037.8806152</ele>
        <time>2014-07-08T11:22:17Z</time>
      </trkpt>
      <trkpt lat="44.44697" lon="6.12915">
        <ele>1037.3999023</ele>
        <time>2014-07-08T11:22:22Z</time>
      </trkpt>
      <trkpt lat="44.4473" lon="6.12977">
        <ele>1035.4770508</ele>
        <time>2014-07-08T11:22:36Z</time>
      </trkpt>
      <trkpt lat="44.44732" lon="6.12983">
        <ele>1035.4770508</ele>
        <time>2014-07-08T11:22:37Z</time>
      </trkpt>
      <trkpt lat="44.44742" lon="6.13009">
        <ele>1032.5932617</ele>
        <time>2014-07-08T11:22:43Z</time>
      </trkpt>
      <trkpt lat="44.44756" lon="6.1303">
        <ele>1029.2285156</ele>
        <time>2014-07-08T11:22:49Z</time>
      </trkpt>
      <trkpt lat="44.44764" lon="6.13031">
        <ele>1028.267334</ele>
        <time>2014-07-08T11:22:51Z</time>
      </trkpt>
      <trkpt lat="44.44782" lon="6.13026">
        <ele>1025.8640137</ele>
        <time>2014-07-08T11:22:55Z</time>
      </trkpt>
      <trkpt lat="44.44811" lon="6.13019">
        <ele>1025.3833008</ele>
        <time>2014-07-08T11:23:00Z</time>
      </trkpt>
      <trkpt lat="44.44843" lon="6.13023">
        <ele>1025.8640137</ele>
        <time>2014-07-08T11:23:06Z</time>
      </trkpt>
      <trkpt lat="44.44928" lon="6.13002">
        <ele>1025.3833008</ele>
        <time>2014-07-08T11:23:22Z</time>
      </trkpt>
      <trkpt lat="44.44933" lon="6.13">
        <ele>1025.3833008</ele>
        <time>2014-07-08T11:23:23Z</time>
      </trkpt>
      <trkpt lat="44.44959" lon="6.12991">
        <ele>1022.9802246</ele>
        <time>2014-07-08T11:23:27Z</time>
      </trkpt>
      <trkpt lat="44.4498" lon="6.12985">
        <ele>1021.5380859</ele>
        <time>2014-07-08T11:23:30Z</time>
      </trkpt>
      <trkpt lat="44.45" lon="6.12978">
        <ele>1017.692627</ele>
        <time>2014-07-08T11:23:33Z</time>
      </trkpt>
      <trkpt lat="44.45007" lon="6.12976">
        <ele>1018.1733398</ele>
        <time>2014-07-08T11:23:34Z</time>
      </trkpt>
      <trkpt lat="44.45021" lon="6.12972">
        <ele>1016.7314453</ele>
        <time>2014-07-08T11:23:36Z</time>
      </trkpt>
      <trkpt lat="44.45035" lon="6.12966">
        <ele>1011.9250488</ele>
        <time>2014-07-08T11:23:38Z</time>
      </trkpt>
      <trkpt lat="44.45041" lon="6.12961">
        <ele>1011.9250488</ele>
        <time>2014-07-08T11:23:39Z</time>
      </trkpt>
      <trkpt lat="44.45047" lon="6.12955">
        <ele>1017.692627</ele>
        <time>2014-07-08T11:23:40Z</time>
      </trkpt>
      <trkpt lat="44.45056" lon="6.12941">
        <ele>1018.6540527</ele>
        <time>2014-07-08T11:23:42Z</time>
      </trkpt>
      <trkpt lat="44.4506" lon="6.12926">
        <ele>1017.692627</ele>
        <time>2014-07-08T11:23:44Z</time>
      </trkpt>
      <trkpt lat="44.45068" lon="6.12902">
        <ele>1015.7702637</ele>
        <time>2014-07-08T11:23:48Z</time>
      </trkpt>
      <trkpt lat="44.45076" lon="6.12895">
        <ele>1016.2507324</ele>
        <time>2014-07-08T11:23:51Z</time>
      </trkpt>
      <trkpt lat="44.4508" lon="6.12888">
        <ele>1016.7314453</ele>
        <time>2014-07-08T11:23:53Z</time>
      </trkpt>
      <trkpt lat="44.45111" lon="6.1287">
        <ele>1019.6154785</ele>
        <time>2014-07-08T11:24:06Z</time>
      </trkpt>
      <trkpt lat="44.45142" lon="6.12851">
        <ele>1021.0576172</ele>
        <time>2014-07-08T11:24:20Z</time>
      </trkpt>
      <trkpt lat="44.45144" lon="6.1285">
        <ele>1021.0576172</ele>
        <time>2014-07-08T11:24:21Z</time>
      </trkpt>
      <trkpt lat="44.45143" lon="6.12867">
        <ele>1022.4995117</ele>
        <time>2014-07-08T11:24:32Z</time>
      </trkpt>
      <trkpt lat="44.45141" lon="6.12868">
        <ele>1022.0187988</ele>
        <time>2014-07-08T11:24:52Z</time>
      </trkpt>
      <trkpt lat="44.45141" lon="6.12868">
        <ele>1021.5380859</ele>
        <time>2014-07-08T11:25:15Z</time>
      </trkpt>
      <trkpt lat="44.45141" lon="6.12868">
        <ele>1023.9414063</ele>
        <time>2014-07-08T11:25:22Z</time>
      </trkpt>
    </trkseg>
  </trk>
</gpx>